<?xml version="1.0" encoding="UTF-8" standalone="no" ?>
<gpx xmlns="http://www.topografix.com/GPX/1/1" xmlns:xsi="http://www.w3.org/2001/XMLSchema-instance" xsi:schemaLocation="http://www.topografix.com/GPX/1/1 http://www.topografix.com/GPX/1/1/gpx.xsd" version="1.1" creator="VisuGPX - https://www.visugpx.com">
  <metadata>
    <name>Adeps ANGREAU </name>
    <desc><![CDATA[Dimanche 2 avril  2017 .MARCHE ADEPS.
Très beau parcours 
M.N.D.B.H]]></desc>
  </metadata>
  <trk>
    <name><![CDATA[2017-04-02 15:14:03]]></name>
    <trkseg>
      <trkpt lat="50.35013" lon="3.69077">
        <ele>69.35</ele>
        <time>2017-04-02T08:02:48Z</time>
      </trkpt>
      <trkpt lat="50.35013" lon="3.69077">
        <ele>69.35</ele>
        <time>2017-04-02T08:02:49Z</time>
      </trkpt>
      <trkpt lat="50.35013" lon="3.69076">
        <ele>71.27</ele>
        <time>2017-04-02T08:02:54Z</time>
      </trkpt>
      <trkpt lat="50.3501" lon="3.69084">
        <ele>70.79</ele>
        <time>2017-04-02T08:03:07Z</time>
      </trkpt>
      <trkpt lat="50.3501" lon="3.69085">
        <ele>70.79</ele>
        <time>2017-04-02T08:03:27Z</time>
      </trkpt>
      <trkpt lat="50.35009" lon="3.69086">
        <ele>70.79</ele>
        <time>2017-04-02T08:03:28Z</time>
      </trkpt>
      <trkpt lat="50.35001" lon="3.69094">
        <ele>70.79</ele>
        <time>2017-04-02T08:03:38Z</time>
      </trkpt>
      <trkpt lat="50.34998" lon="3.69095">
        <ele>71.76</ele>
        <time>2017-04-02T08:03:40Z</time>
      </trkpt>
      <trkpt lat="50.34998" lon="3.69096">
        <ele>71.76</ele>
        <time>2017-04-02T08:03:41Z</time>
      </trkpt>
      <trkpt lat="50.34988" lon="3.69094">
        <ele>72.24</ele>
        <time>2017-04-02T08:03:58Z</time>
      </trkpt>
      <trkpt lat="50.34978" lon="3.69094">
        <ele>72.72</ele>
        <time>2017-04-02T08:04:12Z</time>
      </trkpt>
      <trkpt lat="50.34966" lon="3.69091">
        <ele>73.2</ele>
        <time>2017-04-02T08:04:25Z</time>
      </trkpt>
      <trkpt lat="50.34956" lon="3.69089">
        <ele>73.2</ele>
        <time>2017-04-02T08:04:40Z</time>
      </trkpt>
      <trkpt lat="50.34942" lon="3.69089">
        <ele>73.68</ele>
        <time>2017-04-02T08:04:53Z</time>
      </trkpt>
      <trkpt lat="50.34929" lon="3.69087">
        <ele>74.16</ele>
        <time>2017-04-02T08:05:03Z</time>
      </trkpt>
      <trkpt lat="50.34917" lon="3.69088">
        <ele>74.16</ele>
        <time>2017-04-02T08:05:16Z</time>
      </trkpt>
      <trkpt lat="50.34904" lon="3.69094">
        <ele>74.16</ele>
        <time>2017-04-02T08:05:27Z</time>
      </trkpt>
      <trkpt lat="50.34892" lon="3.69106">
        <ele>75.12</ele>
        <time>2017-04-02T08:05:41Z</time>
      </trkpt>
      <trkpt lat="50.34882" lon="3.6912">
        <ele>74.64</ele>
        <time>2017-04-02T08:05:55Z</time>
      </trkpt>
      <trkpt lat="50.34877" lon="3.69127">
        <ele>75.12</ele>
        <time>2017-04-02T08:06:02Z</time>
      </trkpt>
      <trkpt lat="50.34873" lon="3.6913">
        <ele>75.12</ele>
        <time>2017-04-02T08:06:05Z</time>
      </trkpt>
      <trkpt lat="50.34867" lon="3.69145">
        <ele>75.6</ele>
        <time>2017-04-02T08:06:17Z</time>
      </trkpt>
      <trkpt lat="50.34859" lon="3.69159">
        <ele>76.08</ele>
        <time>2017-04-02T08:06:28Z</time>
      </trkpt>
      <trkpt lat="50.34852" lon="3.69172">
        <ele>76.08</ele>
        <time>2017-04-02T08:06:39Z</time>
      </trkpt>
      <trkpt lat="50.34842" lon="3.69191">
        <ele>76.56</ele>
        <time>2017-04-02T08:06:51Z</time>
      </trkpt>
      <trkpt lat="50.34835" lon="3.69205">
        <ele>76.08</ele>
        <time>2017-04-02T08:06:59Z</time>
      </trkpt>
      <trkpt lat="50.34834" lon="3.69218">
        <ele>76.08</ele>
        <time>2017-04-02T08:07:07Z</time>
      </trkpt>
      <trkpt lat="50.34834" lon="3.69249">
        <ele>77.52</ele>
        <time>2017-04-02T08:07:23Z</time>
      </trkpt>
      <trkpt lat="50.34834" lon="3.69257">
        <ele>77.52</ele>
        <time>2017-04-02T08:07:27Z</time>
      </trkpt>
      <trkpt lat="50.34835" lon="3.69261">
        <ele>77.52</ele>
        <time>2017-04-02T08:07:29Z</time>
      </trkpt>
      <trkpt lat="50.34835" lon="3.6927">
        <ele>77.52</ele>
        <time>2017-04-02T08:07:34Z</time>
      </trkpt>
      <trkpt lat="50.34834" lon="3.69291">
        <ele>77.52</ele>
        <time>2017-04-02T08:07:45Z</time>
      </trkpt>
      <trkpt lat="50.34834" lon="3.69296">
        <ele>77.52</ele>
        <time>2017-04-02T08:07:48Z</time>
      </trkpt>
      <trkpt lat="50.34831" lon="3.69304">
        <ele>77.52</ele>
        <time>2017-04-02T08:07:54Z</time>
      </trkpt>
      <trkpt lat="50.34815" lon="3.6932">
        <ele>77.52</ele>
        <time>2017-04-02T08:08:08Z</time>
      </trkpt>
      <trkpt lat="50.34808" lon="3.69329">
        <ele>77.52</ele>
        <time>2017-04-02T08:08:14Z</time>
      </trkpt>
      <trkpt lat="50.34803" lon="3.69338">
        <ele>77.52</ele>
        <time>2017-04-02T08:08:19Z</time>
      </trkpt>
      <trkpt lat="50.34801" lon="3.69351">
        <ele>78.48</ele>
        <time>2017-04-02T08:08:27Z</time>
      </trkpt>
      <trkpt lat="50.348" lon="3.69376">
        <ele>78.97</ele>
        <time>2017-04-02T08:08:40Z</time>
      </trkpt>
      <trkpt lat="50.34799" lon="3.69388">
        <ele>79.45</ele>
        <time>2017-04-02T08:08:47Z</time>
      </trkpt>
      <trkpt lat="50.34797" lon="3.69413">
        <ele>79.45</ele>
        <time>2017-04-02T08:09:01Z</time>
      </trkpt>
      <trkpt lat="50.34785" lon="3.69439">
        <ele>79.93</ele>
        <time>2017-04-02T08:09:17Z</time>
      </trkpt>
      <trkpt lat="50.34774" lon="3.69459">
        <ele>79.93</ele>
        <time>2017-04-02T08:09:32Z</time>
      </trkpt>
      <trkpt lat="50.3476" lon="3.69483">
        <ele>79.93</ele>
        <time>2017-04-02T08:09:48Z</time>
      </trkpt>
      <trkpt lat="50.34742" lon="3.69503">
        <ele>80.41</ele>
        <time>2017-04-02T08:10:04Z</time>
      </trkpt>
      <trkpt lat="50.34738" lon="3.69509">
        <ele>80.41</ele>
        <time>2017-04-02T08:10:09Z</time>
      </trkpt>
      <trkpt lat="50.34733" lon="3.69515">
        <ele>80.41</ele>
        <time>2017-04-02T08:10:14Z</time>
      </trkpt>
      <trkpt lat="50.34712" lon="3.69538">
        <ele>80.89</ele>
        <time>2017-04-02T08:10:33Z</time>
      </trkpt>
      <trkpt lat="50.34695" lon="3.6956">
        <ele>80.89</ele>
        <time>2017-04-02T08:10:50Z</time>
      </trkpt>
      <trkpt lat="50.34686" lon="3.69573">
        <ele>80.89</ele>
        <time>2017-04-02T08:10:59Z</time>
      </trkpt>
      <trkpt lat="50.34667" lon="3.69593">
        <ele>80.89</ele>
        <time>2017-04-02T08:11:17Z</time>
      </trkpt>
      <trkpt lat="50.3465" lon="3.69615">
        <ele>81.37</ele>
        <time>2017-04-02T08:11:35Z</time>
      </trkpt>
      <trkpt lat="50.34647" lon="3.69617">
        <ele>81.37</ele>
        <time>2017-04-02T08:11:38Z</time>
      </trkpt>
      <trkpt lat="50.34628" lon="3.69641">
        <ele>81.37</ele>
        <time>2017-04-02T08:11:56Z</time>
      </trkpt>
      <trkpt lat="50.34609" lon="3.69662">
        <ele>81.37</ele>
        <time>2017-04-02T08:12:14Z</time>
      </trkpt>
      <trkpt lat="50.3459" lon="3.69683">
        <ele>81.85</ele>
        <time>2017-04-02T08:12:32Z</time>
      </trkpt>
      <trkpt lat="50.34577" lon="3.69701">
        <ele>81.85</ele>
        <time>2017-04-02T08:12:46Z</time>
      </trkpt>
      <trkpt lat="50.34562" lon="3.69723">
        <ele>82.33</ele>
        <time>2017-04-02T08:13:02Z</time>
      </trkpt>
      <trkpt lat="50.34551" lon="3.69738">
        <ele>82.33</ele>
        <time>2017-04-02T08:13:14Z</time>
      </trkpt>
      <trkpt lat="50.34546" lon="3.69745">
        <ele>82.33</ele>
        <time>2017-04-02T08:13:19Z</time>
      </trkpt>
      <trkpt lat="50.34533" lon="3.69764">
        <ele>82.33</ele>
        <time>2017-04-02T08:13:34Z</time>
      </trkpt>
      <trkpt lat="50.34522" lon="3.69776">
        <ele>82.81</ele>
        <time>2017-04-02T08:13:44Z</time>
      </trkpt>
      <trkpt lat="50.34507" lon="3.69795">
        <ele>82.81</ele>
        <time>2017-04-02T08:14:00Z</time>
      </trkpt>
      <trkpt lat="50.34493" lon="3.69811">
        <ele>83.77</ele>
        <time>2017-04-02T08:14:14Z</time>
      </trkpt>
      <trkpt lat="50.34488" lon="3.69814">
        <ele>83.77</ele>
        <time>2017-04-02T08:14:18Z</time>
      </trkpt>
      <trkpt lat="50.34473" lon="3.69829">
        <ele>83.77</ele>
        <time>2017-04-02T08:14:33Z</time>
      </trkpt>
      <trkpt lat="50.34453" lon="3.69847">
        <ele>84.25</ele>
        <time>2017-04-02T08:14:51Z</time>
      </trkpt>
      <trkpt lat="50.34436" lon="3.69863">
        <ele>85.21</ele>
        <time>2017-04-02T08:15:06Z</time>
      </trkpt>
      <trkpt lat="50.3442" lon="3.69881">
        <ele>85.69</ele>
        <time>2017-04-02T08:15:22Z</time>
      </trkpt>
      <trkpt lat="50.34409" lon="3.69896">
        <ele>85.69</ele>
        <time>2017-04-02T08:15:34Z</time>
      </trkpt>
      <trkpt lat="50.344" lon="3.6991">
        <ele>86.18</ele>
        <time>2017-04-02T08:15:43Z</time>
      </trkpt>
      <trkpt lat="50.34393" lon="3.69922">
        <ele>86.66</ele>
        <time>2017-04-02T08:15:52Z</time>
      </trkpt>
      <trkpt lat="50.34379" lon="3.69947">
        <ele>87.14</ele>
        <time>2017-04-02T08:16:09Z</time>
      </trkpt>
      <trkpt lat="50.3437" lon="3.69971">
        <ele>88.1</ele>
        <time>2017-04-02T08:16:24Z</time>
      </trkpt>
      <trkpt lat="50.34359" lon="3.70001">
        <ele>88.58</ele>
        <time>2017-04-02T08:16:41Z</time>
      </trkpt>
      <trkpt lat="50.34352" lon="3.70023">
        <ele>89.06</ele>
        <time>2017-04-02T08:16:54Z</time>
      </trkpt>
      <trkpt lat="50.34343" lon="3.7005">
        <ele>89.06</ele>
        <time>2017-04-02T08:17:10Z</time>
      </trkpt>
      <trkpt lat="50.34332" lon="3.70078">
        <ele>89.54</ele>
        <time>2017-04-02T08:17:26Z</time>
      </trkpt>
      <trkpt lat="50.34324" lon="3.70096">
        <ele>89.54</ele>
        <time>2017-04-02T08:17:39Z</time>
      </trkpt>
      <trkpt lat="50.3431" lon="3.70117">
        <ele>88.1</ele>
        <time>2017-04-02T08:17:55Z</time>
      </trkpt>
      <trkpt lat="50.34309" lon="3.70118">
        <ele>88.1</ele>
        <time>2017-04-02T08:17:56Z</time>
      </trkpt>
      <trkpt lat="50.34299" lon="3.70127">
        <ele>87.62</ele>
        <time>2017-04-02T08:18:10Z</time>
      </trkpt>
      <trkpt lat="50.34296" lon="3.70133">
        <ele>87.14</ele>
        <time>2017-04-02T08:18:26Z</time>
      </trkpt>
      <trkpt lat="50.34294" lon="3.70138">
        <ele>87.14</ele>
        <time>2017-04-02T08:18:37Z</time>
      </trkpt>
      <trkpt lat="50.34292" lon="3.70141">
        <ele>87.14</ele>
        <time>2017-04-02T08:18:58Z</time>
      </trkpt>
      <trkpt lat="50.34292" lon="3.7014">
        <ele>87.14</ele>
        <time>2017-04-02T08:19:20Z</time>
      </trkpt>
      <trkpt lat="50.34291" lon="3.70141">
        <ele>87.14</ele>
        <time>2017-04-02T08:19:48Z</time>
      </trkpt>
      <trkpt lat="50.34294" lon="3.70147">
        <ele>87.14</ele>
        <time>2017-04-02T08:20:03Z</time>
      </trkpt>
      <trkpt lat="50.34296" lon="3.70151">
        <ele>86.66</ele>
        <time>2017-04-02T08:20:06Z</time>
      </trkpt>
      <trkpt lat="50.34307" lon="3.70174">
        <ele>85.21</ele>
        <time>2017-04-02T08:20:22Z</time>
      </trkpt>
      <trkpt lat="50.34312" lon="3.70182">
        <ele>84.25</ele>
        <time>2017-04-02T08:20:29Z</time>
      </trkpt>
      <trkpt lat="50.34316" lon="3.70187">
        <ele>84.25</ele>
        <time>2017-04-02T08:20:34Z</time>
      </trkpt>
      <trkpt lat="50.34333" lon="3.70207">
        <ele>83.29</ele>
        <time>2017-04-02T08:20:51Z</time>
      </trkpt>
      <trkpt lat="50.34348" lon="3.70227">
        <ele>81.85</ele>
        <time>2017-04-02T08:21:07Z</time>
      </trkpt>
      <trkpt lat="50.34364" lon="3.70248">
        <ele>80.41</ele>
        <time>2017-04-02T08:21:24Z</time>
      </trkpt>
      <trkpt lat="50.34381" lon="3.7027">
        <ele>78.97</ele>
        <time>2017-04-02T08:21:42Z</time>
      </trkpt>
      <trkpt lat="50.34402" lon="3.70292">
        <ele>77.52</ele>
        <time>2017-04-02T08:22:02Z</time>
      </trkpt>
      <trkpt lat="50.34423" lon="3.70308">
        <ele>76.56</ele>
        <time>2017-04-02T08:22:19Z</time>
      </trkpt>
      <trkpt lat="50.34428" lon="3.70312">
        <ele>76.08</ele>
        <time>2017-04-02T08:22:24Z</time>
      </trkpt>
      <trkpt lat="50.34441" lon="3.70344">
        <ele>75.6</ele>
        <time>2017-04-02T08:22:41Z</time>
      </trkpt>
      <trkpt lat="50.34448" lon="3.70364">
        <ele>75.12</ele>
        <time>2017-04-02T08:22:54Z</time>
      </trkpt>
      <trkpt lat="50.34449" lon="3.70372">
        <ele>75.12</ele>
        <time>2017-04-02T08:22:58Z</time>
      </trkpt>
      <trkpt lat="50.34455" lon="3.70395">
        <ele>74.16</ele>
        <time>2017-04-02T08:23:10Z</time>
      </trkpt>
      <trkpt lat="50.34457" lon="3.70403">
        <ele>74.16</ele>
        <time>2017-04-02T08:23:13Z</time>
      </trkpt>
      <trkpt lat="50.34463" lon="3.70435">
        <ele>74.16</ele>
        <time>2017-04-02T08:23:31Z</time>
      </trkpt>
      <trkpt lat="50.34464" lon="3.70443">
        <ele>74.16</ele>
        <time>2017-04-02T08:23:36Z</time>
      </trkpt>
      <trkpt lat="50.34456" lon="3.70465">
        <ele>73.68</ele>
        <time>2017-04-02T08:23:51Z</time>
      </trkpt>
      <trkpt lat="50.34452" lon="3.70472">
        <ele>73.68</ele>
        <time>2017-04-02T08:23:56Z</time>
      </trkpt>
      <trkpt lat="50.3444" lon="3.70496">
        <ele>75.12</ele>
        <time>2017-04-02T08:24:12Z</time>
      </trkpt>
      <trkpt lat="50.34427" lon="3.70516">
        <ele>76.56</ele>
        <time>2017-04-02T08:24:27Z</time>
      </trkpt>
      <trkpt lat="50.34422" lon="3.70523">
        <ele>76.56</ele>
        <time>2017-04-02T08:24:32Z</time>
      </trkpt>
      <trkpt lat="50.34419" lon="3.70531">
        <ele>77.04</ele>
        <time>2017-04-02T08:24:37Z</time>
      </trkpt>
      <trkpt lat="50.34407" lon="3.70551">
        <ele>78</ele>
        <time>2017-04-02T08:24:53Z</time>
      </trkpt>
      <trkpt lat="50.34394" lon="3.70573">
        <ele>78.97</ele>
        <time>2017-04-02T08:25:08Z</time>
      </trkpt>
      <trkpt lat="50.34382" lon="3.70595">
        <ele>78.97</ele>
        <time>2017-04-02T08:25:22Z</time>
      </trkpt>
      <trkpt lat="50.3437" lon="3.7062">
        <ele>78.97</ele>
        <time>2017-04-02T08:25:39Z</time>
      </trkpt>
      <trkpt lat="50.34361" lon="3.70636">
        <ele>78.97</ele>
        <time>2017-04-02T08:25:51Z</time>
      </trkpt>
      <trkpt lat="50.34359" lon="3.70639">
        <ele>78.97</ele>
        <time>2017-04-02T08:25:53Z</time>
      </trkpt>
      <trkpt lat="50.34349" lon="3.70655">
        <ele>77.52</ele>
        <time>2017-04-02T08:26:05Z</time>
      </trkpt>
      <trkpt lat="50.34336" lon="3.70675">
        <ele>76.56</ele>
        <time>2017-04-02T08:26:20Z</time>
      </trkpt>
      <trkpt lat="50.34327" lon="3.70692">
        <ele>74.64</ele>
        <time>2017-04-02T08:26:34Z</time>
      </trkpt>
      <trkpt lat="50.34321" lon="3.70702">
        <ele>74.16</ele>
        <time>2017-04-02T08:26:42Z</time>
      </trkpt>
      <trkpt lat="50.34313" lon="3.70721">
        <ele>72.24</ele>
        <time>2017-04-02T08:26:55Z</time>
      </trkpt>
      <trkpt lat="50.34311" lon="3.70725">
        <ele>71.76</ele>
        <time>2017-04-02T08:26:59Z</time>
      </trkpt>
      <trkpt lat="50.34304" lon="3.70741">
        <ele>70.31</ele>
        <time>2017-04-02T08:27:10Z</time>
      </trkpt>
      <trkpt lat="50.34297" lon="3.70775">
        <ele>68.39</ele>
        <time>2017-04-02T08:27:27Z</time>
      </trkpt>
      <trkpt lat="50.3429" lon="3.708">
        <ele>67.43</ele>
        <time>2017-04-02T08:27:41Z</time>
      </trkpt>
      <trkpt lat="50.34284" lon="3.70815">
        <ele>65.99</ele>
        <time>2017-04-02T08:27:53Z</time>
      </trkpt>
      <trkpt lat="50.34284" lon="3.70816">
        <ele>65.99</ele>
        <time>2017-04-02T08:27:54Z</time>
      </trkpt>
      <trkpt lat="50.34283" lon="3.70826">
        <ele>65.99</ele>
        <time>2017-04-02T08:27:59Z</time>
      </trkpt>
      <trkpt lat="50.34281" lon="3.70832">
        <ele>65.51</ele>
        <time>2017-04-02T08:28:03Z</time>
      </trkpt>
      <trkpt lat="50.34274" lon="3.70857">
        <ele>64.55</ele>
        <time>2017-04-02T08:28:16Z</time>
      </trkpt>
      <trkpt lat="50.34271" lon="3.70874">
        <ele>64.55</ele>
        <time>2017-04-02T08:28:25Z</time>
      </trkpt>
      <trkpt lat="50.34264" lon="3.70896">
        <ele>64.07</ele>
        <time>2017-04-02T08:28:38Z</time>
      </trkpt>
      <trkpt lat="50.34259" lon="3.7092">
        <ele>64.07</ele>
        <time>2017-04-02T08:28:52Z</time>
      </trkpt>
      <trkpt lat="50.34256" lon="3.70935">
        <ele>63.58</ele>
        <time>2017-04-02T08:29:00Z</time>
      </trkpt>
      <trkpt lat="50.34252" lon="3.70944">
        <ele>63.1</ele>
        <time>2017-04-02T08:29:06Z</time>
      </trkpt>
      <trkpt lat="50.34248" lon="3.70956">
        <ele>61.66</ele>
        <time>2017-04-02T08:29:14Z</time>
      </trkpt>
      <trkpt lat="50.34248" lon="3.7096">
        <ele>61.66</ele>
        <time>2017-04-02T08:29:16Z</time>
      </trkpt>
      <trkpt lat="50.34244" lon="3.70979">
        <ele>61.18</ele>
        <time>2017-04-02T08:29:27Z</time>
      </trkpt>
      <trkpt lat="50.34242" lon="3.70984">
        <ele>61.18</ele>
        <time>2017-04-02T08:29:30Z</time>
      </trkpt>
      <trkpt lat="50.34242" lon="3.70993">
        <ele>60.7</ele>
        <time>2017-04-02T08:29:36Z</time>
      </trkpt>
      <trkpt lat="50.34236" lon="3.70999">
        <ele>60.22</ele>
        <time>2017-04-02T08:29:42Z</time>
      </trkpt>
      <trkpt lat="50.34227" lon="3.70999">
        <ele>61.66</ele>
        <time>2017-04-02T08:29:49Z</time>
      </trkpt>
      <trkpt lat="50.34214" lon="3.70994">
        <ele>64.07</ele>
        <time>2017-04-02T08:30:00Z</time>
      </trkpt>
      <trkpt lat="50.34196" lon="3.70987">
        <ele>65.99</ele>
        <time>2017-04-02T08:30:14Z</time>
      </trkpt>
      <trkpt lat="50.34178" lon="3.70979">
        <ele>67.43</ele>
        <time>2017-04-02T08:30:28Z</time>
      </trkpt>
      <trkpt lat="50.34161" lon="3.70974">
        <ele>69.35</ele>
        <time>2017-04-02T08:30:42Z</time>
      </trkpt>
      <trkpt lat="50.34144" lon="3.70966">
        <ele>71.27</ele>
        <time>2017-04-02T08:30:57Z</time>
      </trkpt>
      <trkpt lat="50.34127" lon="3.70961">
        <ele>73.68</ele>
        <time>2017-04-02T08:31:12Z</time>
      </trkpt>
      <trkpt lat="50.34107" lon="3.70953">
        <ele>75.12</ele>
        <time>2017-04-02T08:31:27Z</time>
      </trkpt>
      <trkpt lat="50.3408" lon="3.7094">
        <ele>77.04</ele>
        <time>2017-04-02T08:31:47Z</time>
      </trkpt>
      <trkpt lat="50.3406" lon="3.70924">
        <ele>78.48</ele>
        <time>2017-04-02T08:32:04Z</time>
      </trkpt>
      <trkpt lat="50.34038" lon="3.70911">
        <ele>79.93</ele>
        <time>2017-04-02T08:32:21Z</time>
      </trkpt>
      <trkpt lat="50.34015" lon="3.70895">
        <ele>80.89</ele>
        <time>2017-04-02T08:32:40Z</time>
      </trkpt>
      <trkpt lat="50.33992" lon="3.70874">
        <ele>82.33</ele>
        <time>2017-04-02T08:32:59Z</time>
      </trkpt>
      <trkpt lat="50.33966" lon="3.70852">
        <ele>83.77</ele>
        <time>2017-04-02T08:33:20Z</time>
      </trkpt>
      <trkpt lat="50.33942" lon="3.70829">
        <ele>84.73</ele>
        <time>2017-04-02T08:33:40Z</time>
      </trkpt>
      <trkpt lat="50.33922" lon="3.70814">
        <ele>85.21</ele>
        <time>2017-04-02T08:33:57Z</time>
      </trkpt>
      <trkpt lat="50.33904" lon="3.70791">
        <ele>85.21</ele>
        <time>2017-04-02T08:34:14Z</time>
      </trkpt>
      <trkpt lat="50.33881" lon="3.7076">
        <ele>85.69</ele>
        <time>2017-04-02T08:34:37Z</time>
      </trkpt>
      <trkpt lat="50.33864" lon="3.70735">
        <ele>86.18</ele>
        <time>2017-04-02T08:34:55Z</time>
      </trkpt>
      <trkpt lat="50.33844" lon="3.7071">
        <ele>87.14</ele>
        <time>2017-04-02T08:35:15Z</time>
      </trkpt>
      <trkpt lat="50.33823" lon="3.70683">
        <ele>87.62</ele>
        <time>2017-04-02T08:35:34Z</time>
      </trkpt>
      <trkpt lat="50.33809" lon="3.70669">
        <ele>88.1</ele>
        <time>2017-04-02T08:35:48Z</time>
      </trkpt>
      <trkpt lat="50.33792" lon="3.7065">
        <ele>89.06</ele>
        <time>2017-04-02T08:36:05Z</time>
      </trkpt>
      <trkpt lat="50.33784" lon="3.7064">
        <ele>89.54</ele>
        <time>2017-04-02T08:36:15Z</time>
      </trkpt>
      <trkpt lat="50.33782" lon="3.7064">
        <ele>90.02</ele>
        <time>2017-04-02T08:36:17Z</time>
      </trkpt>
      <trkpt lat="50.33777" lon="3.70642">
        <ele>90.02</ele>
        <time>2017-04-02T08:36:24Z</time>
      </trkpt>
      <trkpt lat="50.33762" lon="3.7067">
        <ele>90.98</ele>
        <time>2017-04-02T08:36:42Z</time>
      </trkpt>
      <trkpt lat="50.33746" lon="3.70702">
        <ele>90.98</ele>
        <time>2017-04-02T08:37:02Z</time>
      </trkpt>
      <trkpt lat="50.33736" lon="3.70736">
        <ele>90.98</ele>
        <time>2017-04-02T08:37:19Z</time>
      </trkpt>
      <trkpt lat="50.33732" lon="3.70761">
        <ele>91.94</ele>
        <time>2017-04-02T08:37:31Z</time>
      </trkpt>
      <trkpt lat="50.33725" lon="3.70796">
        <ele>91.94</ele>
        <time>2017-04-02T08:37:49Z</time>
      </trkpt>
      <trkpt lat="50.33718" lon="3.70814">
        <ele>91.94</ele>
        <time>2017-04-02T08:38:01Z</time>
      </trkpt>
      <trkpt lat="50.33707" lon="3.70839">
        <ele>91.94</ele>
        <time>2017-04-02T08:38:16Z</time>
      </trkpt>
      <trkpt lat="50.33687" lon="3.70868">
        <ele>92.42</ele>
        <time>2017-04-02T08:38:35Z</time>
      </trkpt>
      <trkpt lat="50.33686" lon="3.70868">
        <ele>92.42</ele>
        <time>2017-04-02T08:38:36Z</time>
      </trkpt>
      <trkpt lat="50.33665" lon="3.70894">
        <ele>92.42</ele>
        <time>2017-04-02T08:38:57Z</time>
      </trkpt>
      <trkpt lat="50.33644" lon="3.70912">
        <ele>92.42</ele>
        <time>2017-04-02T08:39:15Z</time>
      </trkpt>
      <trkpt lat="50.33625" lon="3.70929">
        <ele>92.42</ele>
        <time>2017-04-02T08:39:32Z</time>
      </trkpt>
      <trkpt lat="50.33604" lon="3.70946">
        <ele>91.46</ele>
        <time>2017-04-02T08:39:51Z</time>
      </trkpt>
      <trkpt lat="50.33584" lon="3.70965">
        <ele>90.5</ele>
        <time>2017-04-02T08:40:08Z</time>
      </trkpt>
      <trkpt lat="50.33572" lon="3.70975">
        <ele>90.02</ele>
        <time>2017-04-02T08:40:20Z</time>
      </trkpt>
      <trkpt lat="50.33559" lon="3.70974">
        <ele>90.02</ele>
        <time>2017-04-02T08:40:32Z</time>
      </trkpt>
      <trkpt lat="50.33544" lon="3.70959">
        <ele>90.02</ele>
        <time>2017-04-02T08:40:45Z</time>
      </trkpt>
      <trkpt lat="50.33536" lon="3.70953">
        <ele>91.46</ele>
        <time>2017-04-02T08:40:52Z</time>
      </trkpt>
      <trkpt lat="50.33513" lon="3.70927">
        <ele>92.42</ele>
        <time>2017-04-02T08:41:10Z</time>
      </trkpt>
      <trkpt lat="50.33491" lon="3.70906">
        <ele>92.9</ele>
        <time>2017-04-02T08:41:29Z</time>
      </trkpt>
      <trkpt lat="50.33474" lon="3.70903">
        <ele>93.39</ele>
        <time>2017-04-02T08:41:44Z</time>
      </trkpt>
      <trkpt lat="50.33469" lon="3.70938">
        <ele>93.39</ele>
        <time>2017-04-02T08:42:00Z</time>
      </trkpt>
      <trkpt lat="50.33466" lon="3.70969">
        <ele>93.39</ele>
        <time>2017-04-02T08:42:16Z</time>
      </trkpt>
      <trkpt lat="50.33463" lon="3.70997">
        <ele>93.39</ele>
        <time>2017-04-02T08:42:28Z</time>
      </trkpt>
      <trkpt lat="50.33461" lon="3.7103">
        <ele>91.94</ele>
        <time>2017-04-02T08:42:45Z</time>
      </trkpt>
      <trkpt lat="50.3346" lon="3.71037">
        <ele>93.39</ele>
        <time>2017-04-02T08:42:48Z</time>
      </trkpt>
      <trkpt lat="50.33457" lon="3.71075">
        <ele>93.39</ele>
        <time>2017-04-02T08:43:06Z</time>
      </trkpt>
      <trkpt lat="50.33452" lon="3.71104">
        <ele>93.39</ele>
        <time>2017-04-02T08:43:20Z</time>
      </trkpt>
      <trkpt lat="50.33448" lon="3.71132">
        <ele>94.35</ele>
        <time>2017-04-02T08:43:35Z</time>
      </trkpt>
      <trkpt lat="50.33443" lon="3.71158">
        <ele>92.9</ele>
        <time>2017-04-02T08:43:47Z</time>
      </trkpt>
      <trkpt lat="50.33438" lon="3.71189">
        <ele>92.9</ele>
        <time>2017-04-02T08:44:03Z</time>
      </trkpt>
      <trkpt lat="50.33431" lon="3.71222">
        <ele>91.94</ele>
        <time>2017-04-02T08:44:20Z</time>
      </trkpt>
      <trkpt lat="50.33424" lon="3.71248">
        <ele>91.94</ele>
        <time>2017-04-02T08:44:34Z</time>
      </trkpt>
      <trkpt lat="50.33412" lon="3.71283">
        <ele>90.5</ele>
        <time>2017-04-02T08:44:54Z</time>
      </trkpt>
      <trkpt lat="50.33404" lon="3.71309">
        <ele>89.06</ele>
        <time>2017-04-02T08:45:08Z</time>
      </trkpt>
      <trkpt lat="50.33398" lon="3.71333">
        <ele>87.62</ele>
        <time>2017-04-02T08:45:21Z</time>
      </trkpt>
      <trkpt lat="50.3339" lon="3.71357">
        <ele>86.66</ele>
        <time>2017-04-02T08:45:34Z</time>
      </trkpt>
      <trkpt lat="50.33381" lon="3.7138">
        <ele>84.73</ele>
        <time>2017-04-02T08:45:49Z</time>
      </trkpt>
      <trkpt lat="50.33376" lon="3.7139">
        <ele>83.77</ele>
        <time>2017-04-02T08:45:57Z</time>
      </trkpt>
      <trkpt lat="50.33358" lon="3.71404">
        <ele>82.33</ele>
        <time>2017-04-02T08:46:14Z</time>
      </trkpt>
      <trkpt lat="50.33348" lon="3.71417">
        <ele>81.37</ele>
        <time>2017-04-02T08:46:26Z</time>
      </trkpt>
      <trkpt lat="50.3333" lon="3.71433">
        <ele>79.93</ele>
        <time>2017-04-02T08:46:42Z</time>
      </trkpt>
      <trkpt lat="50.33329" lon="3.71435">
        <ele>79.45</ele>
        <time>2017-04-02T08:46:44Z</time>
      </trkpt>
      <trkpt lat="50.33321" lon="3.71445">
        <ele>78.97</ele>
        <time>2017-04-02T08:46:52Z</time>
      </trkpt>
      <trkpt lat="50.33308" lon="3.7146">
        <ele>78</ele>
        <time>2017-04-02T08:47:05Z</time>
      </trkpt>
      <trkpt lat="50.33306" lon="3.71465">
        <ele>78</ele>
        <time>2017-04-02T08:47:07Z</time>
      </trkpt>
      <trkpt lat="50.33299" lon="3.71476">
        <ele>78</ele>
        <time>2017-04-02T08:47:13Z</time>
      </trkpt>
      <trkpt lat="50.33296" lon="3.71484">
        <ele>78</ele>
        <time>2017-04-02T08:47:18Z</time>
      </trkpt>
      <trkpt lat="50.33292" lon="3.71494">
        <ele>78</ele>
        <time>2017-04-02T08:47:23Z</time>
      </trkpt>
      <trkpt lat="50.33288" lon="3.71503">
        <ele>77.04</ele>
        <time>2017-04-02T08:47:27Z</time>
      </trkpt>
      <trkpt lat="50.33278" lon="3.71528">
        <ele>77.04</ele>
        <time>2017-04-02T08:47:40Z</time>
      </trkpt>
      <trkpt lat="50.33274" lon="3.71542">
        <ele>78.48</ele>
        <time>2017-04-02T08:47:47Z</time>
      </trkpt>
      <trkpt lat="50.33262" lon="3.71573">
        <ele>79.93</ele>
        <time>2017-04-02T08:48:03Z</time>
      </trkpt>
      <trkpt lat="50.33252" lon="3.71604">
        <ele>81.37</ele>
        <time>2017-04-02T08:48:20Z</time>
      </trkpt>
      <trkpt lat="50.33244" lon="3.71627">
        <ele>82.33</ele>
        <time>2017-04-02T08:48:33Z</time>
      </trkpt>
      <trkpt lat="50.33242" lon="3.71634">
        <ele>82.81</ele>
        <time>2017-04-02T08:48:37Z</time>
      </trkpt>
      <trkpt lat="50.33233" lon="3.71659">
        <ele>84.25</ele>
        <time>2017-04-02T08:48:51Z</time>
      </trkpt>
      <trkpt lat="50.33232" lon="3.71663">
        <ele>84.25</ele>
        <time>2017-04-02T08:48:53Z</time>
      </trkpt>
      <trkpt lat="50.33216" lon="3.71689">
        <ele>85.21</ele>
        <time>2017-04-02T08:49:10Z</time>
      </trkpt>
      <trkpt lat="50.33214" lon="3.71694">
        <ele>85.21</ele>
        <time>2017-04-02T08:49:13Z</time>
      </trkpt>
      <trkpt lat="50.33205" lon="3.71725">
        <ele>86.18</ele>
        <time>2017-04-02T08:49:30Z</time>
      </trkpt>
      <trkpt lat="50.33197" lon="3.71753">
        <ele>86.66</ele>
        <time>2017-04-02T08:49:45Z</time>
      </trkpt>
      <trkpt lat="50.33196" lon="3.71757">
        <ele>87.14</ele>
        <time>2017-04-02T08:49:47Z</time>
      </trkpt>
      <trkpt lat="50.33195" lon="3.71762">
        <ele>87.14</ele>
        <time>2017-04-02T08:49:50Z</time>
      </trkpt>
      <trkpt lat="50.33187" lon="3.71786">
        <ele>87.62</ele>
        <time>2017-04-02T08:50:04Z</time>
      </trkpt>
      <trkpt lat="50.33186" lon="3.71788">
        <ele>87.62</ele>
        <time>2017-04-02T08:50:05Z</time>
      </trkpt>
      <trkpt lat="50.33184" lon="3.71799">
        <ele>87.62</ele>
        <time>2017-04-02T08:50:10Z</time>
      </trkpt>
      <trkpt lat="50.33177" lon="3.71829">
        <ele>88.1</ele>
        <time>2017-04-02T08:50:24Z</time>
      </trkpt>
      <trkpt lat="50.33177" lon="3.71832">
        <ele>88.58</ele>
        <time>2017-04-02T08:50:26Z</time>
      </trkpt>
      <trkpt lat="50.33174" lon="3.7185">
        <ele>89.06</ele>
        <time>2017-04-02T08:50:35Z</time>
      </trkpt>
      <trkpt lat="50.33172" lon="3.71864">
        <ele>89.06</ele>
        <time>2017-04-02T08:50:48Z</time>
      </trkpt>
      <trkpt lat="50.33167" lon="3.71879">
        <ele>90.02</ele>
        <time>2017-04-02T08:50:56Z</time>
      </trkpt>
      <trkpt lat="50.33165" lon="3.71894">
        <ele>90.5</ele>
        <time>2017-04-02T08:51:04Z</time>
      </trkpt>
      <trkpt lat="50.33157" lon="3.71926">
        <ele>92.42</ele>
        <time>2017-04-02T08:51:20Z</time>
      </trkpt>
      <trkpt lat="50.33146" lon="3.71956">
        <ele>93.87</ele>
        <time>2017-04-02T08:51:36Z</time>
      </trkpt>
      <trkpt lat="50.33137" lon="3.71984">
        <ele>94.83</ele>
        <time>2017-04-02T08:51:52Z</time>
      </trkpt>
      <trkpt lat="50.3313" lon="3.72015">
        <ele>96.27</ele>
        <time>2017-04-02T08:52:08Z</time>
      </trkpt>
      <trkpt lat="50.3312" lon="3.72059">
        <ele>97.23</ele>
        <time>2017-04-02T08:52:29Z</time>
      </trkpt>
      <trkpt lat="50.33109" lon="3.72093">
        <ele>97.71</ele>
        <time>2017-04-02T08:52:46Z</time>
      </trkpt>
      <trkpt lat="50.33101" lon="3.72122">
        <ele>99.15</ele>
        <time>2017-04-02T08:53:02Z</time>
      </trkpt>
      <trkpt lat="50.33098" lon="3.72127">
        <ele>99.15</ele>
        <time>2017-04-02T08:53:16Z</time>
      </trkpt>
      <trkpt lat="50.33098" lon="3.72127">
        <ele>99.15</ele>
        <time>2017-04-02T08:53:40Z</time>
      </trkpt>
      <trkpt lat="50.33097" lon="3.72128">
        <ele>99.15</ele>
        <time>2017-04-02T08:54:04Z</time>
      </trkpt>
      <trkpt lat="50.33096" lon="3.72129">
        <ele>98.19</ele>
        <time>2017-04-02T08:54:20Z</time>
      </trkpt>
      <trkpt lat="50.33095" lon="3.7213">
        <ele>98.19</ele>
        <time>2017-04-02T08:54:36Z</time>
      </trkpt>
      <trkpt lat="50.33095" lon="3.72132">
        <ele>99.15</ele>
        <time>2017-04-02T08:54:38Z</time>
      </trkpt>
      <trkpt lat="50.33093" lon="3.72139">
        <ele>97.71</ele>
        <time>2017-04-02T08:54:57Z</time>
      </trkpt>
      <trkpt lat="50.33092" lon="3.72143">
        <ele>99.63</ele>
        <time>2017-04-02T08:54:59Z</time>
      </trkpt>
      <trkpt lat="50.3308" lon="3.72168">
        <ele>98.19</ele>
        <time>2017-04-02T08:55:15Z</time>
      </trkpt>
      <trkpt lat="50.33064" lon="3.72198">
        <ele>96.75</ele>
        <time>2017-04-02T08:55:34Z</time>
      </trkpt>
      <trkpt lat="50.33052" lon="3.72217">
        <ele>97.71</ele>
        <time>2017-04-02T08:55:47Z</time>
      </trkpt>
      <trkpt lat="50.33051" lon="3.7222">
        <ele>96.27</ele>
        <time>2017-04-02T08:55:49Z</time>
      </trkpt>
      <trkpt lat="50.33038" lon="3.72255">
        <ele>95.79</ele>
        <time>2017-04-02T08:56:10Z</time>
      </trkpt>
      <trkpt lat="50.33035" lon="3.72262">
        <ele>93.39</ele>
        <time>2017-04-02T08:56:15Z</time>
      </trkpt>
      <trkpt lat="50.33033" lon="3.72266">
        <ele>95.31</ele>
        <time>2017-04-02T08:56:17Z</time>
      </trkpt>
      <trkpt lat="50.33021" lon="3.72292">
        <ele>94.35</ele>
        <time>2017-04-02T08:56:32Z</time>
      </trkpt>
      <trkpt lat="50.3302" lon="3.72296">
        <ele>92.9</ele>
        <time>2017-04-02T08:56:34Z</time>
      </trkpt>
      <trkpt lat="50.3301" lon="3.72336">
        <ele>91.94</ele>
        <time>2017-04-02T08:56:53Z</time>
      </trkpt>
      <trkpt lat="50.33005" lon="3.72352">
        <ele>92.42</ele>
        <time>2017-04-02T08:57:01Z</time>
      </trkpt>
      <trkpt lat="50.32999" lon="3.72371">
        <ele>92.42</ele>
        <time>2017-04-02T08:57:12Z</time>
      </trkpt>
      <trkpt lat="50.32995" lon="3.72387">
        <ele>90.02</ele>
        <time>2017-04-02T08:57:18Z</time>
      </trkpt>
      <trkpt lat="50.32993" lon="3.72398">
        <ele>92.9</ele>
        <time>2017-04-02T08:57:22Z</time>
      </trkpt>
      <trkpt lat="50.32991" lon="3.72406">
        <ele>91.94</ele>
        <time>2017-04-02T08:57:25Z</time>
      </trkpt>
      <trkpt lat="50.32984" lon="3.72419">
        <ele>92.42</ele>
        <time>2017-04-02T08:57:32Z</time>
      </trkpt>
      <trkpt lat="50.32983" lon="3.72424">
        <ele>92.42</ele>
        <time>2017-04-02T08:57:34Z</time>
      </trkpt>
      <trkpt lat="50.32963" lon="3.72448">
        <ele>92.9</ele>
        <time>2017-04-02T08:57:52Z</time>
      </trkpt>
      <trkpt lat="50.3296" lon="3.72451">
        <ele>90.98</ele>
        <time>2017-04-02T08:57:55Z</time>
      </trkpt>
      <trkpt lat="50.32959" lon="3.72453">
        <ele>92.42</ele>
        <time>2017-04-02T08:57:57Z</time>
      </trkpt>
      <trkpt lat="50.32954" lon="3.72457">
        <ele>90.02</ele>
        <time>2017-04-02T08:58:02Z</time>
      </trkpt>
      <trkpt lat="50.32953" lon="3.72458">
        <ele>93.39</ele>
        <time>2017-04-02T08:58:03Z</time>
      </trkpt>
      <trkpt lat="50.32952" lon="3.72458">
        <ele>93.39</ele>
        <time>2017-04-02T08:58:04Z</time>
      </trkpt>
      <trkpt lat="50.32948" lon="3.72462">
        <ele>90.98</ele>
        <time>2017-04-02T08:58:08Z</time>
      </trkpt>
      <trkpt lat="50.32943" lon="3.72466">
        <ele>93.39</ele>
        <time>2017-04-02T08:58:12Z</time>
      </trkpt>
      <trkpt lat="50.3294" lon="3.72468">
        <ele>92.9</ele>
        <time>2017-04-02T08:58:15Z</time>
      </trkpt>
      <trkpt lat="50.32932" lon="3.7248">
        <ele>93.39</ele>
        <time>2017-04-02T08:58:25Z</time>
      </trkpt>
      <trkpt lat="50.32928" lon="3.72487">
        <ele>91.46</ele>
        <time>2017-04-02T08:58:29Z</time>
      </trkpt>
      <trkpt lat="50.3292" lon="3.72511">
        <ele>93.87</ele>
        <time>2017-04-02T08:58:41Z</time>
      </trkpt>
      <trkpt lat="50.32917" lon="3.72517">
        <ele>92.42</ele>
        <time>2017-04-02T08:58:44Z</time>
      </trkpt>
      <trkpt lat="50.32916" lon="3.72521">
        <ele>94.83</ele>
        <time>2017-04-02T08:58:46Z</time>
      </trkpt>
      <trkpt lat="50.32915" lon="3.72525">
        <ele>93.39</ele>
        <time>2017-04-02T08:58:48Z</time>
      </trkpt>
      <trkpt lat="50.32913" lon="3.72536">
        <ele>93.87</ele>
        <time>2017-04-02T08:58:53Z</time>
      </trkpt>
      <trkpt lat="50.32914" lon="3.72544">
        <ele>95.79</ele>
        <time>2017-04-02T08:58:56Z</time>
      </trkpt>
      <trkpt lat="50.32913" lon="3.72552">
        <ele>93.87</ele>
        <time>2017-04-02T08:58:59Z</time>
      </trkpt>
      <trkpt lat="50.32913" lon="3.72556">
        <ele>95.79</ele>
        <time>2017-04-02T08:59:01Z</time>
      </trkpt>
      <trkpt lat="50.32914" lon="3.72561">
        <ele>94.35</ele>
        <time>2017-04-02T08:59:04Z</time>
      </trkpt>
      <trkpt lat="50.32914" lon="3.72567">
        <ele>96.75</ele>
        <time>2017-04-02T08:59:07Z</time>
      </trkpt>
      <trkpt lat="50.32914" lon="3.72574">
        <ele>96.75</ele>
        <time>2017-04-02T08:59:11Z</time>
      </trkpt>
      <trkpt lat="50.32914" lon="3.72583">
        <ele>96.27</ele>
        <time>2017-04-02T08:59:15Z</time>
      </trkpt>
      <trkpt lat="50.32915" lon="3.72597">
        <ele>95.31</ele>
        <time>2017-04-02T08:59:22Z</time>
      </trkpt>
      <trkpt lat="50.32914" lon="3.72603">
        <ele>97.71</ele>
        <time>2017-04-02T08:59:25Z</time>
      </trkpt>
      <trkpt lat="50.32914" lon="3.72607">
        <ele>96.27</ele>
        <time>2017-04-02T08:59:27Z</time>
      </trkpt>
      <trkpt lat="50.32914" lon="3.72619">
        <ele>95.79</ele>
        <time>2017-04-02T08:59:32Z</time>
      </trkpt>
      <trkpt lat="50.32914" lon="3.72621">
        <ele>97.23</ele>
        <time>2017-04-02T08:59:34Z</time>
      </trkpt>
      <trkpt lat="50.32919" lon="3.72644">
        <ele>98.19</ele>
        <time>2017-04-02T08:59:46Z</time>
      </trkpt>
      <trkpt lat="50.32918" lon="3.72652">
        <ele>99.15</ele>
        <time>2017-04-02T08:59:50Z</time>
      </trkpt>
      <trkpt lat="50.32918" lon="3.72658">
        <ele>97.23</ele>
        <time>2017-04-02T08:59:53Z</time>
      </trkpt>
      <trkpt lat="50.32919" lon="3.72679">
        <ele>99.63</ele>
        <time>2017-04-02T09:00:05Z</time>
      </trkpt>
      <trkpt lat="50.32921" lon="3.72683">
        <ele>97.71</ele>
        <time>2017-04-02T09:00:07Z</time>
      </trkpt>
      <trkpt lat="50.32922" lon="3.72703">
        <ele>100.11</ele>
        <time>2017-04-02T09:00:18Z</time>
      </trkpt>
      <trkpt lat="50.32923" lon="3.72712">
        <ele>98.67</ele>
        <time>2017-04-02T09:00:22Z</time>
      </trkpt>
      <trkpt lat="50.32926" lon="3.72728">
        <ele>101.08</ele>
        <time>2017-04-02T09:00:29Z</time>
      </trkpt>
      <trkpt lat="50.32928" lon="3.72756">
        <ele>99.63</ele>
        <time>2017-04-02T09:00:43Z</time>
      </trkpt>
      <trkpt lat="50.32928" lon="3.72761">
        <ele>101.08</ele>
        <time>2017-04-02T09:00:45Z</time>
      </trkpt>
      <trkpt lat="50.32928" lon="3.72768">
        <ele>99.15</ele>
        <time>2017-04-02T09:00:48Z</time>
      </trkpt>
      <trkpt lat="50.32928" lon="3.72773">
        <ele>101.56</ele>
        <time>2017-04-02T09:00:50Z</time>
      </trkpt>
      <trkpt lat="50.32929" lon="3.72777">
        <ele>99.63</ele>
        <time>2017-04-02T09:00:53Z</time>
      </trkpt>
      <trkpt lat="50.32929" lon="3.72792">
        <ele>102.04</ele>
        <time>2017-04-02T09:01:00Z</time>
      </trkpt>
      <trkpt lat="50.32929" lon="3.72819">
        <ele>101.08</ele>
        <time>2017-04-02T09:01:13Z</time>
      </trkpt>
      <trkpt lat="50.32929" lon="3.72833">
        <ele>103</ele>
        <time>2017-04-02T09:01:19Z</time>
      </trkpt>
      <trkpt lat="50.32929" lon="3.7284">
        <ele>102.04</ele>
        <time>2017-04-02T09:01:22Z</time>
      </trkpt>
      <trkpt lat="50.32929" lon="3.72872">
        <ele>103.96</ele>
        <time>2017-04-02T09:01:38Z</time>
      </trkpt>
      <trkpt lat="50.32929" lon="3.72874">
        <ele>103.48</ele>
        <time>2017-04-02T09:01:39Z</time>
      </trkpt>
      <trkpt lat="50.32929" lon="3.72877">
        <ele>102.04</ele>
        <time>2017-04-02T09:01:41Z</time>
      </trkpt>
      <trkpt lat="50.32929" lon="3.72881">
        <ele>103.48</ele>
        <time>2017-04-02T09:01:43Z</time>
      </trkpt>
      <trkpt lat="50.32928" lon="3.72892">
        <ele>103.48</ele>
        <time>2017-04-02T09:01:48Z</time>
      </trkpt>
      <trkpt lat="50.32928" lon="3.729">
        <ele>102.04</ele>
        <time>2017-04-02T09:01:51Z</time>
      </trkpt>
      <trkpt lat="50.32929" lon="3.72905">
        <ele>103.48</ele>
        <time>2017-04-02T09:01:53Z</time>
      </trkpt>
      <trkpt lat="50.32929" lon="3.72932">
        <ele>103.96</ele>
        <time>2017-04-02T09:02:06Z</time>
      </trkpt>
      <trkpt lat="50.32929" lon="3.72971">
        <ele>103.48</ele>
        <time>2017-04-02T09:02:23Z</time>
      </trkpt>
      <trkpt lat="50.32929" lon="3.7298">
        <ele>104.92</ele>
        <time>2017-04-02T09:02:27Z</time>
      </trkpt>
      <trkpt lat="50.32929" lon="3.7299">
        <ele>104.92</ele>
        <time>2017-04-02T09:02:31Z</time>
      </trkpt>
      <trkpt lat="50.32929" lon="3.73011">
        <ele>105.88</ele>
        <time>2017-04-02T09:02:42Z</time>
      </trkpt>
      <trkpt lat="50.32928" lon="3.73019">
        <ele>103.48</ele>
        <time>2017-04-02T09:02:46Z</time>
      </trkpt>
      <trkpt lat="50.32929" lon="3.73023">
        <ele>105.88</ele>
        <time>2017-04-02T09:02:48Z</time>
      </trkpt>
      <trkpt lat="50.32929" lon="3.73027">
        <ele>103.96</ele>
        <time>2017-04-02T09:02:50Z</time>
      </trkpt>
      <trkpt lat="50.32927" lon="3.73051">
        <ele>105.88</ele>
        <time>2017-04-02T09:03:01Z</time>
      </trkpt>
      <trkpt lat="50.32927" lon="3.73058">
        <ele>104.44</ele>
        <time>2017-04-02T09:03:05Z</time>
      </trkpt>
      <trkpt lat="50.32927" lon="3.73065">
        <ele>107.32</ele>
        <time>2017-04-02T09:03:08Z</time>
      </trkpt>
      <trkpt lat="50.32927" lon="3.7307">
        <ele>105.4</ele>
        <time>2017-04-02T09:03:10Z</time>
      </trkpt>
      <trkpt lat="50.32925" lon="3.73095">
        <ele>106.84</ele>
        <time>2017-04-02T09:03:21Z</time>
      </trkpt>
      <trkpt lat="50.32923" lon="3.73106">
        <ele>105.4</ele>
        <time>2017-04-02T09:03:26Z</time>
      </trkpt>
      <trkpt lat="50.32923" lon="3.7311">
        <ele>106.84</ele>
        <time>2017-04-02T09:03:28Z</time>
      </trkpt>
      <trkpt lat="50.32923" lon="3.73113">
        <ele>105.4</ele>
        <time>2017-04-02T09:03:30Z</time>
      </trkpt>
      <trkpt lat="50.32922" lon="3.73119">
        <ele>106.84</ele>
        <time>2017-04-02T09:03:33Z</time>
      </trkpt>
      <trkpt lat="50.3292" lon="3.73137">
        <ele>104.92</ele>
        <time>2017-04-02T09:03:42Z</time>
      </trkpt>
      <trkpt lat="50.32918" lon="3.73152">
        <ele>104.92</ele>
        <time>2017-04-02T09:03:50Z</time>
      </trkpt>
      <trkpt lat="50.32916" lon="3.73157">
        <ele>103.96</ele>
        <time>2017-04-02T09:03:53Z</time>
      </trkpt>
      <trkpt lat="50.32915" lon="3.73162">
        <ele>106.84</ele>
        <time>2017-04-02T09:03:56Z</time>
      </trkpt>
      <trkpt lat="50.32915" lon="3.73165">
        <ele>106.84</ele>
        <time>2017-04-02T09:03:57Z</time>
      </trkpt>
      <trkpt lat="50.32914" lon="3.73174">
        <ele>104.92</ele>
        <time>2017-04-02T09:04:01Z</time>
      </trkpt>
      <trkpt lat="50.32914" lon="3.73179">
        <ele>106.36</ele>
        <time>2017-04-02T09:04:03Z</time>
      </trkpt>
      <trkpt lat="50.32914" lon="3.73187">
        <ele>107.32</ele>
        <time>2017-04-02T09:04:07Z</time>
      </trkpt>
      <trkpt lat="50.32912" lon="3.73205">
        <ele>105.4</ele>
        <time>2017-04-02T09:04:17Z</time>
      </trkpt>
      <trkpt lat="50.32911" lon="3.73208">
        <ele>106.84</ele>
        <time>2017-04-02T09:04:19Z</time>
      </trkpt>
      <trkpt lat="50.32911" lon="3.73212">
        <ele>105.4</ele>
        <time>2017-04-02T09:04:21Z</time>
      </trkpt>
      <trkpt lat="50.3291" lon="3.73223">
        <ele>106.84</ele>
        <time>2017-04-02T09:04:26Z</time>
      </trkpt>
      <trkpt lat="50.32909" lon="3.73227">
        <ele>105.4</ele>
        <time>2017-04-02T09:04:28Z</time>
      </trkpt>
      <trkpt lat="50.32906" lon="3.73241">
        <ele>106.36</ele>
        <time>2017-04-02T09:04:34Z</time>
      </trkpt>
      <trkpt lat="50.32905" lon="3.73244">
        <ele>104.92</ele>
        <time>2017-04-02T09:04:36Z</time>
      </trkpt>
      <trkpt lat="50.32904" lon="3.7325">
        <ele>106.36</ele>
        <time>2017-04-02T09:04:40Z</time>
      </trkpt>
      <trkpt lat="50.32904" lon="3.73255">
        <ele>104.44</ele>
        <time>2017-04-02T09:04:43Z</time>
      </trkpt>
      <trkpt lat="50.32903" lon="3.73261">
        <ele>106.36</ele>
        <time>2017-04-02T09:04:46Z</time>
      </trkpt>
      <trkpt lat="50.32901" lon="3.73269">
        <ele>104.92</ele>
        <time>2017-04-02T09:04:50Z</time>
      </trkpt>
      <trkpt lat="50.329" lon="3.73278">
        <ele>105.4</ele>
        <time>2017-04-02T09:04:54Z</time>
      </trkpt>
      <trkpt lat="50.32898" lon="3.73291">
        <ele>105.88</ele>
        <time>2017-04-02T09:05:00Z</time>
      </trkpt>
      <trkpt lat="50.32897" lon="3.73296">
        <ele>103.96</ele>
        <time>2017-04-02T09:05:02Z</time>
      </trkpt>
      <trkpt lat="50.32894" lon="3.73314">
        <ele>105.4</ele>
        <time>2017-04-02T09:05:12Z</time>
      </trkpt>
      <trkpt lat="50.32893" lon="3.73323">
        <ele>103.96</ele>
        <time>2017-04-02T09:05:16Z</time>
      </trkpt>
      <trkpt lat="50.32888" lon="3.7335">
        <ele>103</ele>
        <time>2017-04-02T09:05:30Z</time>
      </trkpt>
      <trkpt lat="50.32888" lon="3.73355">
        <ele>104.44</ele>
        <time>2017-04-02T09:05:32Z</time>
      </trkpt>
      <trkpt lat="50.32886" lon="3.7336">
        <ele>103</ele>
        <time>2017-04-02T09:05:35Z</time>
      </trkpt>
      <trkpt lat="50.32885" lon="3.73364">
        <ele>104.92</ele>
        <time>2017-04-02T09:05:37Z</time>
      </trkpt>
      <trkpt lat="50.32884" lon="3.73368">
        <ele>103</ele>
        <time>2017-04-02T09:05:39Z</time>
      </trkpt>
      <trkpt lat="50.32884" lon="3.73374">
        <ele>104.44</ele>
        <time>2017-04-02T09:05:42Z</time>
      </trkpt>
      <trkpt lat="50.32879" lon="3.73405">
        <ele>104.44</ele>
        <time>2017-04-02T09:05:59Z</time>
      </trkpt>
      <trkpt lat="50.32878" lon="3.73409">
        <ele>103</ele>
        <time>2017-04-02T09:06:01Z</time>
      </trkpt>
      <trkpt lat="50.32872" lon="3.73443">
        <ele>103.96</ele>
        <time>2017-04-02T09:06:18Z</time>
      </trkpt>
      <trkpt lat="50.32867" lon="3.73472">
        <ele>104.44</ele>
        <time>2017-04-02T09:06:32Z</time>
      </trkpt>
      <trkpt lat="50.32866" lon="3.73479">
        <ele>103</ele>
        <time>2017-04-02T09:06:36Z</time>
      </trkpt>
      <trkpt lat="50.32865" lon="3.73499">
        <ele>104.92</ele>
        <time>2017-04-02T09:06:45Z</time>
      </trkpt>
      <trkpt lat="50.32864" lon="3.73506">
        <ele>103.48</ele>
        <time>2017-04-02T09:06:48Z</time>
      </trkpt>
      <trkpt lat="50.32861" lon="3.73516">
        <ele>104.44</ele>
        <time>2017-04-02T09:06:54Z</time>
      </trkpt>
      <trkpt lat="50.32862" lon="3.73528">
        <ele>104.92</ele>
        <time>2017-04-02T09:07:00Z</time>
      </trkpt>
      <trkpt lat="50.3286" lon="3.73535">
        <ele>103</ele>
        <time>2017-04-02T09:07:04Z</time>
      </trkpt>
      <trkpt lat="50.3286" lon="3.7354">
        <ele>103.48</ele>
        <time>2017-04-02T09:07:07Z</time>
      </trkpt>
      <trkpt lat="50.3286" lon="3.73542">
        <ele>103.48</ele>
        <time>2017-04-02T09:07:08Z</time>
      </trkpt>
      <trkpt lat="50.32861" lon="3.73545">
        <ele>103.48</ele>
        <time>2017-04-02T09:07:09Z</time>
      </trkpt>
      <trkpt lat="50.3286" lon="3.73547">
        <ele>105.4</ele>
        <time>2017-04-02T09:07:10Z</time>
      </trkpt>
      <trkpt lat="50.3286" lon="3.73549">
        <ele>105.4</ele>
        <time>2017-04-02T09:07:11Z</time>
      </trkpt>
      <trkpt lat="50.32859" lon="3.73551">
        <ele>103</ele>
        <time>2017-04-02T09:07:12Z</time>
      </trkpt>
      <trkpt lat="50.32859" lon="3.73553">
        <ele>103</ele>
        <time>2017-04-02T09:07:13Z</time>
      </trkpt>
      <trkpt lat="50.32859" lon="3.73555">
        <ele>104.44</ele>
        <time>2017-04-02T09:07:14Z</time>
      </trkpt>
      <trkpt lat="50.32858" lon="3.73557">
        <ele>104.44</ele>
        <time>2017-04-02T09:07:15Z</time>
      </trkpt>
      <trkpt lat="50.32857" lon="3.73566">
        <ele>104.92</ele>
        <time>2017-04-02T09:07:20Z</time>
      </trkpt>
      <trkpt lat="50.32858" lon="3.73568">
        <ele>105.4</ele>
        <time>2017-04-02T09:07:21Z</time>
      </trkpt>
      <trkpt lat="50.32858" lon="3.7357">
        <ele>103</ele>
        <time>2017-04-02T09:07:22Z</time>
      </trkpt>
      <trkpt lat="50.32858" lon="3.73589">
        <ele>104.92</ele>
        <time>2017-04-02T09:07:29Z</time>
      </trkpt>
      <trkpt lat="50.32856" lon="3.73598">
        <ele>103.48</ele>
        <time>2017-04-02T09:07:34Z</time>
      </trkpt>
      <trkpt lat="50.32854" lon="3.73608">
        <ele>103.96</ele>
        <time>2017-04-02T09:07:40Z</time>
      </trkpt>
      <trkpt lat="50.32854" lon="3.73613">
        <ele>105.88</ele>
        <time>2017-04-02T09:07:43Z</time>
      </trkpt>
      <trkpt lat="50.32852" lon="3.73642">
        <ele>103.96</ele>
        <time>2017-04-02T09:07:56Z</time>
      </trkpt>
      <trkpt lat="50.32851" lon="3.7365">
        <ele>106.36</ele>
        <time>2017-04-02T09:07:59Z</time>
      </trkpt>
      <trkpt lat="50.3285" lon="3.73656">
        <ele>104.92</ele>
        <time>2017-04-02T09:08:02Z</time>
      </trkpt>
      <trkpt lat="50.32847" lon="3.73666">
        <ele>105.88</ele>
        <time>2017-04-02T09:08:06Z</time>
      </trkpt>
      <trkpt lat="50.32846" lon="3.73677">
        <ele>104.44</ele>
        <time>2017-04-02T09:08:12Z</time>
      </trkpt>
      <trkpt lat="50.32845" lon="3.7368">
        <ele>106.36</ele>
        <time>2017-04-02T09:08:14Z</time>
      </trkpt>
      <trkpt lat="50.32844" lon="3.7369">
        <ele>106.36</ele>
        <time>2017-04-02T09:08:20Z</time>
      </trkpt>
      <trkpt lat="50.32844" lon="3.73694">
        <ele>104.92</ele>
        <time>2017-04-02T09:08:22Z</time>
      </trkpt>
      <trkpt lat="50.32844" lon="3.73697">
        <ele>104.92</ele>
        <time>2017-04-02T09:08:23Z</time>
      </trkpt>
      <trkpt lat="50.32845" lon="3.73702">
        <ele>106.84</ele>
        <time>2017-04-02T09:08:25Z</time>
      </trkpt>
      <trkpt lat="50.32845" lon="3.73708">
        <ele>105.88</ele>
        <time>2017-04-02T09:08:28Z</time>
      </trkpt>
      <trkpt lat="50.32843" lon="3.73738">
        <ele>106.36</ele>
        <time>2017-04-02T09:08:43Z</time>
      </trkpt>
      <trkpt lat="50.32842" lon="3.73746">
        <ele>105.4</ele>
        <time>2017-04-02T09:08:48Z</time>
      </trkpt>
      <trkpt lat="50.32842" lon="3.73752">
        <ele>107.32</ele>
        <time>2017-04-02T09:08:51Z</time>
      </trkpt>
      <trkpt lat="50.32842" lon="3.73762">
        <ele>105.4</ele>
        <time>2017-04-02T09:08:55Z</time>
      </trkpt>
      <trkpt lat="50.32841" lon="3.73767">
        <ele>107.32</ele>
        <time>2017-04-02T09:08:57Z</time>
      </trkpt>
      <trkpt lat="50.32839" lon="3.73776">
        <ele>107.32</ele>
        <time>2017-04-02T09:09:02Z</time>
      </trkpt>
      <trkpt lat="50.32836" lon="3.73804">
        <ele>106.36</ele>
        <time>2017-04-02T09:09:15Z</time>
      </trkpt>
      <trkpt lat="50.32835" lon="3.73816">
        <ele>108.29</ele>
        <time>2017-04-02T09:09:20Z</time>
      </trkpt>
      <trkpt lat="50.32831" lon="3.73842">
        <ele>106.36</ele>
        <time>2017-04-02T09:09:34Z</time>
      </trkpt>
      <trkpt lat="50.3283" lon="3.73847">
        <ele>107.81</ele>
        <time>2017-04-02T09:09:36Z</time>
      </trkpt>
      <trkpt lat="50.3283" lon="3.73864">
        <ele>107.32</ele>
        <time>2017-04-02T09:09:46Z</time>
      </trkpt>
      <trkpt lat="50.32831" lon="3.73867">
        <ele>107.32</ele>
        <time>2017-04-02T09:09:47Z</time>
      </trkpt>
      <trkpt lat="50.32832" lon="3.73877">
        <ele>108.29</ele>
        <time>2017-04-02T09:09:52Z</time>
      </trkpt>
      <trkpt lat="50.32833" lon="3.73884">
        <ele>106.36</ele>
        <time>2017-04-02T09:09:56Z</time>
      </trkpt>
      <trkpt lat="50.32834" lon="3.73888">
        <ele>107.81</ele>
        <time>2017-04-02T09:09:58Z</time>
      </trkpt>
      <trkpt lat="50.32836" lon="3.73909">
        <ele>106.36</ele>
        <time>2017-04-02T09:10:07Z</time>
      </trkpt>
      <trkpt lat="50.32836" lon="3.73926">
        <ele>107.81</ele>
        <time>2017-04-02T09:10:15Z</time>
      </trkpt>
      <trkpt lat="50.32837" lon="3.7393">
        <ele>106.84</ele>
        <time>2017-04-02T09:10:17Z</time>
      </trkpt>
      <trkpt lat="50.32834" lon="3.73949">
        <ele>105.88</ele>
        <time>2017-04-02T09:10:26Z</time>
      </trkpt>
      <trkpt lat="50.32834" lon="3.73955">
        <ele>107.32</ele>
        <time>2017-04-02T09:10:30Z</time>
      </trkpt>
      <trkpt lat="50.3283" lon="3.73978">
        <ele>104.92</ele>
        <time>2017-04-02T09:10:42Z</time>
      </trkpt>
      <trkpt lat="50.32826" lon="3.74012">
        <ele>105.4</ele>
        <time>2017-04-02T09:10:57Z</time>
      </trkpt>
      <trkpt lat="50.3282" lon="3.74036">
        <ele>105.88</ele>
        <time>2017-04-02T09:11:09Z</time>
      </trkpt>
      <trkpt lat="50.32818" lon="3.74044">
        <ele>103.96</ele>
        <time>2017-04-02T09:11:14Z</time>
      </trkpt>
      <trkpt lat="50.32811" lon="3.74077">
        <ele>103.96</ele>
        <time>2017-04-02T09:11:32Z</time>
      </trkpt>
      <trkpt lat="50.3281" lon="3.74084">
        <ele>105.4</ele>
        <time>2017-04-02T09:11:35Z</time>
      </trkpt>
      <trkpt lat="50.3281" lon="3.74088">
        <ele>103.96</ele>
        <time>2017-04-02T09:11:37Z</time>
      </trkpt>
      <trkpt lat="50.32808" lon="3.74105">
        <ele>104.92</ele>
        <time>2017-04-02T09:11:44Z</time>
      </trkpt>
      <trkpt lat="50.32803" lon="3.74131">
        <ele>103.48</ele>
        <time>2017-04-02T09:11:53Z</time>
      </trkpt>
      <trkpt lat="50.32799" lon="3.74142">
        <ele>104.92</ele>
        <time>2017-04-02T09:11:58Z</time>
      </trkpt>
      <trkpt lat="50.32797" lon="3.74151">
        <ele>103.96</ele>
        <time>2017-04-02T09:12:02Z</time>
      </trkpt>
      <trkpt lat="50.32793" lon="3.74163">
        <ele>104.92</ele>
        <time>2017-04-02T09:12:08Z</time>
      </trkpt>
      <trkpt lat="50.32792" lon="3.74169">
        <ele>103.96</ele>
        <time>2017-04-02T09:12:12Z</time>
      </trkpt>
      <trkpt lat="50.32792" lon="3.74171">
        <ele>103</ele>
        <time>2017-04-02T09:12:13Z</time>
      </trkpt>
      <trkpt lat="50.32791" lon="3.74173">
        <ele>103</ele>
        <time>2017-04-02T09:12:14Z</time>
      </trkpt>
      <trkpt lat="50.32781" lon="3.74196">
        <ele>102.04</ele>
        <time>2017-04-02T09:12:31Z</time>
      </trkpt>
      <trkpt lat="50.3278" lon="3.74198">
        <ele>103.48</ele>
        <time>2017-04-02T09:12:33Z</time>
      </trkpt>
      <trkpt lat="50.3278" lon="3.742">
        <ele>102.52</ele>
        <time>2017-04-02T09:12:35Z</time>
      </trkpt>
      <trkpt lat="50.32772" lon="3.74227">
        <ele>101.56</ele>
        <time>2017-04-02T09:12:50Z</time>
      </trkpt>
      <trkpt lat="50.32771" lon="3.74235">
        <ele>102.52</ele>
        <time>2017-04-02T09:12:54Z</time>
      </trkpt>
      <trkpt lat="50.3277" lon="3.74243">
        <ele>100.6</ele>
        <time>2017-04-02T09:12:57Z</time>
      </trkpt>
      <trkpt lat="50.3277" lon="3.74245">
        <ele>102.04</ele>
        <time>2017-04-02T09:12:59Z</time>
      </trkpt>
      <trkpt lat="50.3277" lon="3.7425">
        <ele>100.6</ele>
        <time>2017-04-02T09:13:02Z</time>
      </trkpt>
      <trkpt lat="50.32771" lon="3.74257">
        <ele>102.04</ele>
        <time>2017-04-02T09:13:06Z</time>
      </trkpt>
      <trkpt lat="50.3277" lon="3.74282">
        <ele>100.6</ele>
        <time>2017-04-02T09:13:17Z</time>
      </trkpt>
      <trkpt lat="50.32767" lon="3.74305">
        <ele>100.6</ele>
        <time>2017-04-02T09:13:29Z</time>
      </trkpt>
      <trkpt lat="50.32768" lon="3.74315">
        <ele>100.6</ele>
        <time>2017-04-02T09:13:34Z</time>
      </trkpt>
      <trkpt lat="50.32768" lon="3.74329">
        <ele>100.6</ele>
        <time>2017-04-02T09:13:41Z</time>
      </trkpt>
      <trkpt lat="50.32768" lon="3.74332">
        <ele>99.15</ele>
        <time>2017-04-02T09:13:42Z</time>
      </trkpt>
      <trkpt lat="50.32768" lon="3.74334">
        <ele>99.15</ele>
        <time>2017-04-02T09:13:43Z</time>
      </trkpt>
      <trkpt lat="50.32767" lon="3.7434">
        <ele>100.6</ele>
        <time>2017-04-02T09:13:45Z</time>
      </trkpt>
      <trkpt lat="50.32767" lon="3.74347">
        <ele>99.15</ele>
        <time>2017-04-02T09:13:48Z</time>
      </trkpt>
      <trkpt lat="50.32767" lon="3.74351">
        <ele>100.6</ele>
        <time>2017-04-02T09:13:50Z</time>
      </trkpt>
      <trkpt lat="50.32767" lon="3.74359">
        <ele>98.67</ele>
        <time>2017-04-02T09:13:54Z</time>
      </trkpt>
      <trkpt lat="50.32768" lon="3.74365">
        <ele>100.11</ele>
        <time>2017-04-02T09:13:57Z</time>
      </trkpt>
      <trkpt lat="50.32767" lon="3.74378">
        <ele>100.11</ele>
        <time>2017-04-02T09:14:03Z</time>
      </trkpt>
      <trkpt lat="50.32767" lon="3.7438">
        <ele>100.11</ele>
        <time>2017-04-02T09:14:04Z</time>
      </trkpt>
      <trkpt lat="50.32767" lon="3.74383">
        <ele>99.15</ele>
        <time>2017-04-02T09:14:05Z</time>
      </trkpt>
      <trkpt lat="50.32767" lon="3.74385">
        <ele>98.67</ele>
        <time>2017-04-02T09:14:06Z</time>
      </trkpt>
      <trkpt lat="50.32766" lon="3.74387">
        <ele>98.67</ele>
        <time>2017-04-02T09:14:07Z</time>
      </trkpt>
      <trkpt lat="50.32766" lon="3.7439">
        <ele>98.67</ele>
        <time>2017-04-02T09:14:08Z</time>
      </trkpt>
      <trkpt lat="50.32766" lon="3.74392">
        <ele>100.11</ele>
        <time>2017-04-02T09:14:09Z</time>
      </trkpt>
      <trkpt lat="50.32766" lon="3.74394">
        <ele>100.11</ele>
        <time>2017-04-02T09:14:10Z</time>
      </trkpt>
      <trkpt lat="50.32764" lon="3.74409">
        <ele>98.19</ele>
        <time>2017-04-02T09:14:16Z</time>
      </trkpt>
      <trkpt lat="50.32761" lon="3.74421">
        <ele>99.15</ele>
        <time>2017-04-02T09:14:24Z</time>
      </trkpt>
      <trkpt lat="50.32761" lon="3.74431">
        <ele>97.71</ele>
        <time>2017-04-02T09:14:30Z</time>
      </trkpt>
      <trkpt lat="50.3276" lon="3.74434">
        <ele>99.15</ele>
        <time>2017-04-02T09:14:32Z</time>
      </trkpt>
      <trkpt lat="50.32758" lon="3.74446">
        <ele>99.15</ele>
        <time>2017-04-02T09:14:39Z</time>
      </trkpt>
      <trkpt lat="50.32757" lon="3.74455">
        <ele>97.71</ele>
        <time>2017-04-02T09:14:43Z</time>
      </trkpt>
      <trkpt lat="50.32751" lon="3.7448">
        <ele>98.67</ele>
        <time>2017-04-02T09:14:54Z</time>
      </trkpt>
      <trkpt lat="50.32749" lon="3.74488">
        <ele>97.23</ele>
        <time>2017-04-02T09:14:58Z</time>
      </trkpt>
      <trkpt lat="50.32749" lon="3.74491">
        <ele>98.67</ele>
        <time>2017-04-02T09:15:00Z</time>
      </trkpt>
      <trkpt lat="50.32747" lon="3.74497">
        <ele>96.27</ele>
        <time>2017-04-02T09:15:04Z</time>
      </trkpt>
      <trkpt lat="50.32746" lon="3.74502">
        <ele>98.67</ele>
        <time>2017-04-02T09:15:07Z</time>
      </trkpt>
      <trkpt lat="50.32742" lon="3.74513">
        <ele>95.79</ele>
        <time>2017-04-02T09:15:12Z</time>
      </trkpt>
      <trkpt lat="50.32741" lon="3.74518">
        <ele>97.71</ele>
        <time>2017-04-02T09:15:14Z</time>
      </trkpt>
      <trkpt lat="50.32738" lon="3.74527">
        <ele>96.27</ele>
        <time>2017-04-02T09:15:18Z</time>
      </trkpt>
      <trkpt lat="50.32734" lon="3.74536">
        <ele>96.75</ele>
        <time>2017-04-02T09:15:24Z</time>
      </trkpt>
      <trkpt lat="50.32729" lon="3.74546">
        <ele>96.75</ele>
        <time>2017-04-02T09:15:31Z</time>
      </trkpt>
      <trkpt lat="50.32727" lon="3.74552">
        <ele>97.71</ele>
        <time>2017-04-02T09:15:36Z</time>
      </trkpt>
      <trkpt lat="50.32713" lon="3.74598">
        <ele>97.71</ele>
        <time>2017-04-02T09:15:56Z</time>
      </trkpt>
      <trkpt lat="50.3271" lon="3.74605">
        <ele>96.27</ele>
        <time>2017-04-02T09:16:01Z</time>
      </trkpt>
      <trkpt lat="50.32705" lon="3.74618">
        <ele>97.23</ele>
        <time>2017-04-02T09:16:07Z</time>
      </trkpt>
      <trkpt lat="50.32691" lon="3.7465">
        <ele>97.23</ele>
        <time>2017-04-02T09:16:23Z</time>
      </trkpt>
      <trkpt lat="50.32676" lon="3.7468">
        <ele>96.75</ele>
        <time>2017-04-02T09:16:43Z</time>
      </trkpt>
      <trkpt lat="50.32674" lon="3.74695">
        <ele>96.75</ele>
        <time>2017-04-02T09:17:01Z</time>
      </trkpt>
      <trkpt lat="50.32673" lon="3.74697">
        <ele>92.9</ele>
        <time>2017-04-02T09:17:12Z</time>
      </trkpt>
      <trkpt lat="50.32673" lon="3.74697">
        <ele>94.35</ele>
        <time>2017-04-02T09:17:13Z</time>
      </trkpt>
      <trkpt lat="50.32672" lon="3.74697">
        <ele>101.08</ele>
        <time>2017-04-02T09:17:14Z</time>
      </trkpt>
      <trkpt lat="50.32672" lon="3.74697">
        <ele>96.27</ele>
        <time>2017-04-02T09:17:15Z</time>
      </trkpt>
      <trkpt lat="50.32673" lon="3.74697">
        <ele>98.19</ele>
        <time>2017-04-02T09:17:27Z</time>
      </trkpt>
      <trkpt lat="50.32673" lon="3.74697">
        <ele>96.27</ele>
        <time>2017-04-02T09:17:29Z</time>
      </trkpt>
      <trkpt lat="50.32669" lon="3.74693">
        <ele>96.27</ele>
        <time>2017-04-02T09:17:55Z</time>
      </trkpt>
      <trkpt lat="50.32672" lon="3.74698">
        <ele>96.27</ele>
        <time>2017-04-02T09:18:19Z</time>
      </trkpt>
      <trkpt lat="50.32673" lon="3.747">
        <ele>96.27</ele>
        <time>2017-04-02T09:18:51Z</time>
      </trkpt>
      <trkpt lat="50.32673" lon="3.74699">
        <ele>96.27</ele>
        <time>2017-04-02T09:19:19Z</time>
      </trkpt>
      <trkpt lat="50.32672" lon="3.74702">
        <ele>97.71</ele>
        <time>2017-04-02T09:19:24Z</time>
      </trkpt>
      <trkpt lat="50.32665" lon="3.74718">
        <ele>96.27</ele>
        <time>2017-04-02T09:19:33Z</time>
      </trkpt>
      <trkpt lat="50.32663" lon="3.74726">
        <ele>96.75</ele>
        <time>2017-04-02T09:19:37Z</time>
      </trkpt>
      <trkpt lat="50.32662" lon="3.74736">
        <ele>95.79</ele>
        <time>2017-04-02T09:19:44Z</time>
      </trkpt>
      <trkpt lat="50.32661" lon="3.74737">
        <ele>97.23</ele>
        <time>2017-04-02T09:19:46Z</time>
      </trkpt>
      <trkpt lat="50.32666" lon="3.74745">
        <ele>95.31</ele>
        <time>2017-04-02T09:19:59Z</time>
      </trkpt>
      <trkpt lat="50.32668" lon="3.74747">
        <ele>96.75</ele>
        <time>2017-04-02T09:20:01Z</time>
      </trkpt>
      <trkpt lat="50.32679" lon="3.74765">
        <ele>95.31</ele>
        <time>2017-04-02T09:20:15Z</time>
      </trkpt>
      <trkpt lat="50.32694" lon="3.7479">
        <ele>93.39</ele>
        <time>2017-04-02T09:20:34Z</time>
      </trkpt>
      <trkpt lat="50.32693" lon="3.74793">
        <ele>94.83</ele>
        <time>2017-04-02T09:20:36Z</time>
      </trkpt>
      <trkpt lat="50.32697" lon="3.74822">
        <ele>93.87</ele>
        <time>2017-04-02T09:20:51Z</time>
      </trkpt>
      <trkpt lat="50.32706" lon="3.74842">
        <ele>91.94</ele>
        <time>2017-04-02T09:21:06Z</time>
      </trkpt>
      <trkpt lat="50.32722" lon="3.74848">
        <ele>90.5</ele>
        <time>2017-04-02T09:21:24Z</time>
      </trkpt>
      <trkpt lat="50.32728" lon="3.74847">
        <ele>90.5</ele>
        <time>2017-04-02T09:21:30Z</time>
      </trkpt>
      <trkpt lat="50.32731" lon="3.74847">
        <ele>92.42</ele>
        <time>2017-04-02T09:21:33Z</time>
      </trkpt>
      <trkpt lat="50.32735" lon="3.74847">
        <ele>91.46</ele>
        <time>2017-04-02T09:21:35Z</time>
      </trkpt>
      <trkpt lat="50.32757" lon="3.74859">
        <ele>90.5</ele>
        <time>2017-04-02T09:21:55Z</time>
      </trkpt>
      <trkpt lat="50.32763" lon="3.74869">
        <ele>89.54</ele>
        <time>2017-04-02T09:22:04Z</time>
      </trkpt>
      <trkpt lat="50.32763" lon="3.74878">
        <ele>90.98</ele>
        <time>2017-04-02T09:22:09Z</time>
      </trkpt>
      <trkpt lat="50.32763" lon="3.74882">
        <ele>89.06</ele>
        <time>2017-04-02T09:22:11Z</time>
      </trkpt>
      <trkpt lat="50.32763" lon="3.74883">
        <ele>90.5</ele>
        <time>2017-04-02T09:22:12Z</time>
      </trkpt>
      <trkpt lat="50.32764" lon="3.74888">
        <ele>89.06</ele>
        <time>2017-04-02T09:22:15Z</time>
      </trkpt>
      <trkpt lat="50.32773" lon="3.74887">
        <ele>90.02</ele>
        <time>2017-04-02T09:22:31Z</time>
      </trkpt>
      <trkpt lat="50.32776" lon="3.74884">
        <ele>88.58</ele>
        <time>2017-04-02T09:22:35Z</time>
      </trkpt>
      <trkpt lat="50.32795" lon="3.74869">
        <ele>87.62</ele>
        <time>2017-04-02T09:22:53Z</time>
      </trkpt>
      <trkpt lat="50.32807" lon="3.74873">
        <ele>85.69</ele>
        <time>2017-04-02T09:23:06Z</time>
      </trkpt>
      <trkpt lat="50.32818" lon="3.74888">
        <ele>83.29</ele>
        <time>2017-04-02T09:23:18Z</time>
      </trkpt>
      <trkpt lat="50.32832" lon="3.74906">
        <ele>79.93</ele>
        <time>2017-04-02T09:23:37Z</time>
      </trkpt>
      <trkpt lat="50.32845" lon="3.74922">
        <ele>76.56</ele>
        <time>2017-04-02T09:23:54Z</time>
      </trkpt>
      <trkpt lat="50.32863" lon="3.74914">
        <ele>76.08</ele>
        <time>2017-04-02T09:24:13Z</time>
      </trkpt>
      <trkpt lat="50.32875" lon="3.74909">
        <ele>76.56</ele>
        <time>2017-04-02T09:24:25Z</time>
      </trkpt>
      <trkpt lat="50.32881" lon="3.74906">
        <ele>76.08</ele>
        <time>2017-04-02T09:24:30Z</time>
      </trkpt>
      <trkpt lat="50.32889" lon="3.74903">
        <ele>77.04</ele>
        <time>2017-04-02T09:24:37Z</time>
      </trkpt>
      <trkpt lat="50.32893" lon="3.749">
        <ele>75.6</ele>
        <time>2017-04-02T09:24:40Z</time>
      </trkpt>
      <trkpt lat="50.32895" lon="3.74898">
        <ele>77.52</ele>
        <time>2017-04-02T09:24:42Z</time>
      </trkpt>
      <trkpt lat="50.32898" lon="3.74897">
        <ele>76.08</ele>
        <time>2017-04-02T09:24:44Z</time>
      </trkpt>
      <trkpt lat="50.32923" lon="3.74888">
        <ele>74.16</ele>
        <time>2017-04-02T09:25:04Z</time>
      </trkpt>
      <trkpt lat="50.32938" lon="3.74881">
        <ele>72.24</ele>
        <time>2017-04-02T09:25:16Z</time>
      </trkpt>
      <trkpt lat="50.32944" lon="3.74878">
        <ele>71.76</ele>
        <time>2017-04-02T09:25:21Z</time>
      </trkpt>
      <trkpt lat="50.3295" lon="3.74874">
        <ele>72.72</ele>
        <time>2017-04-02T09:25:26Z</time>
      </trkpt>
      <trkpt lat="50.32958" lon="3.74872">
        <ele>70.79</ele>
        <time>2017-04-02T09:25:34Z</time>
      </trkpt>
      <trkpt lat="50.32959" lon="3.74849">
        <ele>71.76</ele>
        <time>2017-04-02T09:25:54Z</time>
      </trkpt>
      <trkpt lat="50.32958" lon="3.74847">
        <ele>70.31</ele>
        <time>2017-04-02T09:25:56Z</time>
      </trkpt>
      <trkpt lat="50.32955" lon="3.74841">
        <ele>70.79</ele>
        <time>2017-04-02T09:26:00Z</time>
      </trkpt>
      <trkpt lat="50.32952" lon="3.74834">
        <ele>72.72</ele>
        <time>2017-04-02T09:26:04Z</time>
      </trkpt>
      <trkpt lat="50.32948" lon="3.74827">
        <ele>71.76</ele>
        <time>2017-04-02T09:26:09Z</time>
      </trkpt>
      <trkpt lat="50.32947" lon="3.74824">
        <ele>73.68</ele>
        <time>2017-04-02T09:26:11Z</time>
      </trkpt>
      <trkpt lat="50.32945" lon="3.74812">
        <ele>72.24</ele>
        <time>2017-04-02T09:26:19Z</time>
      </trkpt>
      <trkpt lat="50.32958" lon="3.74787">
        <ele>73.68</ele>
        <time>2017-04-02T09:26:37Z</time>
      </trkpt>
      <trkpt lat="50.32971" lon="3.74773">
        <ele>72.72</ele>
        <time>2017-04-02T09:26:50Z</time>
      </trkpt>
      <trkpt lat="50.32974" lon="3.74771">
        <ele>74.16</ele>
        <time>2017-04-02T09:26:52Z</time>
      </trkpt>
      <trkpt lat="50.32985" lon="3.74761">
        <ele>74.16</ele>
        <time>2017-04-02T09:27:08Z</time>
      </trkpt>
      <trkpt lat="50.32989" lon="3.74759">
        <ele>73.2</ele>
        <time>2017-04-02T09:27:14Z</time>
      </trkpt>
      <trkpt lat="50.32992" lon="3.74757">
        <ele>74.64</ele>
        <time>2017-04-02T09:27:18Z</time>
      </trkpt>
      <trkpt lat="50.33017" lon="3.74739">
        <ele>73.2</ele>
        <time>2017-04-02T09:27:39Z</time>
      </trkpt>
      <trkpt lat="50.33021" lon="3.74734">
        <ele>74.64</ele>
        <time>2017-04-02T09:27:45Z</time>
      </trkpt>
      <trkpt lat="50.33023" lon="3.74732">
        <ele>73.2</ele>
        <time>2017-04-02T09:27:47Z</time>
      </trkpt>
      <trkpt lat="50.33034" lon="3.7472">
        <ele>71.76</ele>
        <time>2017-04-02T09:28:04Z</time>
      </trkpt>
      <trkpt lat="50.33037" lon="3.74718">
        <ele>73.2</ele>
        <time>2017-04-02T09:28:06Z</time>
      </trkpt>
      <trkpt lat="50.33039" lon="3.74717">
        <ele>71.76</ele>
        <time>2017-04-02T09:28:08Z</time>
      </trkpt>
      <trkpt lat="50.33057" lon="3.74703">
        <ele>71.76</ele>
        <time>2017-04-02T09:28:26Z</time>
      </trkpt>
      <trkpt lat="50.33075" lon="3.74695">
        <ele>70.31</ele>
        <time>2017-04-02T09:28:42Z</time>
      </trkpt>
      <trkpt lat="50.33077" lon="3.74696">
        <ele>71.76</ele>
        <time>2017-04-02T09:28:44Z</time>
      </trkpt>
      <trkpt lat="50.33078" lon="3.74695">
        <ele>70.31</ele>
        <time>2017-04-02T09:28:46Z</time>
      </trkpt>
      <trkpt lat="50.33084" lon="3.74694">
        <ele>71.76</ele>
        <time>2017-04-02T09:28:51Z</time>
      </trkpt>
      <trkpt lat="50.33089" lon="3.74696">
        <ele>70.31</ele>
        <time>2017-04-02T09:28:56Z</time>
      </trkpt>
      <trkpt lat="50.33096" lon="3.74697">
        <ele>71.27</ele>
        <time>2017-04-02T09:29:02Z</time>
      </trkpt>
      <trkpt lat="50.33099" lon="3.74697">
        <ele>69.83</ele>
        <time>2017-04-02T09:29:04Z</time>
      </trkpt>
      <trkpt lat="50.33108" lon="3.74693">
        <ele>70.79</ele>
        <time>2017-04-02T09:29:10Z</time>
      </trkpt>
      <trkpt lat="50.3311" lon="3.74691">
        <ele>69.35</ele>
        <time>2017-04-02T09:29:12Z</time>
      </trkpt>
      <trkpt lat="50.33113" lon="3.74689">
        <ele>71.27</ele>
        <time>2017-04-02T09:29:14Z</time>
      </trkpt>
      <trkpt lat="50.33117" lon="3.74686">
        <ele>69.35</ele>
        <time>2017-04-02T09:29:17Z</time>
      </trkpt>
      <trkpt lat="50.33121" lon="3.74682">
        <ele>70.79</ele>
        <time>2017-04-02T09:29:20Z</time>
      </trkpt>
      <trkpt lat="50.3313" lon="3.74679">
        <ele>70.79</ele>
        <time>2017-04-02T09:29:27Z</time>
      </trkpt>
      <trkpt lat="50.33135" lon="3.74677">
        <ele>68.87</ele>
        <time>2017-04-02T09:29:31Z</time>
      </trkpt>
      <trkpt lat="50.33146" lon="3.74672">
        <ele>69.83</ele>
        <time>2017-04-02T09:29:39Z</time>
      </trkpt>
      <trkpt lat="50.33156" lon="3.74669">
        <ele>68.39</ele>
        <time>2017-04-02T09:29:47Z</time>
      </trkpt>
      <trkpt lat="50.33166" lon="3.74676">
        <ele>69.35</ele>
        <time>2017-04-02T09:29:55Z</time>
      </trkpt>
      <trkpt lat="50.33173" lon="3.74681">
        <ele>69.35</ele>
        <time>2017-04-02T09:29:59Z</time>
      </trkpt>
      <trkpt lat="50.3318" lon="3.74681">
        <ele>67.91</ele>
        <time>2017-04-02T09:30:05Z</time>
      </trkpt>
      <trkpt lat="50.33199" lon="3.74664">
        <ele>68.39</ele>
        <time>2017-04-02T09:30:24Z</time>
      </trkpt>
      <trkpt lat="50.33211" lon="3.74646">
        <ele>67.43</ele>
        <time>2017-04-02T09:30:37Z</time>
      </trkpt>
      <trkpt lat="50.33213" lon="3.74645">
        <ele>68.87</ele>
        <time>2017-04-02T09:30:39Z</time>
      </trkpt>
      <trkpt lat="50.33216" lon="3.74645">
        <ele>67.91</ele>
        <time>2017-04-02T09:30:41Z</time>
      </trkpt>
      <trkpt lat="50.33227" lon="3.74643">
        <ele>68.87</ele>
        <time>2017-04-02T09:30:50Z</time>
      </trkpt>
      <trkpt lat="50.33245" lon="3.74637">
        <ele>69.83</ele>
        <time>2017-04-02T09:31:03Z</time>
      </trkpt>
      <trkpt lat="50.33258" lon="3.7463">
        <ele>68.39</ele>
        <time>2017-04-02T09:31:20Z</time>
      </trkpt>
      <trkpt lat="50.33264" lon="3.7463">
        <ele>66.47</ele>
        <time>2017-04-02T09:31:27Z</time>
      </trkpt>
      <trkpt lat="50.33266" lon="3.74628">
        <ele>68.39</ele>
        <time>2017-04-02T09:31:29Z</time>
      </trkpt>
      <trkpt lat="50.3327" lon="3.74624">
        <ele>66.47</ele>
        <time>2017-04-02T09:31:32Z</time>
      </trkpt>
      <trkpt lat="50.33273" lon="3.74622">
        <ele>68.39</ele>
        <time>2017-04-02T09:31:34Z</time>
      </trkpt>
      <trkpt lat="50.33279" lon="3.74618">
        <ele>68.87</ele>
        <time>2017-04-02T09:31:40Z</time>
      </trkpt>
      <trkpt lat="50.33287" lon="3.74611">
        <ele>68.87</ele>
        <time>2017-04-02T09:31:49Z</time>
      </trkpt>
      <trkpt lat="50.33293" lon="3.7461">
        <ele>71.76</ele>
        <time>2017-04-02T09:31:54Z</time>
      </trkpt>
      <trkpt lat="50.33307" lon="3.74599">
        <ele>70.31</ele>
        <time>2017-04-02T09:32:10Z</time>
      </trkpt>
      <trkpt lat="50.33306" lon="3.74589">
        <ele>71.27</ele>
        <time>2017-04-02T09:32:15Z</time>
      </trkpt>
      <trkpt lat="50.33301" lon="3.74584">
        <ele>70.31</ele>
        <time>2017-04-02T09:32:25Z</time>
      </trkpt>
      <trkpt lat="50.33298" lon="3.74578">
        <ele>68.87</ele>
        <time>2017-04-02T09:32:34Z</time>
      </trkpt>
      <trkpt lat="50.33297" lon="3.74546">
        <ele>67.43</ele>
        <time>2017-04-02T09:32:50Z</time>
      </trkpt>
      <trkpt lat="50.333" lon="3.7452">
        <ele>66.95</ele>
        <time>2017-04-02T09:33:05Z</time>
      </trkpt>
      <trkpt lat="50.333" lon="3.74508">
        <ele>67.43</ele>
        <time>2017-04-02T09:33:11Z</time>
      </trkpt>
      <trkpt lat="50.33303" lon="3.74473">
        <ele>66.47</ele>
        <time>2017-04-02T09:33:30Z</time>
      </trkpt>
      <trkpt lat="50.33309" lon="3.74459">
        <ele>67.43</ele>
        <time>2017-04-02T09:33:38Z</time>
      </trkpt>
      <trkpt lat="50.3331" lon="3.74437">
        <ele>65.51</ele>
        <time>2017-04-02T09:33:51Z</time>
      </trkpt>
      <trkpt lat="50.33312" lon="3.74434">
        <ele>66.95</ele>
        <time>2017-04-02T09:33:53Z</time>
      </trkpt>
      <trkpt lat="50.33313" lon="3.74431">
        <ele>65.51</ele>
        <time>2017-04-02T09:33:55Z</time>
      </trkpt>
      <trkpt lat="50.33314" lon="3.74393">
        <ele>65.51</ele>
        <time>2017-04-02T09:34:14Z</time>
      </trkpt>
      <trkpt lat="50.33311" lon="3.74386">
        <ele>67.43</ele>
        <time>2017-04-02T09:34:19Z</time>
      </trkpt>
      <trkpt lat="50.33309" lon="3.74383">
        <ele>65.51</ele>
        <time>2017-04-02T09:34:21Z</time>
      </trkpt>
      <trkpt lat="50.33306" lon="3.74376">
        <ele>65.03</ele>
        <time>2017-04-02T09:34:25Z</time>
      </trkpt>
      <trkpt lat="50.33306" lon="3.74372">
        <ele>67.43</ele>
        <time>2017-04-02T09:34:27Z</time>
      </trkpt>
      <trkpt lat="50.33306" lon="3.74361">
        <ele>65.51</ele>
        <time>2017-04-02T09:34:31Z</time>
      </trkpt>
      <trkpt lat="50.33307" lon="3.74356">
        <ele>66.47</ele>
        <time>2017-04-02T09:34:33Z</time>
      </trkpt>
      <trkpt lat="50.33308" lon="3.74351">
        <ele>65.03</ele>
        <time>2017-04-02T09:34:35Z</time>
      </trkpt>
      <trkpt lat="50.33308" lon="3.74345">
        <ele>66.95</ele>
        <time>2017-04-02T09:34:38Z</time>
      </trkpt>
      <trkpt lat="50.33311" lon="3.74333">
        <ele>66.47</ele>
        <time>2017-04-02T09:34:44Z</time>
      </trkpt>
      <trkpt lat="50.33312" lon="3.74316">
        <ele>65.03</ele>
        <time>2017-04-02T09:34:53Z</time>
      </trkpt>
      <trkpt lat="50.33312" lon="3.74312">
        <ele>66.47</ele>
        <time>2017-04-02T09:34:55Z</time>
      </trkpt>
      <trkpt lat="50.33313" lon="3.74292">
        <ele>66.95</ele>
        <time>2017-04-02T09:35:05Z</time>
      </trkpt>
      <trkpt lat="50.33315" lon="3.74281">
        <ele>66.95</ele>
        <time>2017-04-02T09:35:10Z</time>
      </trkpt>
      <trkpt lat="50.33315" lon="3.74272">
        <ele>64.55</ele>
        <time>2017-04-02T09:35:14Z</time>
      </trkpt>
      <trkpt lat="50.33316" lon="3.74266">
        <ele>66.47</ele>
        <time>2017-04-02T09:35:16Z</time>
      </trkpt>
      <trkpt lat="50.33315" lon="3.74259">
        <ele>64.55</ele>
        <time>2017-04-02T09:35:19Z</time>
      </trkpt>
      <trkpt lat="50.33314" lon="3.74243">
        <ele>65.99</ele>
        <time>2017-04-02T09:35:26Z</time>
      </trkpt>
      <trkpt lat="50.33314" lon="3.74222">
        <ele>64.55</ele>
        <time>2017-04-02T09:35:36Z</time>
      </trkpt>
      <trkpt lat="50.33315" lon="3.74219">
        <ele>65.99</ele>
        <time>2017-04-02T09:35:38Z</time>
      </trkpt>
      <trkpt lat="50.33316" lon="3.7421">
        <ele>64.07</ele>
        <time>2017-04-02T09:35:45Z</time>
      </trkpt>
      <trkpt lat="50.33316" lon="3.74207">
        <ele>65.51</ele>
        <time>2017-04-02T09:35:47Z</time>
      </trkpt>
      <trkpt lat="50.33318" lon="3.74189">
        <ele>63.58</ele>
        <time>2017-04-02T09:35:59Z</time>
      </trkpt>
      <trkpt lat="50.33319" lon="3.74186">
        <ele>65.03</ele>
        <time>2017-04-02T09:36:01Z</time>
      </trkpt>
      <trkpt lat="50.33319" lon="3.7418">
        <ele>63.58</ele>
        <time>2017-04-02T09:36:04Z</time>
      </trkpt>
      <trkpt lat="50.3332" lon="3.74174">
        <ele>64.55</ele>
        <time>2017-04-02T09:36:06Z</time>
      </trkpt>
      <trkpt lat="50.33324" lon="3.74142">
        <ele>62.62</ele>
        <time>2017-04-02T09:36:24Z</time>
      </trkpt>
      <trkpt lat="50.33325" lon="3.74139">
        <ele>64.55</ele>
        <time>2017-04-02T09:36:26Z</time>
      </trkpt>
      <trkpt lat="50.33327" lon="3.74133">
        <ele>62.14</ele>
        <time>2017-04-02T09:36:29Z</time>
      </trkpt>
      <trkpt lat="50.33327" lon="3.7413">
        <ele>64.55</ele>
        <time>2017-04-02T09:36:31Z</time>
      </trkpt>
      <trkpt lat="50.33327" lon="3.74128">
        <ele>63.1</ele>
        <time>2017-04-02T09:36:33Z</time>
      </trkpt>
      <trkpt lat="50.3333" lon="3.74109">
        <ele>62.14</ele>
        <time>2017-04-02T09:36:45Z</time>
      </trkpt>
      <trkpt lat="50.3333" lon="3.74104">
        <ele>64.07</ele>
        <time>2017-04-02T09:36:47Z</time>
      </trkpt>
      <trkpt lat="50.33331" lon="3.74059">
        <ele>61.18</ele>
        <time>2017-04-02T09:37:03Z</time>
      </trkpt>
      <trkpt lat="50.33342" lon="3.74018">
        <ele>60.22</ele>
        <time>2017-04-02T09:37:21Z</time>
      </trkpt>
      <trkpt lat="50.33344" lon="3.74012">
        <ele>63.1</ele>
        <time>2017-04-02T09:37:24Z</time>
      </trkpt>
      <trkpt lat="50.33345" lon="3.74002">
        <ele>63.1</ele>
        <time>2017-04-02T09:37:29Z</time>
      </trkpt>
      <trkpt lat="50.33346" lon="3.73998">
        <ele>61.18</ele>
        <time>2017-04-02T09:37:31Z</time>
      </trkpt>
      <trkpt lat="50.33347" lon="3.7399">
        <ele>63.1</ele>
        <time>2017-04-02T09:37:34Z</time>
      </trkpt>
      <trkpt lat="50.3335" lon="3.73984">
        <ele>61.18</ele>
        <time>2017-04-02T09:37:38Z</time>
      </trkpt>
      <trkpt lat="50.33351" lon="3.73982">
        <ele>62.14</ele>
        <time>2017-04-02T09:37:40Z</time>
      </trkpt>
      <trkpt lat="50.33353" lon="3.73974">
        <ele>62.62</ele>
        <time>2017-04-02T09:37:44Z</time>
      </trkpt>
      <trkpt lat="50.33362" lon="3.73948">
        <ele>60.7</ele>
        <time>2017-04-02T09:38:00Z</time>
      </trkpt>
      <trkpt lat="50.33368" lon="3.73932">
        <ele>60.7</ele>
        <time>2017-04-02T09:38:11Z</time>
      </trkpt>
      <trkpt lat="50.33371" lon="3.7393">
        <ele>62.14</ele>
        <time>2017-04-02T09:38:20Z</time>
      </trkpt>
      <trkpt lat="50.33376" lon="3.73919">
        <ele>62.14</ele>
        <time>2017-04-02T09:38:27Z</time>
      </trkpt>
      <trkpt lat="50.33381" lon="3.73903">
        <ele>62.14</ele>
        <time>2017-04-02T09:38:35Z</time>
      </trkpt>
      <trkpt lat="50.33383" lon="3.73895">
        <ele>60.22</ele>
        <time>2017-04-02T09:38:39Z</time>
      </trkpt>
      <trkpt lat="50.33391" lon="3.73876">
        <ele>60.7</ele>
        <time>2017-04-02T09:38:50Z</time>
      </trkpt>
      <trkpt lat="50.33394" lon="3.73871">
        <ele>62.14</ele>
        <time>2017-04-02T09:38:53Z</time>
      </trkpt>
      <trkpt lat="50.33395" lon="3.73868">
        <ele>60.7</ele>
        <time>2017-04-02T09:38:55Z</time>
      </trkpt>
      <trkpt lat="50.33396" lon="3.73864">
        <ele>62.14</ele>
        <time>2017-04-02T09:38:57Z</time>
      </trkpt>
      <trkpt lat="50.33404" lon="3.73842">
        <ele>62.62</ele>
        <time>2017-04-02T09:39:12Z</time>
      </trkpt>
      <trkpt lat="50.33407" lon="3.73836">
        <ele>61.66</ele>
        <time>2017-04-02T09:39:18Z</time>
      </trkpt>
      <trkpt lat="50.33415" lon="3.73817">
        <ele>61.18</ele>
        <time>2017-04-02T09:39:34Z</time>
      </trkpt>
      <trkpt lat="50.33423" lon="3.73804">
        <ele>61.18</ele>
        <time>2017-04-02T09:39:44Z</time>
      </trkpt>
      <trkpt lat="50.33429" lon="3.7378">
        <ele>59.74</ele>
        <time>2017-04-02T09:39:59Z</time>
      </trkpt>
      <trkpt lat="50.33442" lon="3.73779">
        <ele>58.78</ele>
        <time>2017-04-02T09:40:17Z</time>
      </trkpt>
      <trkpt lat="50.33448" lon="3.73784">
        <ele>58.3</ele>
        <time>2017-04-02T09:40:21Z</time>
      </trkpt>
      <trkpt lat="50.33453" lon="3.73787">
        <ele>59.74</ele>
        <time>2017-04-02T09:40:24Z</time>
      </trkpt>
      <trkpt lat="50.3347" lon="3.73791">
        <ele>57.34</ele>
        <time>2017-04-02T09:40:39Z</time>
      </trkpt>
      <trkpt lat="50.3348" lon="3.73794">
        <ele>58.78</ele>
        <time>2017-04-02T09:40:45Z</time>
      </trkpt>
      <trkpt lat="50.33501" lon="3.73799">
        <ele>58.78</ele>
        <time>2017-04-02T09:40:58Z</time>
      </trkpt>
      <trkpt lat="50.33504" lon="3.73799">
        <ele>57.34</ele>
        <time>2017-04-02T09:41:01Z</time>
      </trkpt>
      <trkpt lat="50.33517" lon="3.73798">
        <ele>58.78</ele>
        <time>2017-04-02T09:41:10Z</time>
      </trkpt>
      <trkpt lat="50.33519" lon="3.73798">
        <ele>56.86</ele>
        <time>2017-04-02T09:41:12Z</time>
      </trkpt>
      <trkpt lat="50.33521" lon="3.73798">
        <ele>58.78</ele>
        <time>2017-04-02T09:41:14Z</time>
      </trkpt>
      <trkpt lat="50.33523" lon="3.73797">
        <ele>58.78</ele>
        <time>2017-04-02T09:41:15Z</time>
      </trkpt>
      <trkpt lat="50.33528" lon="3.73796">
        <ele>56.86</ele>
        <time>2017-04-02T09:41:19Z</time>
      </trkpt>
      <trkpt lat="50.3353" lon="3.73796">
        <ele>58.3</ele>
        <time>2017-04-02T09:41:20Z</time>
      </trkpt>
      <trkpt lat="50.33541" lon="3.73793">
        <ele>57.34</ele>
        <time>2017-04-02T09:41:29Z</time>
      </trkpt>
      <trkpt lat="50.33547" lon="3.7379">
        <ele>57.34</ele>
        <time>2017-04-02T09:41:34Z</time>
      </trkpt>
      <trkpt lat="50.33551" lon="3.73789">
        <ele>58.3</ele>
        <time>2017-04-02T09:41:37Z</time>
      </trkpt>
      <trkpt lat="50.33556" lon="3.73789">
        <ele>56.86</ele>
        <time>2017-04-02T09:41:40Z</time>
      </trkpt>
      <trkpt lat="50.33563" lon="3.73786">
        <ele>56.86</ele>
        <time>2017-04-02T09:41:46Z</time>
      </trkpt>
      <trkpt lat="50.33567" lon="3.73785">
        <ele>58.3</ele>
        <time>2017-04-02T09:41:49Z</time>
      </trkpt>
      <trkpt lat="50.33571" lon="3.73783">
        <ele>56.86</ele>
        <time>2017-04-02T09:41:52Z</time>
      </trkpt>
      <trkpt lat="50.33573" lon="3.73781">
        <ele>56.86</ele>
        <time>2017-04-02T09:41:54Z</time>
      </trkpt>
      <trkpt lat="50.33577" lon="3.73779">
        <ele>58.78</ele>
        <time>2017-04-02T09:41:57Z</time>
      </trkpt>
      <trkpt lat="50.33593" lon="3.73773">
        <ele>57.34</ele>
        <time>2017-04-02T09:42:10Z</time>
      </trkpt>
      <trkpt lat="50.33602" lon="3.73781">
        <ele>58.3</ele>
        <time>2017-04-02T09:42:18Z</time>
      </trkpt>
      <trkpt lat="50.33606" lon="3.73782">
        <ele>57.82</ele>
        <time>2017-04-02T09:42:37Z</time>
      </trkpt>
      <trkpt lat="50.33613" lon="3.73777">
        <ele>56.37</ele>
        <time>2017-04-02T09:42:45Z</time>
      </trkpt>
      <trkpt lat="50.33619" lon="3.7377">
        <ele>56.37</ele>
        <time>2017-04-02T09:42:52Z</time>
      </trkpt>
      <trkpt lat="50.33626" lon="3.7376">
        <ele>55.41</ele>
        <time>2017-04-02T09:43:08Z</time>
      </trkpt>
      <trkpt lat="50.33623" lon="3.73767">
        <ele>54.93</ele>
        <time>2017-04-02T09:43:13Z</time>
      </trkpt>
      <trkpt lat="50.33619" lon="3.73772">
        <ele>57.34</ele>
        <time>2017-04-02T09:43:16Z</time>
      </trkpt>
      <trkpt lat="50.33616" lon="3.73774">
        <ele>57.34</ele>
        <time>2017-04-02T09:43:18Z</time>
      </trkpt>
      <trkpt lat="50.33614" lon="3.73778">
        <ele>55.89</ele>
        <time>2017-04-02T09:43:20Z</time>
      </trkpt>
      <trkpt lat="50.3361" lon="3.73789">
        <ele>58.78</ele>
        <time>2017-04-02T09:43:28Z</time>
      </trkpt>
      <trkpt lat="50.33614" lon="3.73803">
        <ele>56.86</ele>
        <time>2017-04-02T09:43:36Z</time>
      </trkpt>
      <trkpt lat="50.33617" lon="3.73814">
        <ele>55.89</ele>
        <time>2017-04-02T09:43:43Z</time>
      </trkpt>
      <trkpt lat="50.33618" lon="3.73815">
        <ele>57.34</ele>
        <time>2017-04-02T09:43:45Z</time>
      </trkpt>
      <trkpt lat="50.33621" lon="3.73815">
        <ele>55.89</ele>
        <time>2017-04-02T09:43:48Z</time>
      </trkpt>
      <trkpt lat="50.33625" lon="3.73815">
        <ele>56.86</ele>
        <time>2017-04-02T09:43:52Z</time>
      </trkpt>
      <trkpt lat="50.33635" lon="3.73809">
        <ele>55.41</ele>
        <time>2017-04-02T09:43:59Z</time>
      </trkpt>
      <trkpt lat="50.3364" lon="3.73804">
        <ele>56.86</ele>
        <time>2017-04-02T09:44:03Z</time>
      </trkpt>
      <trkpt lat="50.33642" lon="3.73802">
        <ele>54.93</ele>
        <time>2017-04-02T09:44:05Z</time>
      </trkpt>
      <trkpt lat="50.33648" lon="3.73792">
        <ele>55.89</ele>
        <time>2017-04-02T09:44:15Z</time>
      </trkpt>
      <trkpt lat="50.33651" lon="3.73786">
        <ele>55.89</ele>
        <time>2017-04-02T09:44:19Z</time>
      </trkpt>
      <trkpt lat="50.33653" lon="3.73779">
        <ele>54.45</ele>
        <time>2017-04-02T09:44:23Z</time>
      </trkpt>
      <trkpt lat="50.33656" lon="3.73761">
        <ele>54.45</ele>
        <time>2017-04-02T09:44:30Z</time>
      </trkpt>
      <trkpt lat="50.33658" lon="3.73753">
        <ele>55.89</ele>
        <time>2017-04-02T09:44:34Z</time>
      </trkpt>
      <trkpt lat="50.33659" lon="3.73744">
        <ele>54.45</ele>
        <time>2017-04-02T09:44:38Z</time>
      </trkpt>
      <trkpt lat="50.33663" lon="3.73723">
        <ele>55.41</ele>
        <time>2017-04-02T09:44:49Z</time>
      </trkpt>
      <trkpt lat="50.33662" lon="3.73713">
        <ele>55.89</ele>
        <time>2017-04-02T09:44:55Z</time>
      </trkpt>
      <trkpt lat="50.33662" lon="3.73706">
        <ele>53.97</ele>
        <time>2017-04-02T09:44:58Z</time>
      </trkpt>
      <trkpt lat="50.33661" lon="3.73701">
        <ele>55.89</ele>
        <time>2017-04-02T09:45:00Z</time>
      </trkpt>
      <trkpt lat="50.33661" lon="3.73697">
        <ele>54.45</ele>
        <time>2017-04-02T09:45:02Z</time>
      </trkpt>
      <trkpt lat="50.33661" lon="3.73692">
        <ele>54.45</ele>
        <time>2017-04-02T09:45:04Z</time>
      </trkpt>
      <trkpt lat="50.33661" lon="3.73672">
        <ele>55.89</ele>
        <time>2017-04-02T09:45:13Z</time>
      </trkpt>
      <trkpt lat="50.33658" lon="3.73662">
        <ele>55.89</ele>
        <time>2017-04-02T09:45:20Z</time>
      </trkpt>
      <trkpt lat="50.33655" lon="3.73657">
        <ele>53.97</ele>
        <time>2017-04-02T09:45:24Z</time>
      </trkpt>
      <trkpt lat="50.33654" lon="3.73654">
        <ele>55.89</ele>
        <time>2017-04-02T09:45:26Z</time>
      </trkpt>
      <trkpt lat="50.3365" lon="3.73649">
        <ele>54.45</ele>
        <time>2017-04-02T09:45:30Z</time>
      </trkpt>
      <trkpt lat="50.33648" lon="3.73646">
        <ele>56.37</ele>
        <time>2017-04-02T09:45:33Z</time>
      </trkpt>
      <trkpt lat="50.33645" lon="3.73642">
        <ele>54.93</ele>
        <time>2017-04-02T09:45:36Z</time>
      </trkpt>
      <trkpt lat="50.3363" lon="3.73633">
        <ele>56.37</ele>
        <time>2017-04-02T09:45:49Z</time>
      </trkpt>
      <trkpt lat="50.33622" lon="3.7363">
        <ele>53.97</ele>
        <time>2017-04-02T09:45:54Z</time>
      </trkpt>
      <trkpt lat="50.33617" lon="3.73625">
        <ele>55.89</ele>
        <time>2017-04-02T09:45:58Z</time>
      </trkpt>
      <trkpt lat="50.33613" lon="3.73619">
        <ele>54.45</ele>
        <time>2017-04-02T09:46:02Z</time>
      </trkpt>
      <trkpt lat="50.33602" lon="3.73602">
        <ele>54.93</ele>
        <time>2017-04-02T09:46:12Z</time>
      </trkpt>
      <trkpt lat="50.336" lon="3.73595">
        <ele>56.37</ele>
        <time>2017-04-02T09:46:16Z</time>
      </trkpt>
      <trkpt lat="50.33599" lon="3.73589">
        <ele>54.93</ele>
        <time>2017-04-02T09:46:20Z</time>
      </trkpt>
      <trkpt lat="50.33598" lon="3.73584">
        <ele>57.34</ele>
        <time>2017-04-02T09:46:22Z</time>
      </trkpt>
      <trkpt lat="50.33598" lon="3.7358">
        <ele>55.89</ele>
        <time>2017-04-02T09:46:24Z</time>
      </trkpt>
      <trkpt lat="50.33598" lon="3.73568">
        <ele>57.34</ele>
        <time>2017-04-02T09:46:29Z</time>
      </trkpt>
      <trkpt lat="50.33603" lon="3.73541">
        <ele>56.37</ele>
        <time>2017-04-02T09:46:42Z</time>
      </trkpt>
      <trkpt lat="50.33605" lon="3.73522">
        <ele>55.41</ele>
        <time>2017-04-02T09:46:50Z</time>
      </trkpt>
      <trkpt lat="50.33606" lon="3.7351">
        <ele>55.89</ele>
        <time>2017-04-02T09:46:56Z</time>
      </trkpt>
      <trkpt lat="50.33614" lon="3.73484">
        <ele>56.86</ele>
        <time>2017-04-02T09:47:10Z</time>
      </trkpt>
      <trkpt lat="50.33619" lon="3.73481">
        <ele>55.89</ele>
        <time>2017-04-02T09:47:16Z</time>
      </trkpt>
      <trkpt lat="50.33632" lon="3.73469">
        <ele>57.34</ele>
        <time>2017-04-02T09:47:24Z</time>
      </trkpt>
      <trkpt lat="50.33637" lon="3.73466">
        <ele>56.37</ele>
        <time>2017-04-02T09:47:27Z</time>
      </trkpt>
      <trkpt lat="50.3364" lon="3.73464">
        <ele>56.37</ele>
        <time>2017-04-02T09:47:29Z</time>
      </trkpt>
      <trkpt lat="50.33642" lon="3.73463">
        <ele>56.37</ele>
        <time>2017-04-02T09:47:30Z</time>
      </trkpt>
      <trkpt lat="50.33649" lon="3.73462">
        <ele>57.82</ele>
        <time>2017-04-02T09:47:35Z</time>
      </trkpt>
      <trkpt lat="50.33653" lon="3.73461">
        <ele>57.82</ele>
        <time>2017-04-02T09:47:40Z</time>
      </trkpt>
      <trkpt lat="50.33657" lon="3.73461">
        <ele>55.89</ele>
        <time>2017-04-02T09:47:43Z</time>
      </trkpt>
      <trkpt lat="50.33659" lon="3.7346">
        <ele>57.34</ele>
        <time>2017-04-02T09:47:46Z</time>
      </trkpt>
      <trkpt lat="50.33664" lon="3.73459">
        <ele>55.89</ele>
        <time>2017-04-02T09:47:50Z</time>
      </trkpt>
      <trkpt lat="50.33665" lon="3.73457">
        <ele>57.34</ele>
        <time>2017-04-02T09:47:52Z</time>
      </trkpt>
      <trkpt lat="50.33666" lon="3.7344">
        <ele>57.34</ele>
        <time>2017-04-02T09:48:12Z</time>
      </trkpt>
      <trkpt lat="50.33668" lon="3.73441">
        <ele>57.82</ele>
        <time>2017-04-02T09:48:33Z</time>
      </trkpt>
      <trkpt lat="50.33668" lon="3.73449">
        <ele>56.37</ele>
        <time>2017-04-02T09:48:57Z</time>
      </trkpt>
      <trkpt lat="50.33674" lon="3.73455">
        <ele>57.34</ele>
        <time>2017-04-02T09:49:18Z</time>
      </trkpt>
      <trkpt lat="50.33678" lon="3.73456">
        <ele>51.57</ele>
        <time>2017-04-02T09:49:21Z</time>
      </trkpt>
      <trkpt lat="50.33679" lon="3.73457">
        <ele>51.09</ele>
        <time>2017-04-02T09:49:22Z</time>
      </trkpt>
      <trkpt lat="50.33681" lon="3.73458">
        <ele>58.78</ele>
        <time>2017-04-02T09:49:23Z</time>
      </trkpt>
      <trkpt lat="50.33682" lon="3.73458">
        <ele>56.37</ele>
        <time>2017-04-02T09:49:24Z</time>
      </trkpt>
      <trkpt lat="50.33676" lon="3.73455">
        <ele>55.89</ele>
        <time>2017-04-02T09:49:45Z</time>
      </trkpt>
      <trkpt lat="50.33662" lon="3.73462">
        <ele>57.34</ele>
        <time>2017-04-02T09:50:07Z</time>
      </trkpt>
      <trkpt lat="50.33662" lon="3.73464">
        <ele>55.89</ele>
        <time>2017-04-02T09:50:09Z</time>
      </trkpt>
      <trkpt lat="50.33671" lon="3.73466">
        <ele>56.86</ele>
        <time>2017-04-02T09:50:21Z</time>
      </trkpt>
      <trkpt lat="50.33674" lon="3.73468">
        <ele>55.41</ele>
        <time>2017-04-02T09:50:29Z</time>
      </trkpt>
      <trkpt lat="50.33676" lon="3.73472">
        <ele>58.78</ele>
        <time>2017-04-02T09:50:35Z</time>
      </trkpt>
      <trkpt lat="50.33662" lon="3.7346">
        <ele>55.89</ele>
        <time>2017-04-02T09:51:03Z</time>
      </trkpt>
      <trkpt lat="50.33665" lon="3.73452">
        <ele>55.89</ele>
        <time>2017-04-02T09:51:29Z</time>
      </trkpt>
      <trkpt lat="50.33666" lon="3.73458">
        <ele>55.41</ele>
        <time>2017-04-02T09:52:02Z</time>
      </trkpt>
      <trkpt lat="50.33673" lon="3.73445">
        <ele>55.41</ele>
        <time>2017-04-02T09:52:27Z</time>
      </trkpt>
      <trkpt lat="50.33676" lon="3.73434">
        <ele>55.41</ele>
        <time>2017-04-02T09:52:51Z</time>
      </trkpt>
      <trkpt lat="50.33672" lon="3.73454">
        <ele>55.41</ele>
        <time>2017-04-02T09:53:13Z</time>
      </trkpt>
      <trkpt lat="50.33684" lon="3.73454">
        <ele>53.97</ele>
        <time>2017-04-02T09:53:39Z</time>
      </trkpt>
      <trkpt lat="50.33677" lon="3.73453">
        <ele>55.41</ele>
        <time>2017-04-02T09:53:58Z</time>
      </trkpt>
      <trkpt lat="50.33675" lon="3.73431">
        <ele>55.41</ele>
        <time>2017-04-02T09:54:17Z</time>
      </trkpt>
      <trkpt lat="50.33658" lon="3.73455">
        <ele>55.89</ele>
        <time>2017-04-02T09:57:46Z</time>
      </trkpt>
      <trkpt lat="50.33664" lon="3.73448">
        <ele>55.89</ele>
        <time>2017-04-02T09:58:08Z</time>
      </trkpt>
      <trkpt lat="50.33659" lon="3.73451">
        <ele>55.89</ele>
        <time>2017-04-02T09:58:45Z</time>
      </trkpt>
      <trkpt lat="50.33677" lon="3.7346">
        <ele>55.89</ele>
        <time>2017-04-02T09:59:13Z</time>
      </trkpt>
      <trkpt lat="50.33676" lon="3.73453">
        <ele>55.89</ele>
        <time>2017-04-02T09:59:40Z</time>
      </trkpt>
      <trkpt lat="50.33679" lon="3.73452">
        <ele>55.89</ele>
        <time>2017-04-02T10:00:06Z</time>
      </trkpt>
      <trkpt lat="50.33682" lon="3.73442">
        <ele>53.97</ele>
        <time>2017-04-02T10:00:21Z</time>
      </trkpt>
      <trkpt lat="50.33682" lon="3.73443">
        <ele>55.41</ele>
        <time>2017-04-02T10:00:24Z</time>
      </trkpt>
      <trkpt lat="50.33681" lon="3.73444">
        <ele>56.86</ele>
        <time>2017-04-02T10:00:25Z</time>
      </trkpt>
      <trkpt lat="50.33669" lon="3.73459">
        <ele>54.93</ele>
        <time>2017-04-02T10:01:09Z</time>
      </trkpt>
      <trkpt lat="50.33676" lon="3.73464">
        <ele>54.93</ele>
        <time>2017-04-02T10:01:41Z</time>
      </trkpt>
      <trkpt lat="50.33667" lon="3.73461">
        <ele>55.41</ele>
        <time>2017-04-02T10:02:25Z</time>
      </trkpt>
      <trkpt lat="50.33659" lon="3.73466">
        <ele>55.41</ele>
        <time>2017-04-02T10:02:57Z</time>
      </trkpt>
      <trkpt lat="50.33659" lon="3.73466">
        <ele>53.97</ele>
        <time>2017-04-02T10:02:59Z</time>
      </trkpt>
      <trkpt lat="50.33659" lon="3.73467">
        <ele>58.3</ele>
        <time>2017-04-02T10:03:00Z</time>
      </trkpt>
      <trkpt lat="50.33669" lon="3.73468">
        <ele>55.89</ele>
        <time>2017-04-02T10:03:24Z</time>
      </trkpt>
      <trkpt lat="50.33669" lon="3.73452">
        <ele>55.89</ele>
        <time>2017-04-02T10:03:49Z</time>
      </trkpt>
      <trkpt lat="50.33669" lon="3.7345">
        <ele>56.86</ele>
        <time>2017-04-02T10:04:13Z</time>
      </trkpt>
      <trkpt lat="50.33681" lon="3.73451">
        <ele>56.37</ele>
        <time>2017-04-02T10:04:40Z</time>
      </trkpt>
      <trkpt lat="50.33669" lon="3.73457">
        <ele>56.37</ele>
        <time>2017-04-02T10:05:05Z</time>
      </trkpt>
      <trkpt lat="50.33656" lon="3.73456">
        <ele>55.89</ele>
        <time>2017-04-02T10:05:26Z</time>
      </trkpt>
      <trkpt lat="50.33665" lon="3.73451">
        <ele>55.89</ele>
        <time>2017-04-02T10:05:48Z</time>
      </trkpt>
      <trkpt lat="50.33669" lon="3.73455">
        <ele>58.3</ele>
        <time>2017-04-02T10:06:13Z</time>
      </trkpt>
      <trkpt lat="50.33675" lon="3.73453">
        <ele>53.97</ele>
        <time>2017-04-02T10:06:29Z</time>
      </trkpt>
      <trkpt lat="50.33675" lon="3.73453">
        <ele>59.26</ele>
        <time>2017-04-02T10:06:30Z</time>
      </trkpt>
      <trkpt lat="50.33671" lon="3.73446">
        <ele>55.89</ele>
        <time>2017-04-02T10:06:43Z</time>
      </trkpt>
      <trkpt lat="50.33666" lon="3.73443">
        <ele>55.89</ele>
        <time>2017-04-02T10:06:49Z</time>
      </trkpt>
      <trkpt lat="50.33657" lon="3.73445">
        <ele>55.89</ele>
        <time>2017-04-02T10:07:00Z</time>
      </trkpt>
      <trkpt lat="50.33652" lon="3.73466">
        <ele>55.89</ele>
        <time>2017-04-02T10:07:20Z</time>
      </trkpt>
      <trkpt lat="50.33676" lon="3.73447">
        <ele>55.89</ele>
        <time>2017-04-02T10:07:44Z</time>
      </trkpt>
      <trkpt lat="50.33675" lon="3.73454">
        <ele>55.89</ele>
        <time>2017-04-02T10:08:10Z</time>
      </trkpt>
      <trkpt lat="50.33673" lon="3.73447">
        <ele>56.37</ele>
        <time>2017-04-02T10:08:41Z</time>
      </trkpt>
      <trkpt lat="50.33676" lon="3.73441">
        <ele>57.34</ele>
        <time>2017-04-02T10:09:11Z</time>
      </trkpt>
      <trkpt lat="50.33675" lon="3.73449">
        <ele>58.3</ele>
        <time>2017-04-02T10:09:35Z</time>
      </trkpt>
      <trkpt lat="50.33677" lon="3.73444">
        <ele>58.78</ele>
        <time>2017-04-02T10:10:03Z</time>
      </trkpt>
      <trkpt lat="50.3369" lon="3.73447">
        <ele>58.78</ele>
        <time>2017-04-02T10:10:37Z</time>
      </trkpt>
      <trkpt lat="50.33701" lon="3.73447">
        <ele>59.26</ele>
        <time>2017-04-02T10:11:07Z</time>
      </trkpt>
      <trkpt lat="50.33691" lon="3.73454">
        <ele>60.22</ele>
        <time>2017-04-02T10:11:41Z</time>
      </trkpt>
      <trkpt lat="50.33702" lon="3.73451">
        <ele>61.18</ele>
        <time>2017-04-02T10:12:17Z</time>
      </trkpt>
      <trkpt lat="50.33696" lon="3.7345">
        <ele>61.66</ele>
        <time>2017-04-02T10:12:50Z</time>
      </trkpt>
      <trkpt lat="50.33667" lon="3.73443">
        <ele>62.14</ele>
        <time>2017-04-02T10:13:22Z</time>
      </trkpt>
      <trkpt lat="50.33672" lon="3.73452">
        <ele>63.1</ele>
        <time>2017-04-02T10:13:59Z</time>
      </trkpt>
      <trkpt lat="50.33672" lon="3.73451">
        <ele>63.58</ele>
        <time>2017-04-02T10:14:32Z</time>
      </trkpt>
      <trkpt lat="50.33671" lon="3.73445">
        <ele>63.58</ele>
        <time>2017-04-02T10:15:02Z</time>
      </trkpt>
      <trkpt lat="50.33673" lon="3.73453">
        <ele>64.07</ele>
        <time>2017-04-02T10:15:40Z</time>
      </trkpt>
      <trkpt lat="50.33673" lon="3.73447">
        <ele>63.58</ele>
        <time>2017-04-02T10:16:04Z</time>
      </trkpt>
      <trkpt lat="50.33666" lon="3.73437">
        <ele>65.03</ele>
        <time>2017-04-02T10:16:48Z</time>
      </trkpt>
      <trkpt lat="50.33666" lon="3.73437">
        <ele>63.1</ele>
        <time>2017-04-02T10:16:49Z</time>
      </trkpt>
      <trkpt lat="50.33664" lon="3.73431">
        <ele>62.62</ele>
        <time>2017-04-02T10:16:56Z</time>
      </trkpt>
      <trkpt lat="50.33664" lon="3.73428">
        <ele>64.07</ele>
        <time>2017-04-02T10:16:58Z</time>
      </trkpt>
      <trkpt lat="50.33675" lon="3.73432">
        <ele>63.58</ele>
        <time>2017-04-02T10:17:01Z</time>
      </trkpt>
      <trkpt lat="50.33689" lon="3.73439">
        <ele>64.07</ele>
        <time>2017-04-02T10:17:27Z</time>
      </trkpt>
      <trkpt lat="50.33688" lon="3.73441">
        <ele>64.07</ele>
        <time>2017-04-02T10:17:54Z</time>
      </trkpt>
      <trkpt lat="50.33685" lon="3.73449">
        <ele>64.55</ele>
        <time>2017-04-02T10:18:30Z</time>
      </trkpt>
      <trkpt lat="50.33677" lon="3.73445">
        <ele>64.55</ele>
        <time>2017-04-02T10:19:09Z</time>
      </trkpt>
      <trkpt lat="50.33668" lon="3.73445">
        <ele>65.03</ele>
        <time>2017-04-02T10:19:42Z</time>
      </trkpt>
      <trkpt lat="50.33675" lon="3.7345">
        <ele>65.03</ele>
        <time>2017-04-02T10:20:19Z</time>
      </trkpt>
      <trkpt lat="50.33676" lon="3.73439">
        <ele>65.03</ele>
        <time>2017-04-02T10:20:39Z</time>
      </trkpt>
      <trkpt lat="50.33675" lon="3.73441">
        <ele>65.03</ele>
        <time>2017-04-02T10:21:01Z</time>
      </trkpt>
      <trkpt lat="50.33666" lon="3.73446">
        <ele>65.03</ele>
        <time>2017-04-02T10:21:33Z</time>
      </trkpt>
      <trkpt lat="50.33669" lon="3.73452">
        <ele>65.03</ele>
        <time>2017-04-02T10:22:02Z</time>
      </trkpt>
      <trkpt lat="50.3367" lon="3.73454">
        <ele>65.03</ele>
        <time>2017-04-02T10:22:38Z</time>
      </trkpt>
      <trkpt lat="50.33667" lon="3.73457">
        <ele>65.03</ele>
        <time>2017-04-02T10:23:00Z</time>
      </trkpt>
      <trkpt lat="50.3366" lon="3.73465">
        <ele>65.03</ele>
        <time>2017-04-02T10:23:37Z</time>
      </trkpt>
      <trkpt lat="50.33673" lon="3.73448">
        <ele>65.03</ele>
        <time>2017-04-02T10:24:13Z</time>
      </trkpt>
      <trkpt lat="50.33673" lon="3.73448">
        <ele>65.03</ele>
        <time>2017-04-02T10:24:41Z</time>
      </trkpt>
      <trkpt lat="50.3367" lon="3.73452">
        <ele>65.03</ele>
        <time>2017-04-02T10:25:15Z</time>
      </trkpt>
      <trkpt lat="50.33671" lon="3.73449">
        <ele>65.03</ele>
        <time>2017-04-02T10:25:47Z</time>
      </trkpt>
      <trkpt lat="50.3367" lon="3.73449">
        <ele>65.03</ele>
        <time>2017-04-02T10:26:19Z</time>
      </trkpt>
      <trkpt lat="50.33668" lon="3.73456">
        <ele>65.03</ele>
        <time>2017-04-02T10:26:52Z</time>
      </trkpt>
      <trkpt lat="50.33666" lon="3.73458">
        <ele>65.03</ele>
        <time>2017-04-02T10:27:24Z</time>
      </trkpt>
      <trkpt lat="50.33671" lon="3.73442">
        <ele>65.03</ele>
        <time>2017-04-02T10:27:49Z</time>
      </trkpt>
      <trkpt lat="50.3367" lon="3.73449">
        <ele>66.47</ele>
        <time>2017-04-02T10:28:09Z</time>
      </trkpt>
      <trkpt lat="50.33662" lon="3.73458">
        <ele>66.47</ele>
        <time>2017-04-02T10:28:38Z</time>
      </trkpt>
      <trkpt lat="50.33668" lon="3.73451">
        <ele>66.47</ele>
        <time>2017-04-02T10:29:08Z</time>
      </trkpt>
      <trkpt lat="50.33671" lon="3.73445">
        <ele>66.95</ele>
        <time>2017-04-02T10:29:47Z</time>
      </trkpt>
      <trkpt lat="50.33675" lon="3.73451">
        <ele>66.95</ele>
        <time>2017-04-02T10:30:24Z</time>
      </trkpt>
      <trkpt lat="50.33675" lon="3.7344">
        <ele>66.95</ele>
        <time>2017-04-02T10:31:07Z</time>
      </trkpt>
      <trkpt lat="50.33669" lon="3.73451">
        <ele>66.95</ele>
        <time>2017-04-02T10:31:43Z</time>
      </trkpt>
      <trkpt lat="50.33664" lon="3.73458">
        <ele>65.51</ele>
        <time>2017-04-02T10:32:10Z</time>
      </trkpt>
      <trkpt lat="50.33654" lon="3.73478">
        <ele>66.95</ele>
        <time>2017-04-02T10:32:38Z</time>
      </trkpt>
      <trkpt lat="50.33653" lon="3.7348">
        <ele>67.43</ele>
        <time>2017-04-02T10:33:08Z</time>
      </trkpt>
      <trkpt lat="50.33668" lon="3.73472">
        <ele>67.43</ele>
        <time>2017-04-02T10:33:46Z</time>
      </trkpt>
      <trkpt lat="50.33676" lon="3.73446">
        <ele>67.91</ele>
        <time>2017-04-02T10:34:14Z</time>
      </trkpt>
      <trkpt lat="50.33676" lon="3.73461">
        <ele>68.87</ele>
        <time>2017-04-02T10:34:45Z</time>
      </trkpt>
      <trkpt lat="50.33666" lon="3.73459">
        <ele>68.87</ele>
        <time>2017-04-02T10:35:12Z</time>
      </trkpt>
      <trkpt lat="50.33671" lon="3.73463">
        <ele>68.87</ele>
        <time>2017-04-02T10:35:44Z</time>
      </trkpt>
      <trkpt lat="50.33665" lon="3.73463">
        <ele>68.87</ele>
        <time>2017-04-02T10:36:13Z</time>
      </trkpt>
      <trkpt lat="50.33626" lon="3.73497">
        <ele>68.87</ele>
        <time>2017-04-02T10:36:39Z</time>
      </trkpt>
      <trkpt lat="50.33629" lon="3.73494">
        <ele>68.87</ele>
        <time>2017-04-02T10:36:58Z</time>
      </trkpt>
      <trkpt lat="50.33666" lon="3.73476">
        <ele>68.87</ele>
        <time>2017-04-02T10:37:30Z</time>
      </trkpt>
      <trkpt lat="50.3367" lon="3.73455">
        <ele>68.87</ele>
        <time>2017-04-02T10:37:56Z</time>
      </trkpt>
      <trkpt lat="50.33675" lon="3.73456">
        <ele>68.87</ele>
        <time>2017-04-02T10:38:24Z</time>
      </trkpt>
      <trkpt lat="50.33677" lon="3.73455">
        <ele>69.35</ele>
        <time>2017-04-02T10:38:56Z</time>
      </trkpt>
      <trkpt lat="50.33664" lon="3.73467">
        <ele>68.39</ele>
        <time>2017-04-02T10:39:21Z</time>
      </trkpt>
      <trkpt lat="50.33665" lon="3.73454">
        <ele>70.31</ele>
        <time>2017-04-02T10:39:29Z</time>
      </trkpt>
      <trkpt lat="50.33678" lon="3.73458">
        <ele>69.35</ele>
        <time>2017-04-02T10:40:03Z</time>
      </trkpt>
      <trkpt lat="50.33678" lon="3.73465">
        <ele>69.35</ele>
        <time>2017-04-02T10:40:26Z</time>
      </trkpt>
      <trkpt lat="50.33687" lon="3.73462">
        <ele>69.35</ele>
        <time>2017-04-02T10:40:47Z</time>
      </trkpt>
      <trkpt lat="50.33689" lon="3.73465">
        <ele>70.79</ele>
        <time>2017-04-02T10:40:50Z</time>
      </trkpt>
      <trkpt lat="50.33709" lon="3.73448">
        <ele>70.79</ele>
        <time>2017-04-02T10:41:11Z</time>
      </trkpt>
      <trkpt lat="50.33707" lon="3.73439">
        <ele>69.35</ele>
        <time>2017-04-02T10:41:36Z</time>
      </trkpt>
      <trkpt lat="50.33726" lon="3.73414">
        <ele>68.87</ele>
        <time>2017-04-02T10:41:55Z</time>
      </trkpt>
      <trkpt lat="50.33728" lon="3.73395">
        <ele>68.87</ele>
        <time>2017-04-02T10:42:14Z</time>
      </trkpt>
      <trkpt lat="50.33727" lon="3.73357">
        <ele>68.39</ele>
        <time>2017-04-02T10:42:37Z</time>
      </trkpt>
      <trkpt lat="50.33729" lon="3.73328">
        <ele>68.39</ele>
        <time>2017-04-02T10:42:56Z</time>
      </trkpt>
      <trkpt lat="50.33732" lon="3.73296">
        <ele>68.39</ele>
        <time>2017-04-02T10:43:20Z</time>
      </trkpt>
      <trkpt lat="50.33732" lon="3.73265">
        <ele>68.39</ele>
        <time>2017-04-02T10:43:38Z</time>
      </trkpt>
      <trkpt lat="50.33741" lon="3.73238">
        <ele>67.91</ele>
        <time>2017-04-02T10:43:59Z</time>
      </trkpt>
      <trkpt lat="50.33766" lon="3.73201">
        <ele>68.87</ele>
        <time>2017-04-02T10:44:20Z</time>
      </trkpt>
      <trkpt lat="50.33773" lon="3.73179">
        <ele>70.79</ele>
        <time>2017-04-02T10:44:39Z</time>
      </trkpt>
      <trkpt lat="50.33775" lon="3.73147">
        <ele>71.27</ele>
        <time>2017-04-02T10:45:00Z</time>
      </trkpt>
      <trkpt lat="50.33786" lon="3.73126">
        <ele>71.76</ele>
        <time>2017-04-02T10:45:18Z</time>
      </trkpt>
      <trkpt lat="50.33801" lon="3.73094">
        <ele>71.76</ele>
        <time>2017-04-02T10:45:40Z</time>
      </trkpt>
      <trkpt lat="50.33819" lon="3.73053">
        <ele>71.27</ele>
        <time>2017-04-02T10:46:05Z</time>
      </trkpt>
      <trkpt lat="50.33834" lon="3.73035">
        <ele>71.27</ele>
        <time>2017-04-02T10:46:28Z</time>
      </trkpt>
      <trkpt lat="50.33847" lon="3.72998">
        <ele>71.76</ele>
        <time>2017-04-02T10:46:50Z</time>
      </trkpt>
      <trkpt lat="50.33864" lon="3.72966">
        <ele>71.76</ele>
        <time>2017-04-02T10:47:10Z</time>
      </trkpt>
      <trkpt lat="50.33879" lon="3.72937">
        <ele>71.76</ele>
        <time>2017-04-02T10:47:31Z</time>
      </trkpt>
      <trkpt lat="50.33894" lon="3.72906">
        <ele>71.27</ele>
        <time>2017-04-02T10:47:57Z</time>
      </trkpt>
      <trkpt lat="50.33916" lon="3.72881">
        <ele>71.27</ele>
        <time>2017-04-02T10:48:15Z</time>
      </trkpt>
      <trkpt lat="50.33933" lon="3.72855">
        <ele>71.27</ele>
        <time>2017-04-02T10:48:34Z</time>
      </trkpt>
      <trkpt lat="50.33945" lon="3.72822">
        <ele>71.27</ele>
        <time>2017-04-02T10:48:55Z</time>
      </trkpt>
      <trkpt lat="50.3396" lon="3.72791">
        <ele>71.27</ele>
        <time>2017-04-02T10:49:21Z</time>
      </trkpt>
      <trkpt lat="50.33975" lon="3.72754">
        <ele>70.79</ele>
        <time>2017-04-02T10:49:46Z</time>
      </trkpt>
      <trkpt lat="50.34002" lon="3.72725">
        <ele>69.83</ele>
        <time>2017-04-02T10:50:13Z</time>
      </trkpt>
      <trkpt lat="50.34015" lon="3.72688">
        <ele>69.35</ele>
        <time>2017-04-02T10:50:39Z</time>
      </trkpt>
      <trkpt lat="50.3402" lon="3.72663">
        <ele>70.31</ele>
        <time>2017-04-02T10:50:54Z</time>
      </trkpt>
      <trkpt lat="50.34012" lon="3.72631">
        <ele>71.27</ele>
        <time>2017-04-02T10:51:16Z</time>
      </trkpt>
      <trkpt lat="50.34024" lon="3.72605">
        <ele>71.27</ele>
        <time>2017-04-02T10:51:35Z</time>
      </trkpt>
      <trkpt lat="50.34045" lon="3.72559">
        <ele>71.27</ele>
        <time>2017-04-02T10:52:04Z</time>
      </trkpt>
      <trkpt lat="50.34046" lon="3.72542">
        <ele>70.79</ele>
        <time>2017-04-02T10:52:27Z</time>
      </trkpt>
      <trkpt lat="50.34044" lon="3.72541">
        <ele>70.79</ele>
        <time>2017-04-02T10:53:01Z</time>
      </trkpt>
      <trkpt lat="50.34056" lon="3.72531">
        <ele>70.79</ele>
        <time>2017-04-02T10:53:32Z</time>
      </trkpt>
      <trkpt lat="50.34082" lon="3.7249">
        <ele>71.27</ele>
        <time>2017-04-02T10:53:54Z</time>
      </trkpt>
      <trkpt lat="50.34094" lon="3.72443">
        <ele>72.72</ele>
        <time>2017-04-02T10:54:18Z</time>
      </trkpt>
      <trkpt lat="50.34093" lon="3.72445">
        <ele>74.16</ele>
        <time>2017-04-02T10:54:41Z</time>
      </trkpt>
      <trkpt lat="50.34094" lon="3.7243">
        <ele>77.04</ele>
        <time>2017-04-02T10:54:59Z</time>
      </trkpt>
      <trkpt lat="50.34111" lon="3.72385">
        <ele>78.48</ele>
        <time>2017-04-02T10:55:26Z</time>
      </trkpt>
      <trkpt lat="50.34125" lon="3.72357">
        <ele>77.52</ele>
        <time>2017-04-02T10:55:43Z</time>
      </trkpt>
      <trkpt lat="50.3414" lon="3.72312">
        <ele>77.52</ele>
        <time>2017-04-02T10:56:05Z</time>
      </trkpt>
      <trkpt lat="50.34163" lon="3.72259">
        <ele>77.04</ele>
        <time>2017-04-02T10:56:33Z</time>
      </trkpt>
      <trkpt lat="50.34176" lon="3.72236">
        <ele>78.48</ele>
        <time>2017-04-02T10:56:46Z</time>
      </trkpt>
      <trkpt lat="50.34177" lon="3.7223">
        <ele>77.52</ele>
        <time>2017-04-02T10:56:51Z</time>
      </trkpt>
      <trkpt lat="50.34184" lon="3.7219">
        <ele>77.04</ele>
        <time>2017-04-02T10:57:13Z</time>
      </trkpt>
      <trkpt lat="50.34185" lon="3.72185">
        <ele>78.48</ele>
        <time>2017-04-02T10:57:15Z</time>
      </trkpt>
      <trkpt lat="50.34202" lon="3.72142">
        <ele>78</ele>
        <time>2017-04-02T10:57:39Z</time>
      </trkpt>
      <trkpt lat="50.34209" lon="3.7212">
        <ele>78.97</ele>
        <time>2017-04-02T10:57:55Z</time>
      </trkpt>
      <trkpt lat="50.34216" lon="3.72098">
        <ele>77.52</ele>
        <time>2017-04-02T10:58:17Z</time>
      </trkpt>
      <trkpt lat="50.34216" lon="3.7208">
        <ele>78.48</ele>
        <time>2017-04-02T10:58:31Z</time>
      </trkpt>
      <trkpt lat="50.34218" lon="3.72051">
        <ele>78.97</ele>
        <time>2017-04-02T10:58:53Z</time>
      </trkpt>
      <trkpt lat="50.3422" lon="3.72035">
        <ele>81.37</ele>
        <time>2017-04-02T10:59:05Z</time>
      </trkpt>
      <trkpt lat="50.34224" lon="3.72">
        <ele>82.33</ele>
        <time>2017-04-02T10:59:22Z</time>
      </trkpt>
      <trkpt lat="50.34218" lon="3.71966">
        <ele>80.89</ele>
        <time>2017-04-02T10:59:37Z</time>
      </trkpt>
      <trkpt lat="50.34233" lon="3.71949">
        <ele>82.81</ele>
        <time>2017-04-02T10:59:55Z</time>
      </trkpt>
      <trkpt lat="50.34239" lon="3.7191">
        <ele>83.77</ele>
        <time>2017-04-02T11:00:16Z</time>
      </trkpt>
      <trkpt lat="50.34253" lon="3.71862">
        <ele>84.25</ele>
        <time>2017-04-02T11:00:40Z</time>
      </trkpt>
      <trkpt lat="50.34264" lon="3.71818">
        <ele>84.25</ele>
        <time>2017-04-02T11:01:03Z</time>
      </trkpt>
      <trkpt lat="50.34279" lon="3.71775">
        <ele>82.81</ele>
        <time>2017-04-02T11:01:28Z</time>
      </trkpt>
      <trkpt lat="50.34294" lon="3.71734">
        <ele>81.85</ele>
        <time>2017-04-02T11:01:53Z</time>
      </trkpt>
      <trkpt lat="50.34311" lon="3.71708">
        <ele>80.89</ele>
        <time>2017-04-02T11:02:11Z</time>
      </trkpt>
      <trkpt lat="50.34326" lon="3.71669">
        <ele>79.45</ele>
        <time>2017-04-02T11:02:37Z</time>
      </trkpt>
      <trkpt lat="50.34344" lon="3.71627">
        <ele>77.04</ele>
        <time>2017-04-02T11:03:02Z</time>
      </trkpt>
      <trkpt lat="50.34371" lon="3.71599">
        <ele>75.6</ele>
        <time>2017-04-02T11:03:25Z</time>
      </trkpt>
      <trkpt lat="50.34381" lon="3.71573">
        <ele>73.68</ele>
        <time>2017-04-02T11:03:45Z</time>
      </trkpt>
      <trkpt lat="50.34381" lon="3.71555">
        <ele>70.79</ele>
        <time>2017-04-02T11:03:56Z</time>
      </trkpt>
      <trkpt lat="50.34395" lon="3.71517">
        <ele>68.39</ele>
        <time>2017-04-02T11:04:21Z</time>
      </trkpt>
      <trkpt lat="50.3442" lon="3.71509">
        <ele>70.79</ele>
        <time>2017-04-02T11:04:43Z</time>
      </trkpt>
      <trkpt lat="50.34433" lon="3.71506">
        <ele>73.68</ele>
        <time>2017-04-02T11:04:57Z</time>
      </trkpt>
      <trkpt lat="50.34454" lon="3.71479">
        <ele>76.08</ele>
        <time>2017-04-02T11:05:22Z</time>
      </trkpt>
      <trkpt lat="50.34476" lon="3.71447">
        <ele>76.56</ele>
        <time>2017-04-02T11:05:45Z</time>
      </trkpt>
      <trkpt lat="50.345" lon="3.71418">
        <ele>77.52</ele>
        <time>2017-04-02T11:06:07Z</time>
      </trkpt>
      <trkpt lat="50.34519" lon="3.71396">
        <ele>77.52</ele>
        <time>2017-04-02T11:06:31Z</time>
      </trkpt>
      <trkpt lat="50.34533" lon="3.71375">
        <ele>77.52</ele>
        <time>2017-04-02T11:06:54Z</time>
      </trkpt>
      <trkpt lat="50.3456" lon="3.71344">
        <ele>77.52</ele>
        <time>2017-04-02T11:07:17Z</time>
      </trkpt>
      <trkpt lat="50.34584" lon="3.71314">
        <ele>77.04</ele>
        <time>2017-04-02T11:07:40Z</time>
      </trkpt>
      <trkpt lat="50.34611" lon="3.71286">
        <ele>77.04</ele>
        <time>2017-04-02T11:08:05Z</time>
      </trkpt>
      <trkpt lat="50.34633" lon="3.71265">
        <ele>77.04</ele>
        <time>2017-04-02T11:08:26Z</time>
      </trkpt>
      <trkpt lat="50.34642" lon="3.71276">
        <ele>75.6</ele>
        <time>2017-04-02T11:08:36Z</time>
      </trkpt>
      <trkpt lat="50.3463" lon="3.713">
        <ele>72.24</ele>
        <time>2017-04-02T11:08:57Z</time>
      </trkpt>
      <trkpt lat="50.34627" lon="3.71329">
        <ele>70.79</ele>
        <time>2017-04-02T11:09:18Z</time>
      </trkpt>
      <trkpt lat="50.34628" lon="3.71332">
        <ele>71.76</ele>
        <time>2017-04-02T11:09:20Z</time>
      </trkpt>
      <trkpt lat="50.34629" lon="3.71348">
        <ele>70.31</ele>
        <time>2017-04-02T11:09:35Z</time>
      </trkpt>
      <trkpt lat="50.34613" lon="3.71362">
        <ele>70.31</ele>
        <time>2017-04-02T11:09:56Z</time>
      </trkpt>
      <trkpt lat="50.34622" lon="3.71386">
        <ele>72.24</ele>
        <time>2017-04-02T11:10:15Z</time>
      </trkpt>
      <trkpt lat="50.34627" lon="3.71407">
        <ele>74.64</ele>
        <time>2017-04-02T11:10:31Z</time>
      </trkpt>
      <trkpt lat="50.3462" lon="3.71444">
        <ele>76.56</ele>
        <time>2017-04-02T11:10:51Z</time>
      </trkpt>
      <trkpt lat="50.34602" lon="3.71481">
        <ele>78.97</ele>
        <time>2017-04-02T11:11:13Z</time>
      </trkpt>
      <trkpt lat="50.3459" lon="3.71515">
        <ele>81.37</ele>
        <time>2017-04-02T11:11:34Z</time>
      </trkpt>
      <trkpt lat="50.34581" lon="3.71549">
        <ele>83.29</ele>
        <time>2017-04-02T11:11:55Z</time>
      </trkpt>
      <trkpt lat="50.34572" lon="3.71575">
        <ele>84.25</ele>
        <time>2017-04-02T11:12:14Z</time>
      </trkpt>
      <trkpt lat="50.34559" lon="3.71612">
        <ele>85.21</ele>
        <time>2017-04-02T11:12:36Z</time>
      </trkpt>
      <trkpt lat="50.34549" lon="3.71642">
        <ele>86.18</ele>
        <time>2017-04-02T11:12:59Z</time>
      </trkpt>
      <trkpt lat="50.3454" lon="3.71678">
        <ele>86.66</ele>
        <time>2017-04-02T11:13:18Z</time>
      </trkpt>
      <trkpt lat="50.3453" lon="3.71706">
        <ele>86.66</ele>
        <time>2017-04-02T11:13:39Z</time>
      </trkpt>
      <trkpt lat="50.34521" lon="3.71753">
        <ele>88.1</ele>
        <time>2017-04-02T11:14:02Z</time>
      </trkpt>
      <trkpt lat="50.34527" lon="3.71783">
        <ele>89.06</ele>
        <time>2017-04-02T11:14:22Z</time>
      </trkpt>
      <trkpt lat="50.34526" lon="3.71773">
        <ele>89.06</ele>
        <time>2017-04-02T11:14:44Z</time>
      </trkpt>
      <trkpt lat="50.34535" lon="3.71788">
        <ele>90.02</ele>
        <time>2017-04-02T11:15:07Z</time>
      </trkpt>
      <trkpt lat="50.34539" lon="3.71806">
        <ele>90.02</ele>
        <time>2017-04-02T11:15:34Z</time>
      </trkpt>
      <trkpt lat="50.34554" lon="3.71822">
        <ele>90.98</ele>
        <time>2017-04-02T11:15:59Z</time>
      </trkpt>
      <trkpt lat="50.34562" lon="3.7186">
        <ele>91.94</ele>
        <time>2017-04-02T11:16:20Z</time>
      </trkpt>
      <trkpt lat="50.34566" lon="3.71902">
        <ele>93.39</ele>
        <time>2017-04-02T11:16:44Z</time>
      </trkpt>
      <trkpt lat="50.34569" lon="3.71929">
        <ele>94.83</ele>
        <time>2017-04-02T11:17:06Z</time>
      </trkpt>
      <trkpt lat="50.34566" lon="3.71957">
        <ele>95.31</ele>
        <time>2017-04-02T11:17:30Z</time>
      </trkpt>
      <trkpt lat="50.34546" lon="3.71994">
        <ele>96.27</ele>
        <time>2017-04-02T11:17:54Z</time>
      </trkpt>
      <trkpt lat="50.34528" lon="3.72035">
        <ele>96.75</ele>
        <time>2017-04-02T11:18:17Z</time>
      </trkpt>
      <trkpt lat="50.34513" lon="3.72055">
        <ele>96.75</ele>
        <time>2017-04-02T11:18:37Z</time>
      </trkpt>
      <trkpt lat="50.34479" lon="3.72081">
        <ele>96.75</ele>
        <time>2017-04-02T11:19:03Z</time>
      </trkpt>
      <trkpt lat="50.34457" lon="3.72095">
        <ele>95.79</ele>
        <time>2017-04-02T11:19:25Z</time>
      </trkpt>
      <trkpt lat="50.34435" lon="3.72114">
        <ele>95.31</ele>
        <time>2017-04-02T11:19:47Z</time>
      </trkpt>
      <trkpt lat="50.34407" lon="3.72138">
        <ele>94.83</ele>
        <time>2017-04-02T11:20:09Z</time>
      </trkpt>
      <trkpt lat="50.34374" lon="3.72155">
        <ele>93.87</ele>
        <time>2017-04-02T11:20:34Z</time>
      </trkpt>
      <trkpt lat="50.3438" lon="3.72176">
        <ele>93.87</ele>
        <time>2017-04-02T11:20:53Z</time>
      </trkpt>
      <trkpt lat="50.34391" lon="3.7221">
        <ele>93.87</ele>
        <time>2017-04-02T11:21:13Z</time>
      </trkpt>
      <trkpt lat="50.34388" lon="3.72253">
        <ele>92.9</ele>
        <time>2017-04-02T11:21:33Z</time>
      </trkpt>
      <trkpt lat="50.34388" lon="3.72264">
        <ele>94.35</ele>
        <time>2017-04-02T11:21:37Z</time>
      </trkpt>
      <trkpt lat="50.34392" lon="3.72309">
        <ele>94.35</ele>
        <time>2017-04-02T11:22:00Z</time>
      </trkpt>
      <trkpt lat="50.34398" lon="3.72355">
        <ele>94.35</ele>
        <time>2017-04-02T11:22:22Z</time>
      </trkpt>
      <trkpt lat="50.344" lon="3.72392">
        <ele>94.35</ele>
        <time>2017-04-02T11:22:44Z</time>
      </trkpt>
      <trkpt lat="50.34405" lon="3.72435">
        <ele>92.9</ele>
        <time>2017-04-02T11:23:06Z</time>
      </trkpt>
      <trkpt lat="50.34413" lon="3.72474">
        <ele>91.46</ele>
        <time>2017-04-02T11:23:27Z</time>
      </trkpt>
      <trkpt lat="50.34413" lon="3.72527">
        <ele>90.5</ele>
        <time>2017-04-02T11:23:53Z</time>
      </trkpt>
      <trkpt lat="50.344" lon="3.7255">
        <ele>89.06</ele>
        <time>2017-04-02T11:24:14Z</time>
      </trkpt>
      <trkpt lat="50.34407" lon="3.72559">
        <ele>88.58</ele>
        <time>2017-04-02T11:24:38Z</time>
      </trkpt>
      <trkpt lat="50.34433" lon="3.72579">
        <ele>88.58</ele>
        <time>2017-04-02T11:25:00Z</time>
      </trkpt>
      <trkpt lat="50.34456" lon="3.72598">
        <ele>88.58</ele>
        <time>2017-04-02T11:25:23Z</time>
      </trkpt>
      <trkpt lat="50.34481" lon="3.72605">
        <ele>88.58</ele>
        <time>2017-04-02T11:25:44Z</time>
      </trkpt>
      <trkpt lat="50.34479" lon="3.72612">
        <ele>88.58</ele>
        <time>2017-04-02T11:26:06Z</time>
      </trkpt>
      <trkpt lat="50.34483" lon="3.72616">
        <ele>89.54</ele>
        <time>2017-04-02T11:26:41Z</time>
      </trkpt>
      <trkpt lat="50.34506" lon="3.7263">
        <ele>90.02</ele>
        <time>2017-04-02T11:27:04Z</time>
      </trkpt>
      <trkpt lat="50.34519" lon="3.72635">
        <ele>90.02</ele>
        <time>2017-04-02T11:27:23Z</time>
      </trkpt>
      <trkpt lat="50.34547" lon="3.72657">
        <ele>90.5</ele>
        <time>2017-04-02T11:27:48Z</time>
      </trkpt>
      <trkpt lat="50.34576" lon="3.72675">
        <ele>89.54</ele>
        <time>2017-04-02T11:28:10Z</time>
      </trkpt>
      <trkpt lat="50.34595" lon="3.72692">
        <ele>89.54</ele>
        <time>2017-04-02T11:28:29Z</time>
      </trkpt>
      <trkpt lat="50.346" lon="3.72697">
        <ele>89.54</ele>
        <time>2017-04-02T11:28:33Z</time>
      </trkpt>
      <trkpt lat="50.34622" lon="3.72714">
        <ele>90.98</ele>
        <time>2017-04-02T11:28:53Z</time>
      </trkpt>
      <trkpt lat="50.34642" lon="3.72733">
        <ele>91.94</ele>
        <time>2017-04-02T11:29:14Z</time>
      </trkpt>
      <trkpt lat="50.34663" lon="3.72745">
        <ele>92.42</ele>
        <time>2017-04-02T11:29:32Z</time>
      </trkpt>
      <trkpt lat="50.34688" lon="3.72764">
        <ele>93.39</ele>
        <time>2017-04-02T11:29:55Z</time>
      </trkpt>
      <trkpt lat="50.34709" lon="3.72783">
        <ele>94.83</ele>
        <time>2017-04-02T11:30:17Z</time>
      </trkpt>
      <trkpt lat="50.34732" lon="3.72819">
        <ele>95.79</ele>
        <time>2017-04-02T11:30:42Z</time>
      </trkpt>
      <trkpt lat="50.3474" lon="3.72832">
        <ele>95.79</ele>
        <time>2017-04-02T11:30:50Z</time>
      </trkpt>
      <trkpt lat="50.3476" lon="3.7287">
        <ele>95.79</ele>
        <time>2017-04-02T11:31:14Z</time>
      </trkpt>
      <trkpt lat="50.34777" lon="3.72914">
        <ele>94.83</ele>
        <time>2017-04-02T11:31:40Z</time>
      </trkpt>
      <trkpt lat="50.34793" lon="3.72952">
        <ele>94.35</ele>
        <time>2017-04-02T11:32:02Z</time>
      </trkpt>
      <trkpt lat="50.34802" lon="3.72958">
        <ele>93.87</ele>
        <time>2017-04-02T11:32:17Z</time>
      </trkpt>
      <trkpt lat="50.34803" lon="3.72959">
        <ele>93.87</ele>
        <time>2017-04-02T11:32:19Z</time>
      </trkpt>
      <trkpt lat="50.34812" lon="3.72951">
        <ele>95.31</ele>
        <time>2017-04-02T11:32:26Z</time>
      </trkpt>
      <trkpt lat="50.34835" lon="3.72931">
        <ele>97.23</ele>
        <time>2017-04-02T11:32:46Z</time>
      </trkpt>
      <trkpt lat="50.34848" lon="3.7292">
        <ele>99.15</ele>
        <time>2017-04-02T11:33:05Z</time>
      </trkpt>
      <trkpt lat="50.34859" lon="3.72913">
        <ele>100.11</ele>
        <time>2017-04-02T11:33:23Z</time>
      </trkpt>
      <trkpt lat="50.34881" lon="3.72907">
        <ele>101.08</ele>
        <time>2017-04-02T11:33:43Z</time>
      </trkpt>
      <trkpt lat="50.34902" lon="3.7288">
        <ele>102.52</ele>
        <time>2017-04-02T11:34:02Z</time>
      </trkpt>
      <trkpt lat="50.34913" lon="3.72867">
        <ele>103</ele>
        <time>2017-04-02T11:34:16Z</time>
      </trkpt>
      <trkpt lat="50.34936" lon="3.72847">
        <ele>103.96</ele>
        <time>2017-04-02T11:34:38Z</time>
      </trkpt>
      <trkpt lat="50.3496" lon="3.72825">
        <ele>103.96</ele>
        <time>2017-04-02T11:35:00Z</time>
      </trkpt>
      <trkpt lat="50.34955" lon="3.72832">
        <ele>104.44</ele>
        <time>2017-04-02T11:35:21Z</time>
      </trkpt>
      <trkpt lat="50.34963" lon="3.72826">
        <ele>104.44</ele>
        <time>2017-04-02T11:35:36Z</time>
      </trkpt>
      <trkpt lat="50.34967" lon="3.72821">
        <ele>104.44</ele>
        <time>2017-04-02T11:35:40Z</time>
      </trkpt>
      <trkpt lat="50.34996" lon="3.72794">
        <ele>105.4</ele>
        <time>2017-04-02T11:36:05Z</time>
      </trkpt>
      <trkpt lat="50.35024" lon="3.72772">
        <ele>105.88</ele>
        <time>2017-04-02T11:36:31Z</time>
      </trkpt>
      <trkpt lat="50.35048" lon="3.72748">
        <ele>106.36</ele>
        <time>2017-04-02T11:36:55Z</time>
      </trkpt>
      <trkpt lat="50.35058" lon="3.72738">
        <ele>104.92</ele>
        <time>2017-04-02T11:37:05Z</time>
      </trkpt>
      <trkpt lat="50.35085" lon="3.72712">
        <ele>104.92</ele>
        <time>2017-04-02T11:37:29Z</time>
      </trkpt>
      <trkpt lat="50.35113" lon="3.72687">
        <ele>104.44</ele>
        <time>2017-04-02T11:37:55Z</time>
      </trkpt>
      <trkpt lat="50.35136" lon="3.72665">
        <ele>103.48</ele>
        <time>2017-04-02T11:38:15Z</time>
      </trkpt>
      <trkpt lat="50.3516" lon="3.72638">
        <ele>102.52</ele>
        <time>2017-04-02T11:38:39Z</time>
      </trkpt>
      <trkpt lat="50.35182" lon="3.72614">
        <ele>101.56</ele>
        <time>2017-04-02T11:39:02Z</time>
      </trkpt>
      <trkpt lat="50.352" lon="3.72593">
        <ele>100.6</ele>
        <time>2017-04-02T11:39:23Z</time>
      </trkpt>
      <trkpt lat="50.35215" lon="3.72575">
        <ele>98.67</ele>
        <time>2017-04-02T11:39:43Z</time>
      </trkpt>
      <trkpt lat="50.35236" lon="3.72554">
        <ele>97.23</ele>
        <time>2017-04-02T11:40:04Z</time>
      </trkpt>
      <trkpt lat="50.35263" lon="3.72538">
        <ele>96.27</ele>
        <time>2017-04-02T11:40:23Z</time>
      </trkpt>
      <trkpt lat="50.35286" lon="3.7251">
        <ele>95.31</ele>
        <time>2017-04-02T11:40:46Z</time>
      </trkpt>
      <trkpt lat="50.35299" lon="3.72478">
        <ele>94.35</ele>
        <time>2017-04-02T11:41:08Z</time>
      </trkpt>
      <trkpt lat="50.35308" lon="3.72441">
        <ele>93.87</ele>
        <time>2017-04-02T11:41:29Z</time>
      </trkpt>
      <trkpt lat="50.35323" lon="3.72415">
        <ele>92.9</ele>
        <time>2017-04-02T11:41:50Z</time>
      </trkpt>
      <trkpt lat="50.35337" lon="3.7239">
        <ele>91.94</ele>
        <time>2017-04-02T11:42:12Z</time>
      </trkpt>
      <trkpt lat="50.35345" lon="3.72371">
        <ele>90.98</ele>
        <time>2017-04-02T11:42:32Z</time>
      </trkpt>
      <trkpt lat="50.35355" lon="3.72338">
        <ele>90.02</ele>
        <time>2017-04-02T11:42:50Z</time>
      </trkpt>
      <trkpt lat="50.3537" lon="3.72318">
        <ele>89.06</ele>
        <time>2017-04-02T11:43:10Z</time>
      </trkpt>
      <trkpt lat="50.35385" lon="3.72283">
        <ele>87.62</ele>
        <time>2017-04-02T11:43:31Z</time>
      </trkpt>
      <trkpt lat="50.35395" lon="3.7226">
        <ele>87.14</ele>
        <time>2017-04-02T11:43:50Z</time>
      </trkpt>
      <trkpt lat="50.35413" lon="3.72231">
        <ele>85.69</ele>
        <time>2017-04-02T11:44:09Z</time>
      </trkpt>
      <trkpt lat="50.35434" lon="3.72194">
        <ele>84.25</ele>
        <time>2017-04-02T11:44:28Z</time>
      </trkpt>
      <trkpt lat="50.3545" lon="3.7216">
        <ele>82.81</ele>
        <time>2017-04-02T11:44:49Z</time>
      </trkpt>
      <trkpt lat="50.35467" lon="3.72128">
        <ele>82.33</ele>
        <time>2017-04-02T11:45:09Z</time>
      </trkpt>
      <trkpt lat="50.35483" lon="3.72102">
        <ele>80.89</ele>
        <time>2017-04-02T11:45:31Z</time>
      </trkpt>
      <trkpt lat="50.35496" lon="3.72057">
        <ele>79.93</ele>
        <time>2017-04-02T11:45:53Z</time>
      </trkpt>
      <trkpt lat="50.35488" lon="3.72024">
        <ele>79.45</ele>
        <time>2017-04-02T11:46:13Z</time>
      </trkpt>
      <trkpt lat="50.35486" lon="3.71992">
        <ele>79.45</ele>
        <time>2017-04-02T11:46:33Z</time>
      </trkpt>
      <trkpt lat="50.35475" lon="3.71985">
        <ele>80.41</ele>
        <time>2017-04-02T11:46:54Z</time>
      </trkpt>
      <trkpt lat="50.35454" lon="3.71972">
        <ele>80.89</ele>
        <time>2017-04-02T11:47:19Z</time>
      </trkpt>
      <trkpt lat="50.35435" lon="3.71964">
        <ele>81.85</ele>
        <time>2017-04-02T11:47:38Z</time>
      </trkpt>
      <trkpt lat="50.35431" lon="3.71966">
        <ele>82.33</ele>
        <time>2017-04-02T11:47:42Z</time>
      </trkpt>
      <trkpt lat="50.35423" lon="3.71968">
        <ele>83.77</ele>
        <time>2017-04-02T11:47:52Z</time>
      </trkpt>
      <trkpt lat="50.35397" lon="3.71957">
        <ele>84.25</ele>
        <time>2017-04-02T11:48:13Z</time>
      </trkpt>
      <trkpt lat="50.35377" lon="3.71953">
        <ele>85.21</ele>
        <time>2017-04-02T11:48:34Z</time>
      </trkpt>
      <trkpt lat="50.35348" lon="3.71947">
        <ele>85.69</ele>
        <time>2017-04-02T11:48:57Z</time>
      </trkpt>
      <trkpt lat="50.35323" lon="3.71939">
        <ele>85.69</ele>
        <time>2017-04-02T11:49:17Z</time>
      </trkpt>
      <trkpt lat="50.3529" lon="3.71925">
        <ele>85.69</ele>
        <time>2017-04-02T11:49:39Z</time>
      </trkpt>
      <trkpt lat="50.35263" lon="3.71924">
        <ele>86.18</ele>
        <time>2017-04-02T11:50:00Z</time>
      </trkpt>
      <trkpt lat="50.3524" lon="3.71916">
        <ele>86.18</ele>
        <time>2017-04-02T11:50:22Z</time>
      </trkpt>
      <trkpt lat="50.35208" lon="3.71906">
        <ele>85.21</ele>
        <time>2017-04-02T11:50:41Z</time>
      </trkpt>
      <trkpt lat="50.35176" lon="3.71895">
        <ele>85.21</ele>
        <time>2017-04-02T11:51:03Z</time>
      </trkpt>
      <trkpt lat="50.35148" lon="3.71888">
        <ele>85.69</ele>
        <time>2017-04-02T11:51:24Z</time>
      </trkpt>
      <trkpt lat="50.35125" lon="3.71882">
        <ele>86.66</ele>
        <time>2017-04-02T11:51:45Z</time>
      </trkpt>
      <trkpt lat="50.35097" lon="3.71875">
        <ele>87.62</ele>
        <time>2017-04-02T11:52:06Z</time>
      </trkpt>
      <trkpt lat="50.35076" lon="3.71868">
        <ele>87.62</ele>
        <time>2017-04-02T11:52:28Z</time>
      </trkpt>
      <trkpt lat="50.35041" lon="3.71857">
        <ele>87.62</ele>
        <time>2017-04-02T11:52:46Z</time>
      </trkpt>
      <trkpt lat="50.35014" lon="3.71851">
        <ele>87.62</ele>
        <time>2017-04-02T11:53:07Z</time>
      </trkpt>
      <trkpt lat="50.34988" lon="3.71845">
        <ele>87.62</ele>
        <time>2017-04-02T11:53:27Z</time>
      </trkpt>
      <trkpt lat="50.34962" lon="3.71835">
        <ele>88.1</ele>
        <time>2017-04-02T11:53:51Z</time>
      </trkpt>
      <trkpt lat="50.3493" lon="3.71826">
        <ele>88.1</ele>
        <time>2017-04-02T11:54:12Z</time>
      </trkpt>
      <trkpt lat="50.34897" lon="3.71818">
        <ele>86.66</ele>
        <time>2017-04-02T11:54:35Z</time>
      </trkpt>
      <trkpt lat="50.34877" lon="3.71816">
        <ele>87.14</ele>
        <time>2017-04-02T11:54:54Z</time>
      </trkpt>
      <trkpt lat="50.3485" lon="3.71808">
        <ele>87.14</ele>
        <time>2017-04-02T11:55:14Z</time>
      </trkpt>
      <trkpt lat="50.3482" lon="3.71803">
        <ele>87.14</ele>
        <time>2017-04-02T11:55:37Z</time>
      </trkpt>
      <trkpt lat="50.34813" lon="3.71802">
        <ele>87.14</ele>
        <time>2017-04-02T11:55:42Z</time>
      </trkpt>
      <trkpt lat="50.34806" lon="3.718">
        <ele>88.58</ele>
        <time>2017-04-02T11:55:48Z</time>
      </trkpt>
      <trkpt lat="50.34811" lon="3.71768">
        <ele>87.62</ele>
        <time>2017-04-02T11:56:05Z</time>
      </trkpt>
      <trkpt lat="50.34813" lon="3.71755">
        <ele>87.62</ele>
        <time>2017-04-02T11:56:09Z</time>
      </trkpt>
      <trkpt lat="50.34832" lon="3.71718">
        <ele>87.14</ele>
        <time>2017-04-02T11:56:31Z</time>
      </trkpt>
      <trkpt lat="50.34844" lon="3.71674">
        <ele>86.66</ele>
        <time>2017-04-02T11:56:52Z</time>
      </trkpt>
      <trkpt lat="50.34861" lon="3.71641">
        <ele>86.66</ele>
        <time>2017-04-02T11:57:14Z</time>
      </trkpt>
      <trkpt lat="50.34884" lon="3.71626">
        <ele>86.18</ele>
        <time>2017-04-02T11:57:36Z</time>
      </trkpt>
      <trkpt lat="50.34906" lon="3.71598">
        <ele>86.18</ele>
        <time>2017-04-02T11:57:57Z</time>
      </trkpt>
      <trkpt lat="50.3493" lon="3.71574">
        <ele>85.69</ele>
        <time>2017-04-02T11:58:19Z</time>
      </trkpt>
      <trkpt lat="50.3495" lon="3.71552">
        <ele>85.21</ele>
        <time>2017-04-02T11:58:42Z</time>
      </trkpt>
      <trkpt lat="50.34965" lon="3.7153">
        <ele>84.73</ele>
        <time>2017-04-02T11:59:00Z</time>
      </trkpt>
      <trkpt lat="50.34981" lon="3.71504">
        <ele>84.25</ele>
        <time>2017-04-02T11:59:22Z</time>
      </trkpt>
      <trkpt lat="50.34997" lon="3.71476">
        <ele>84.25</ele>
        <time>2017-04-02T11:59:41Z</time>
      </trkpt>
      <trkpt lat="50.35005" lon="3.71441">
        <ele>83.29</ele>
        <time>2017-04-02T12:00:01Z</time>
      </trkpt>
      <trkpt lat="50.35017" lon="3.71399">
        <ele>83.29</ele>
        <time>2017-04-02T12:00:22Z</time>
      </trkpt>
      <trkpt lat="50.35033" lon="3.71376">
        <ele>82.33</ele>
        <time>2017-04-02T12:00:43Z</time>
      </trkpt>
      <trkpt lat="50.35052" lon="3.71356">
        <ele>81.37</ele>
        <time>2017-04-02T12:01:03Z</time>
      </trkpt>
      <trkpt lat="50.3507" lon="3.71332">
        <ele>80.89</ele>
        <time>2017-04-02T12:01:23Z</time>
      </trkpt>
      <trkpt lat="50.35098" lon="3.71318">
        <ele>80.41</ele>
        <time>2017-04-02T12:01:45Z</time>
      </trkpt>
      <trkpt lat="50.35127" lon="3.71299">
        <ele>78.97</ele>
        <time>2017-04-02T12:02:08Z</time>
      </trkpt>
      <trkpt lat="50.35149" lon="3.71279">
        <ele>78.48</ele>
        <time>2017-04-02T12:02:30Z</time>
      </trkpt>
      <trkpt lat="50.35169" lon="3.7126">
        <ele>78</ele>
        <time>2017-04-02T12:02:49Z</time>
      </trkpt>
      <trkpt lat="50.35195" lon="3.71234">
        <ele>77.52</ele>
        <time>2017-04-02T12:03:13Z</time>
      </trkpt>
      <trkpt lat="50.35218" lon="3.71208">
        <ele>77.04</ele>
        <time>2017-04-02T12:03:33Z</time>
      </trkpt>
      <trkpt lat="50.35219" lon="3.71204">
        <ele>76.56</ele>
        <time>2017-04-02T12:03:37Z</time>
      </trkpt>
      <trkpt lat="50.35239" lon="3.71182">
        <ele>76.08</ele>
        <time>2017-04-02T12:03:55Z</time>
      </trkpt>
      <trkpt lat="50.35262" lon="3.71155">
        <ele>75.12</ele>
        <time>2017-04-02T12:04:16Z</time>
      </trkpt>
      <trkpt lat="50.35271" lon="3.71141">
        <ele>75.6</ele>
        <time>2017-04-02T12:04:26Z</time>
      </trkpt>
      <trkpt lat="50.35293" lon="3.71111">
        <ele>74.64</ele>
        <time>2017-04-02T12:04:46Z</time>
      </trkpt>
      <trkpt lat="50.35318" lon="3.71082">
        <ele>73.68</ele>
        <time>2017-04-02T12:05:09Z</time>
      </trkpt>
      <trkpt lat="50.35348" lon="3.71055">
        <ele>73.68</ele>
        <time>2017-04-02T12:05:34Z</time>
      </trkpt>
      <trkpt lat="50.35377" lon="3.71024">
        <ele>72.72</ele>
        <time>2017-04-02T12:06:00Z</time>
      </trkpt>
      <trkpt lat="50.35403" lon="3.70998">
        <ele>72.72</ele>
        <time>2017-04-02T12:06:24Z</time>
      </trkpt>
      <trkpt lat="50.35427" lon="3.70973">
        <ele>72.24</ele>
        <time>2017-04-02T12:06:47Z</time>
      </trkpt>
      <trkpt lat="50.35448" lon="3.70943">
        <ele>71.27</ele>
        <time>2017-04-02T12:07:10Z</time>
      </trkpt>
      <trkpt lat="50.35474" lon="3.7091">
        <ele>69.83</ele>
        <time>2017-04-02T12:07:34Z</time>
      </trkpt>
      <trkpt lat="50.35497" lon="3.70881">
        <ele>68.87</ele>
        <time>2017-04-02T12:07:56Z</time>
      </trkpt>
      <trkpt lat="50.35521" lon="3.70848">
        <ele>67.91</ele>
        <time>2017-04-02T12:08:21Z</time>
      </trkpt>
      <trkpt lat="50.35546" lon="3.70826">
        <ele>67.43</ele>
        <time>2017-04-02T12:08:44Z</time>
      </trkpt>
      <trkpt lat="50.35561" lon="3.70819">
        <ele>67.43</ele>
        <time>2017-04-02T12:09:04Z</time>
      </trkpt>
      <trkpt lat="50.35576" lon="3.70806">
        <ele>66.95</ele>
        <time>2017-04-02T12:09:20Z</time>
      </trkpt>
      <trkpt lat="50.35601" lon="3.70785">
        <ele>66.47</ele>
        <time>2017-04-02T12:09:46Z</time>
      </trkpt>
      <trkpt lat="50.35624" lon="3.70771">
        <ele>65.51</ele>
        <time>2017-04-02T12:10:09Z</time>
      </trkpt>
      <trkpt lat="50.3565" lon="3.70751">
        <ele>65.03</ele>
        <time>2017-04-02T12:10:32Z</time>
      </trkpt>
      <trkpt lat="50.35664" lon="3.70739">
        <ele>65.03</ele>
        <time>2017-04-02T12:10:46Z</time>
      </trkpt>
      <trkpt lat="50.35667" lon="3.70736">
        <ele>64.55</ele>
        <time>2017-04-02T12:10:49Z</time>
      </trkpt>
      <trkpt lat="50.35689" lon="3.70719">
        <ele>64.07</ele>
        <time>2017-04-02T12:11:09Z</time>
      </trkpt>
      <trkpt lat="50.3571" lon="3.70699">
        <ele>63.58</ele>
        <time>2017-04-02T12:11:29Z</time>
      </trkpt>
      <trkpt lat="50.35743" lon="3.70682">
        <ele>63.1</ele>
        <time>2017-04-02T12:11:55Z</time>
      </trkpt>
      <trkpt lat="50.35766" lon="3.70662">
        <ele>61.66</ele>
        <time>2017-04-02T12:12:17Z</time>
      </trkpt>
      <trkpt lat="50.35766" lon="3.70659">
        <ele>61.66</ele>
        <time>2017-04-02T12:12:31Z</time>
      </trkpt>
      <trkpt lat="50.35773" lon="3.70663">
        <ele>62.14</ele>
        <time>2017-04-02T12:12:48Z</time>
      </trkpt>
      <trkpt lat="50.35774" lon="3.70659">
        <ele>62.14</ele>
        <time>2017-04-02T12:12:58Z</time>
      </trkpt>
      <trkpt lat="50.35794" lon="3.7064">
        <ele>61.18</ele>
        <time>2017-04-02T12:13:20Z</time>
      </trkpt>
      <trkpt lat="50.35815" lon="3.70621">
        <ele>61.18</ele>
        <time>2017-04-02T12:13:39Z</time>
      </trkpt>
      <trkpt lat="50.35838" lon="3.70609">
        <ele>60.22</ele>
        <time>2017-04-02T12:14:01Z</time>
      </trkpt>
      <trkpt lat="50.35858" lon="3.70611">
        <ele>60.7</ele>
        <time>2017-04-02T12:14:20Z</time>
      </trkpt>
      <trkpt lat="50.35868" lon="3.70633">
        <ele>61.66</ele>
        <time>2017-04-02T12:14:37Z</time>
      </trkpt>
      <trkpt lat="50.35881" lon="3.7067">
        <ele>64.07</ele>
        <time>2017-04-02T12:15:00Z</time>
      </trkpt>
      <trkpt lat="50.35883" lon="3.70678">
        <ele>64.07</ele>
        <time>2017-04-02T12:15:05Z</time>
      </trkpt>
      <trkpt lat="50.35899" lon="3.70707">
        <ele>64.55</ele>
        <time>2017-04-02T12:15:23Z</time>
      </trkpt>
      <trkpt lat="50.35904" lon="3.70721">
        <ele>63.58</ele>
        <time>2017-04-02T12:15:31Z</time>
      </trkpt>
      <trkpt lat="50.35924" lon="3.70762">
        <ele>63.1</ele>
        <time>2017-04-02T12:15:56Z</time>
      </trkpt>
      <trkpt lat="50.35943" lon="3.70804">
        <ele>63.1</ele>
        <time>2017-04-02T12:16:21Z</time>
      </trkpt>
      <trkpt lat="50.35958" lon="3.70845">
        <ele>62.62</ele>
        <time>2017-04-02T12:16:44Z</time>
      </trkpt>
      <trkpt lat="50.35972" lon="3.70887">
        <ele>62.62</ele>
        <time>2017-04-02T12:17:07Z</time>
      </trkpt>
      <trkpt lat="50.35985" lon="3.70922">
        <ele>62.62</ele>
        <time>2017-04-02T12:17:26Z</time>
      </trkpt>
      <trkpt lat="50.36004" lon="3.70965">
        <ele>62.62</ele>
        <time>2017-04-02T12:17:51Z</time>
      </trkpt>
      <trkpt lat="50.36033" lon="3.70987">
        <ele>62.62</ele>
        <time>2017-04-02T12:18:13Z</time>
      </trkpt>
      <trkpt lat="50.36067" lon="3.71008">
        <ele>62.62</ele>
        <time>2017-04-02T12:18:39Z</time>
      </trkpt>
      <trkpt lat="50.36097" lon="3.71029">
        <ele>64.07</ele>
        <time>2017-04-02T12:19:04Z</time>
      </trkpt>
      <trkpt lat="50.36121" lon="3.71054">
        <ele>65.03</ele>
        <time>2017-04-02T12:19:26Z</time>
      </trkpt>
      <trkpt lat="50.36144" lon="3.71084">
        <ele>65.03</ele>
        <time>2017-04-02T12:19:49Z</time>
      </trkpt>
      <trkpt lat="50.36167" lon="3.71114">
        <ele>65.51</ele>
        <time>2017-04-02T12:20:12Z</time>
      </trkpt>
      <trkpt lat="50.36188" lon="3.71148">
        <ele>65.51</ele>
        <time>2017-04-02T12:20:37Z</time>
      </trkpt>
      <trkpt lat="50.36209" lon="3.71186">
        <ele>66.47</ele>
        <time>2017-04-02T12:21:02Z</time>
      </trkpt>
      <trkpt lat="50.36228" lon="3.71221">
        <ele>66.95</ele>
        <time>2017-04-02T12:21:24Z</time>
      </trkpt>
      <trkpt lat="50.36249" lon="3.71256">
        <ele>67.43</ele>
        <time>2017-04-02T12:21:47Z</time>
      </trkpt>
      <trkpt lat="50.36267" lon="3.71291">
        <ele>67.43</ele>
        <time>2017-04-02T12:22:08Z</time>
      </trkpt>
      <trkpt lat="50.36281" lon="3.71329">
        <ele>67.43</ele>
        <time>2017-04-02T12:22:31Z</time>
      </trkpt>
      <trkpt lat="50.36287" lon="3.71336">
        <ele>65.99</ele>
        <time>2017-04-02T12:22:38Z</time>
      </trkpt>
      <trkpt lat="50.36293" lon="3.71337">
        <ele>66.47</ele>
        <time>2017-04-02T12:22:59Z</time>
      </trkpt>
      <trkpt lat="50.36295" lon="3.71343">
        <ele>66.47</ele>
        <time>2017-04-02T12:23:18Z</time>
      </trkpt>
      <trkpt lat="50.36304" lon="3.7132">
        <ele>66.47</ele>
        <time>2017-04-02T12:23:36Z</time>
      </trkpt>
      <trkpt lat="50.36306" lon="3.71319">
        <ele>66.47</ele>
        <time>2017-04-02T12:23:37Z</time>
      </trkpt>
      <trkpt lat="50.36324" lon="3.71284">
        <ele>65.99</ele>
        <time>2017-04-02T12:24:00Z</time>
      </trkpt>
      <trkpt lat="50.36343" lon="3.71237">
        <ele>64.55</ele>
        <time>2017-04-02T12:24:27Z</time>
      </trkpt>
      <trkpt lat="50.36359" lon="3.71195">
        <ele>64.07</ele>
        <time>2017-04-02T12:24:51Z</time>
      </trkpt>
      <trkpt lat="50.36376" lon="3.71154">
        <ele>63.58</ele>
        <time>2017-04-02T12:25:14Z</time>
      </trkpt>
      <trkpt lat="50.36391" lon="3.71109">
        <ele>62.62</ele>
        <time>2017-04-02T12:25:37Z</time>
      </trkpt>
      <trkpt lat="50.36406" lon="3.71066">
        <ele>62.14</ele>
        <time>2017-04-02T12:26:00Z</time>
      </trkpt>
      <trkpt lat="50.36418" lon="3.71022">
        <ele>61.18</ele>
        <time>2017-04-02T12:26:23Z</time>
      </trkpt>
      <trkpt lat="50.36434" lon="3.70984">
        <ele>60.7</ele>
        <time>2017-04-02T12:26:44Z</time>
      </trkpt>
      <trkpt lat="50.36452" lon="3.70939">
        <ele>60.7</ele>
        <time>2017-04-02T12:27:09Z</time>
      </trkpt>
      <trkpt lat="50.36474" lon="3.709">
        <ele>59.74</ele>
        <time>2017-04-02T12:27:33Z</time>
      </trkpt>
      <trkpt lat="50.36495" lon="3.70862">
        <ele>60.22</ele>
        <time>2017-04-02T12:27:56Z</time>
      </trkpt>
      <trkpt lat="50.36514" lon="3.70826">
        <ele>59.74</ele>
        <time>2017-04-02T12:28:21Z</time>
      </trkpt>
      <trkpt lat="50.36533" lon="3.70791">
        <ele>59.74</ele>
        <time>2017-04-02T12:28:42Z</time>
      </trkpt>
      <trkpt lat="50.36533" lon="3.70789">
        <ele>59.74</ele>
        <time>2017-04-02T12:28:43Z</time>
      </trkpt>
      <trkpt lat="50.36551" lon="3.70757">
        <ele>59.26</ele>
        <time>2017-04-02T12:29:03Z</time>
      </trkpt>
      <trkpt lat="50.36564" lon="3.70728">
        <ele>57.82</ele>
        <time>2017-04-02T12:29:21Z</time>
      </trkpt>
      <trkpt lat="50.36571" lon="3.70713">
        <ele>56.86</ele>
        <time>2017-04-02T12:29:31Z</time>
      </trkpt>
      <trkpt lat="50.36576" lon="3.707">
        <ele>56.37</ele>
        <time>2017-04-02T12:29:39Z</time>
      </trkpt>
      <trkpt lat="50.36577" lon="3.70694">
        <ele>56.86</ele>
        <time>2017-04-02T12:29:43Z</time>
      </trkpt>
      <trkpt lat="50.36559" lon="3.7067">
        <ele>56.86</ele>
        <time>2017-04-02T12:30:03Z</time>
      </trkpt>
      <trkpt lat="50.36538" lon="3.70653">
        <ele>55.89</ele>
        <time>2017-04-02T12:30:23Z</time>
      </trkpt>
      <trkpt lat="50.36511" lon="3.70628">
        <ele>55.41</ele>
        <time>2017-04-02T12:30:46Z</time>
      </trkpt>
      <trkpt lat="50.36494" lon="3.70613">
        <ele>54.93</ele>
        <time>2017-04-02T12:31:00Z</time>
      </trkpt>
      <trkpt lat="50.36473" lon="3.70596">
        <ele>54.45</ele>
        <time>2017-04-02T12:31:20Z</time>
      </trkpt>
      <trkpt lat="50.36448" lon="3.70577">
        <ele>54.45</ele>
        <time>2017-04-02T12:31:39Z</time>
      </trkpt>
      <trkpt lat="50.36421" lon="3.70561">
        <ele>54.45</ele>
        <time>2017-04-02T12:32:02Z</time>
      </trkpt>
      <trkpt lat="50.36397" lon="3.70547">
        <ele>54.45</ele>
        <time>2017-04-02T12:32:21Z</time>
      </trkpt>
      <trkpt lat="50.36371" lon="3.70524">
        <ele>54.45</ele>
        <time>2017-04-02T12:32:45Z</time>
      </trkpt>
      <trkpt lat="50.36347" lon="3.70496">
        <ele>54.45</ele>
        <time>2017-04-02T12:33:07Z</time>
      </trkpt>
      <trkpt lat="50.36327" lon="3.70471">
        <ele>54.45</ele>
        <time>2017-04-02T12:33:26Z</time>
      </trkpt>
      <trkpt lat="50.36305" lon="3.70443">
        <ele>54.45</ele>
        <time>2017-04-02T12:33:47Z</time>
      </trkpt>
      <trkpt lat="50.36283" lon="3.7041">
        <ele>54.45</ele>
        <time>2017-04-02T12:34:10Z</time>
      </trkpt>
      <trkpt lat="50.36263" lon="3.70375">
        <ele>54.45</ele>
        <time>2017-04-02T12:34:33Z</time>
      </trkpt>
      <trkpt lat="50.36245" lon="3.70343">
        <ele>54.45</ele>
        <time>2017-04-02T12:34:54Z</time>
      </trkpt>
      <trkpt lat="50.36224" lon="3.70305">
        <ele>54.45</ele>
        <time>2017-04-02T12:35:17Z</time>
      </trkpt>
      <trkpt lat="50.36211" lon="3.70278">
        <ele>55.41</ele>
        <time>2017-04-02T12:35:34Z</time>
      </trkpt>
      <trkpt lat="50.36189" lon="3.70239">
        <ele>55.89</ele>
        <time>2017-04-02T12:36:01Z</time>
      </trkpt>
      <trkpt lat="50.36175" lon="3.70216">
        <ele>55.89</ele>
        <time>2017-04-02T12:36:17Z</time>
      </trkpt>
      <trkpt lat="50.3615" lon="3.70186">
        <ele>54.93</ele>
        <time>2017-04-02T12:36:41Z</time>
      </trkpt>
      <trkpt lat="50.36128" lon="3.70168">
        <ele>54.93</ele>
        <time>2017-04-02T12:37:01Z</time>
      </trkpt>
      <trkpt lat="50.36103" lon="3.70146">
        <ele>53.97</ele>
        <time>2017-04-02T12:37:23Z</time>
      </trkpt>
      <trkpt lat="50.36078" lon="3.70123">
        <ele>53.97</ele>
        <time>2017-04-02T12:37:45Z</time>
      </trkpt>
      <trkpt lat="50.36057" lon="3.70101">
        <ele>53.01</ele>
        <time>2017-04-02T12:38:05Z</time>
      </trkpt>
      <trkpt lat="50.36039" lon="3.70085">
        <ele>52.53</ele>
        <time>2017-04-02T12:38:22Z</time>
      </trkpt>
      <trkpt lat="50.36022" lon="3.70069">
        <ele>52.53</ele>
        <time>2017-04-02T12:38:38Z</time>
      </trkpt>
      <trkpt lat="50.36001" lon="3.70054">
        <ele>52.53</ele>
        <time>2017-04-02T12:38:57Z</time>
      </trkpt>
      <trkpt lat="50.35992" lon="3.70038">
        <ele>52.05</ele>
        <time>2017-04-02T12:39:14Z</time>
      </trkpt>
      <trkpt lat="50.35987" lon="3.70041">
        <ele>51.09</ele>
        <time>2017-04-02T12:39:19Z</time>
      </trkpt>
      <trkpt lat="50.35967" lon="3.70053">
        <ele>51.09</ele>
        <time>2017-04-02T12:39:40Z</time>
      </trkpt>
      <trkpt lat="50.35968" lon="3.70051">
        <ele>52.05</ele>
        <time>2017-04-02T12:40:04Z</time>
      </trkpt>
      <trkpt lat="50.35968" lon="3.70051">
        <ele>52.05</ele>
        <time>2017-04-02T12:40:34Z</time>
      </trkpt>
      <trkpt lat="50.35968" lon="3.70051">
        <ele>52.05</ele>
        <time>2017-04-02T12:40:53Z</time>
      </trkpt>
      <trkpt lat="50.35968" lon="3.70051">
        <ele>51.57</ele>
        <time>2017-04-02T12:40:59Z</time>
      </trkpt>
      <trkpt lat="50.35968" lon="3.70052">
        <ele>51.57</ele>
        <time>2017-04-02T12:41:27Z</time>
      </trkpt>
      <trkpt lat="50.35966" lon="3.70052">
        <ele>51.57</ele>
        <time>2017-04-02T12:41:56Z</time>
      </trkpt>
      <trkpt lat="50.35961" lon="3.70061">
        <ele>52.05</ele>
        <time>2017-04-02T12:42:18Z</time>
      </trkpt>
      <trkpt lat="50.35944" lon="3.7008">
        <ele>52.05</ele>
        <time>2017-04-02T12:42:36Z</time>
      </trkpt>
      <trkpt lat="50.35935" lon="3.7009">
        <ele>52.05</ele>
        <time>2017-04-02T12:42:46Z</time>
      </trkpt>
      <trkpt lat="50.35916" lon="3.70118">
        <ele>53.01</ele>
        <time>2017-04-02T12:43:08Z</time>
      </trkpt>
      <trkpt lat="50.35905" lon="3.7013">
        <ele>53.01</ele>
        <time>2017-04-02T12:43:18Z</time>
      </trkpt>
      <trkpt lat="50.35881" lon="3.70154">
        <ele>53.49</ele>
        <time>2017-04-02T12:43:41Z</time>
      </trkpt>
      <trkpt lat="50.3586" lon="3.70182">
        <ele>53.49</ele>
        <time>2017-04-02T12:44:03Z</time>
      </trkpt>
      <trkpt lat="50.35836" lon="3.70206">
        <ele>53.97</ele>
        <time>2017-04-02T12:44:24Z</time>
      </trkpt>
      <trkpt lat="50.3581" lon="3.7022">
        <ele>54.45</ele>
        <time>2017-04-02T12:44:46Z</time>
      </trkpt>
      <trkpt lat="50.35789" lon="3.70234">
        <ele>54.45</ele>
        <time>2017-04-02T12:45:05Z</time>
      </trkpt>
      <trkpt lat="50.35768" lon="3.70242">
        <ele>54.93</ele>
        <time>2017-04-02T12:45:21Z</time>
      </trkpt>
      <trkpt lat="50.35752" lon="3.70249">
        <ele>55.41</ele>
        <time>2017-04-02T12:45:34Z</time>
      </trkpt>
      <trkpt lat="50.35722" lon="3.70266">
        <ele>55.89</ele>
        <time>2017-04-02T12:45:58Z</time>
      </trkpt>
      <trkpt lat="50.35698" lon="3.70277">
        <ele>56.37</ele>
        <time>2017-04-02T12:46:19Z</time>
      </trkpt>
      <trkpt lat="50.35694" lon="3.70281">
        <ele>56.37</ele>
        <time>2017-04-02T12:46:23Z</time>
      </trkpt>
      <trkpt lat="50.35667" lon="3.7029">
        <ele>57.34</ele>
        <time>2017-04-02T12:46:44Z</time>
      </trkpt>
      <trkpt lat="50.35661" lon="3.70293">
        <ele>57.82</ele>
        <time>2017-04-02T12:46:49Z</time>
      </trkpt>
      <trkpt lat="50.35658" lon="3.70294">
        <ele>57.82</ele>
        <time>2017-04-02T12:46:51Z</time>
      </trkpt>
      <trkpt lat="50.3563" lon="3.70303">
        <ele>58.3</ele>
        <time>2017-04-02T12:47:12Z</time>
      </trkpt>
      <trkpt lat="50.35611" lon="3.70313">
        <ele>58.78</ele>
        <time>2017-04-02T12:47:30Z</time>
      </trkpt>
      <trkpt lat="50.35586" lon="3.70327">
        <ele>59.74</ele>
        <time>2017-04-02T12:47:50Z</time>
      </trkpt>
      <trkpt lat="50.35583" lon="3.70329">
        <ele>59.74</ele>
        <time>2017-04-02T12:47:53Z</time>
      </trkpt>
      <trkpt lat="50.35573" lon="3.70334">
        <ele>60.22</ele>
        <time>2017-04-02T12:48:01Z</time>
      </trkpt>
      <trkpt lat="50.35567" lon="3.70338">
        <ele>60.22</ele>
        <time>2017-04-02T12:48:06Z</time>
      </trkpt>
      <trkpt lat="50.35544" lon="3.70351">
        <ele>61.18</ele>
        <time>2017-04-02T12:48:23Z</time>
      </trkpt>
      <trkpt lat="50.35521" lon="3.70364">
        <ele>61.66</ele>
        <time>2017-04-02T12:48:42Z</time>
      </trkpt>
      <trkpt lat="50.35497" lon="3.70376">
        <ele>62.62</ele>
        <time>2017-04-02T12:49:01Z</time>
      </trkpt>
      <trkpt lat="50.3548" lon="3.70373">
        <ele>62.14</ele>
        <time>2017-04-02T12:49:20Z</time>
      </trkpt>
      <trkpt lat="50.3545" lon="3.70363">
        <ele>61.66</ele>
        <time>2017-04-02T12:49:43Z</time>
      </trkpt>
      <trkpt lat="50.35421" lon="3.70352">
        <ele>61.66</ele>
        <time>2017-04-02T12:50:05Z</time>
      </trkpt>
      <trkpt lat="50.35394" lon="3.70344">
        <ele>61.66</ele>
        <time>2017-04-02T12:50:24Z</time>
      </trkpt>
      <trkpt lat="50.35368" lon="3.70337">
        <ele>61.66</ele>
        <time>2017-04-02T12:50:44Z</time>
      </trkpt>
      <trkpt lat="50.35346" lon="3.70336">
        <ele>63.1</ele>
        <time>2017-04-02T12:51:01Z</time>
      </trkpt>
      <trkpt lat="50.35317" lon="3.70339">
        <ele>63.1</ele>
        <time>2017-04-02T12:51:24Z</time>
      </trkpt>
      <trkpt lat="50.3529" lon="3.70352">
        <ele>63.1</ele>
        <time>2017-04-02T12:51:46Z</time>
      </trkpt>
      <trkpt lat="50.35262" lon="3.70364">
        <ele>61.66</ele>
        <time>2017-04-02T12:52:06Z</time>
      </trkpt>
      <trkpt lat="50.3524" lon="3.70379">
        <ele>60.7</ele>
        <time>2017-04-02T12:52:26Z</time>
      </trkpt>
      <trkpt lat="50.35212" lon="3.70389">
        <ele>59.26</ele>
        <time>2017-04-02T12:52:49Z</time>
      </trkpt>
      <trkpt lat="50.35181" lon="3.70404">
        <ele>56.86</ele>
        <time>2017-04-02T12:53:13Z</time>
      </trkpt>
      <trkpt lat="50.35161" lon="3.70416">
        <ele>53.97</ele>
        <time>2017-04-02T12:53:34Z</time>
      </trkpt>
      <trkpt lat="50.35145" lon="3.70434">
        <ele>51.57</ele>
        <time>2017-04-02T12:53:51Z</time>
      </trkpt>
      <trkpt lat="50.35122" lon="3.70453">
        <ele>48.2</ele>
        <time>2017-04-02T12:54:15Z</time>
      </trkpt>
      <trkpt lat="50.35105" lon="3.70457">
        <ele>44.84</ele>
        <time>2017-04-02T12:54:36Z</time>
      </trkpt>
      <trkpt lat="50.35077" lon="3.70463">
        <ele>41.95</ele>
        <time>2017-04-02T12:54:58Z</time>
      </trkpt>
      <trkpt lat="50.35052" lon="3.7047">
        <ele>40.51</ele>
        <time>2017-04-02T12:55:17Z</time>
      </trkpt>
      <trkpt lat="50.35024" lon="3.70485">
        <ele>38.59</ele>
        <time>2017-04-02T12:55:41Z</time>
      </trkpt>
      <trkpt lat="50.34999" lon="3.70503">
        <ele>37.15</ele>
        <time>2017-04-02T12:56:02Z</time>
      </trkpt>
      <trkpt lat="50.3498" lon="3.70526">
        <ele>36.19</ele>
        <time>2017-04-02T12:56:26Z</time>
      </trkpt>
      <trkpt lat="50.34965" lon="3.70506">
        <ele>36.19</ele>
        <time>2017-04-02T12:56:41Z</time>
      </trkpt>
      <trkpt lat="50.34962" lon="3.70464">
        <ele>35.71</ele>
        <time>2017-04-02T12:57:01Z</time>
      </trkpt>
      <trkpt lat="50.34953" lon="3.70455">
        <ele>35.23</ele>
        <time>2017-04-02T12:57:18Z</time>
      </trkpt>
      <trkpt lat="50.3495" lon="3.70453">
        <ele>36.67</ele>
        <time>2017-04-02T12:57:22Z</time>
      </trkpt>
      <trkpt lat="50.34946" lon="3.70433">
        <ele>36.67</ele>
        <time>2017-04-02T12:57:37Z</time>
      </trkpt>
      <trkpt lat="50.34951" lon="3.70434">
        <ele>36.67</ele>
        <time>2017-04-02T12:57:57Z</time>
      </trkpt>
      <trkpt lat="50.34961" lon="3.70444">
        <ele>36.67</ele>
        <time>2017-04-02T12:58:15Z</time>
      </trkpt>
      <trkpt lat="50.34963" lon="3.70437">
        <ele>36.67</ele>
        <time>2017-04-02T12:58:38Z</time>
      </trkpt>
      <trkpt lat="50.34964" lon="3.70438">
        <ele>36.19</ele>
        <time>2017-04-02T12:59:06Z</time>
      </trkpt>
      <trkpt lat="50.34959" lon="3.70427">
        <ele>36.19</ele>
        <time>2017-04-02T12:59:22Z</time>
      </trkpt>
      <trkpt lat="50.34951" lon="3.70389">
        <ele>36.19</ele>
        <time>2017-04-02T12:59:44Z</time>
      </trkpt>
      <trkpt lat="50.34942" lon="3.70351">
        <ele>38.11</ele>
        <time>2017-04-02T13:00:01Z</time>
      </trkpt>
      <trkpt lat="50.3493" lon="3.70322">
        <ele>41.47</ele>
        <time>2017-04-02T13:00:19Z</time>
      </trkpt>
      <trkpt lat="50.34915" lon="3.70297">
        <ele>42.92</ele>
        <time>2017-04-02T13:00:35Z</time>
      </trkpt>
      <trkpt lat="50.34907" lon="3.70277">
        <ele>43.4</ele>
        <time>2017-04-02T13:00:49Z</time>
      </trkpt>
      <trkpt lat="50.34896" lon="3.7025">
        <ele>45.8</ele>
        <time>2017-04-02T13:01:09Z</time>
      </trkpt>
      <trkpt lat="50.34895" lon="3.70205">
        <ele>45.32</ele>
        <time>2017-04-02T13:01:29Z</time>
      </trkpt>
      <trkpt lat="50.349" lon="3.70164">
        <ele>47.24</ele>
        <time>2017-04-02T13:01:51Z</time>
      </trkpt>
      <trkpt lat="50.34898" lon="3.70148">
        <ele>48.68</ele>
        <time>2017-04-02T13:02:00Z</time>
      </trkpt>
      <trkpt lat="50.34897" lon="3.70113">
        <ele>51.09</ele>
        <time>2017-04-02T13:02:17Z</time>
      </trkpt>
      <trkpt lat="50.34898" lon="3.70085">
        <ele>53.97</ele>
        <time>2017-04-02T13:02:33Z</time>
      </trkpt>
      <trkpt lat="50.34897" lon="3.70046">
        <ele>56.37</ele>
        <time>2017-04-02T13:02:54Z</time>
      </trkpt>
      <trkpt lat="50.34897" lon="3.7001">
        <ele>59.26</ele>
        <time>2017-04-02T13:03:14Z</time>
      </trkpt>
      <trkpt lat="50.34901" lon="3.6997">
        <ele>61.18</ele>
        <time>2017-04-02T13:03:37Z</time>
      </trkpt>
      <trkpt lat="50.34906" lon="3.69935">
        <ele>62.62</ele>
        <time>2017-04-02T13:03:56Z</time>
      </trkpt>
      <trkpt lat="50.34908" lon="3.69907">
        <ele>65.99</ele>
        <time>2017-04-02T13:04:13Z</time>
      </trkpt>
      <trkpt lat="50.3491" lon="3.69884">
        <ele>67.91</ele>
        <time>2017-04-02T13:04:29Z</time>
      </trkpt>
      <trkpt lat="50.34912" lon="3.69868">
        <ele>69.35</ele>
        <time>2017-04-02T13:04:48Z</time>
      </trkpt>
      <trkpt lat="50.34913" lon="3.6987">
        <ele>70.31</ele>
        <time>2017-04-02T13:05:11Z</time>
      </trkpt>
      <trkpt lat="50.34914" lon="3.69865">
        <ele>69.35</ele>
        <time>2017-04-02T13:05:24Z</time>
      </trkpt>
      <trkpt lat="50.34913" lon="3.69855">
        <ele>69.35</ele>
        <time>2017-04-02T13:05:37Z</time>
      </trkpt>
      <trkpt lat="50.34913" lon="3.6985">
        <ele>70.79</ele>
        <time>2017-04-02T13:05:40Z</time>
      </trkpt>
      <trkpt lat="50.34911" lon="3.69837">
        <ele>71.27</ele>
        <time>2017-04-02T13:05:46Z</time>
      </trkpt>
      <trkpt lat="50.34907" lon="3.69791">
        <ele>73.68</ele>
        <time>2017-04-02T13:06:09Z</time>
      </trkpt>
      <trkpt lat="50.34901" lon="3.69749">
        <ele>75.6</ele>
        <time>2017-04-02T13:06:33Z</time>
      </trkpt>
      <trkpt lat="50.34894" lon="3.69705">
        <ele>76.56</ele>
        <time>2017-04-02T13:06:59Z</time>
      </trkpt>
      <trkpt lat="50.34891" lon="3.69684">
        <ele>77.52</ele>
        <time>2017-04-02T13:07:13Z</time>
      </trkpt>
      <trkpt lat="50.34885" lon="3.69638">
        <ele>77.52</ele>
        <time>2017-04-02T13:07:37Z</time>
      </trkpt>
      <trkpt lat="50.34882" lon="3.69594">
        <ele>76.56</ele>
        <time>2017-04-02T13:08:01Z</time>
      </trkpt>
      <trkpt lat="50.34882" lon="3.69572">
        <ele>76.56</ele>
        <time>2017-04-02T13:08:19Z</time>
      </trkpt>
      <trkpt lat="50.34882" lon="3.69523">
        <ele>76.08</ele>
        <time>2017-04-02T13:08:44Z</time>
      </trkpt>
      <trkpt lat="50.3488" lon="3.69465">
        <ele>75.6</ele>
        <time>2017-04-02T13:09:11Z</time>
      </trkpt>
      <trkpt lat="50.34879" lon="3.69422">
        <ele>74.64</ele>
        <time>2017-04-02T13:09:34Z</time>
      </trkpt>
      <trkpt lat="50.34878" lon="3.69393">
        <ele>74.16</ele>
        <time>2017-04-02T13:09:53Z</time>
      </trkpt>
      <trkpt lat="50.34878" lon="3.69366">
        <ele>73.68</ele>
        <time>2017-04-02T13:10:11Z</time>
      </trkpt>
      <trkpt lat="50.34875" lon="3.69315">
        <ele>72.72</ele>
        <time>2017-04-02T13:10:36Z</time>
      </trkpt>
      <trkpt lat="50.34878" lon="3.69296">
        <ele>71.27</ele>
        <time>2017-04-02T13:10:45Z</time>
      </trkpt>
      <trkpt lat="50.349" lon="3.69285">
        <ele>70.79</ele>
        <time>2017-04-02T13:11:06Z</time>
      </trkpt>
      <trkpt lat="50.34929" lon="3.69276">
        <ele>69.35</ele>
        <time>2017-04-02T13:11:28Z</time>
      </trkpt>
      <trkpt lat="50.34958" lon="3.69266">
        <ele>67.91</ele>
        <time>2017-04-02T13:11:52Z</time>
      </trkpt>
      <trkpt lat="50.34984" lon="3.69253">
        <ele>66.47</ele>
        <time>2017-04-02T13:12:14Z</time>
      </trkpt>
      <trkpt lat="50.34988" lon="3.69208">
        <ele>65.51</ele>
        <time>2017-04-02T13:12:36Z</time>
      </trkpt>
      <trkpt lat="50.34991" lon="3.69162">
        <ele>64.07</ele>
        <time>2017-04-02T13:13:00Z</time>
      </trkpt>
      <trkpt lat="50.34992" lon="3.69157">
        <ele>64.55</ele>
        <time>2017-04-02T13:13:03Z</time>
      </trkpt>
      <trkpt lat="50.34997" lon="3.69138">
        <ele>63.58</ele>
        <time>2017-04-02T13:13:15Z</time>
      </trkpt>
      <trkpt lat="50.35005" lon="3.69112">
        <ele>62.62</ele>
        <time>2017-04-02T13:13:29Z</time>
      </trkpt>
      <trkpt lat="50.35005" lon="3.69105">
        <ele>62.62</ele>
        <time>2017-04-02T13:13:32Z</time>
      </trkpt>
      <trkpt lat="50.35007" lon="3.69098">
        <ele>62.62</ele>
        <time>2017-04-02T13:13:37Z</time>
      </trkpt>
      <trkpt lat="50.35007" lon="3.69092">
        <ele>62.62</ele>
        <time>2017-04-02T13:13:54Z</time>
      </trkpt>
    </trkseg>
  </trk>
</gpx>